<?xml version='1.0' encoding='UTF-8'?><gpx version="1.1" creator="JPX - https://github.com/jenetics/jpx" xmlns="http://www.topografix.com/GPX/1/1"><trk><trkseg><trkpt lat="45.9546083" lon="12.6601517"><ele>27.0</ele><time>2026-04-22T09:19:23.977Z</time></trkpt><trkpt lat="45.9547867" lon="12.6601333"><ele>27.0</ele><time>2026-04-22T09:19:32.976Z</time></trkpt><trkpt lat="45.9549567" lon="12.6601467"><ele>27.0</ele><time>2026-04-22T09:19:39.977Z</time></trkpt><trkpt lat="45.955015" lon="12.6601833"><ele>27.0</ele><time>2026-04-22T09:19:42.979Z</time></trkpt><trkpt lat="45.955095" lon="12.6601433"><ele>27.400000000000002</ele><time>2026-04-22T09:19:45.978Z</time></trkpt><trkpt lat="45.9551767" lon="12.6601117"><ele>27.800000000000004</ele><time>2026-04-22T09:19:48.978Z</time></trkpt><trkpt lat="45.9552417" lon="12.6600883"><ele>28.2</ele><time>2026-04-22T09:19:50.978Z</time></trkpt><trkpt lat="45.9554" lon="12.6600517"><ele>28.6</ele><time>2026-04-22T09:19:56.977Z</time></trkpt><trkpt lat="45.9554717" lon="12.6599967"><ele>29.0</ele><time>2026-04-22T09:19:59.977Z</time></trkpt><trkpt lat="45.9555449" lon="12.6599557"><ele>28.999999999999996</ele><time>2026-04-22T09:20:03.976Z</time></trkpt><trkpt lat="45.9556409" lon="12.6599553"><ele>29.0</ele><time>2026-04-22T09:20:09.979Z</time></trkpt><trkpt lat="45.9556996" lon="12.659919"><ele>29.0</ele><time>2026-04-22T09:20:13.977Z</time></trkpt><trkpt lat="45.9557677" lon="12.6598667"><ele>29.0</ele><time>2026-04-22T09:20:17.978Z</time></trkpt><trkpt lat="45.9558316" lon="12.6598498"><ele>28.999999999999996</ele><time>2026-04-22T09:20:20.982Z</time></trkpt><trkpt lat="45.9559135" lon="12.6598439"><ele>29.0</ele><time>2026-04-22T09:20:23.978Z</time></trkpt><trkpt lat="45.9559987" lon="12.6598519"><ele>28.833333333333332</ele><time>2026-04-22T09:20:26.978Z</time></trkpt><trkpt lat="45.9560721" lon="12.6598404"><ele>28.666666666666664</ele><time>2026-04-22T09:20:29.976Z</time></trkpt><trkpt lat="45.9561396" lon="12.6598036"><ele>28.5</ele><time>2026-04-22T09:20:32.976Z</time></trkpt><trkpt lat="45.9562242" lon="12.6597856"><ele>28.333333333333336</ele><time>2026-04-22T09:20:35.978Z</time></trkpt><trkpt lat="45.9563598" lon="12.6597809"><ele>28.166666666666668</ele><time>2026-04-22T09:20:41.977Z</time></trkpt><trkpt lat="45.9564284" lon="12.6597616"><ele>28.0</ele><time>2026-04-22T09:20:44.977Z</time></trkpt><trkpt lat="45.9565032" lon="12.6597459"><ele>28.0</ele><time>2026-04-22T09:20:49.978Z</time></trkpt><trkpt lat="45.9566115" lon="12.659729"><ele>27.999999999999996</ele><time>2026-04-22T09:20:55.979Z</time></trkpt><trkpt lat="45.9566919" lon="12.6597095"><ele>27.999999999999996</ele><time>2026-04-22T09:20:57.978Z</time></trkpt><trkpt lat="45.9568026" lon="12.659664"><ele>28.0</ele><time>2026-04-22T09:21:01.978Z</time></trkpt><trkpt lat="45.9568667" lon="12.6596221"><ele>28.0</ele><time>2026-04-22T09:21:04.978Z</time></trkpt><trkpt lat="45.9569317" lon="12.6595577"><ele>28.000000000000004</ele><time>2026-04-22T09:21:08.978Z</time></trkpt><trkpt lat="45.9569969" lon="12.6595107"><ele>28.0</ele><time>2026-04-22T09:21:10.979Z</time></trkpt><trkpt lat="45.9570815" lon="12.6594814"><ele>28.0</ele><time>2026-04-22T09:21:16.978Z</time></trkpt><trkpt lat="45.9571929" lon="12.659452"><ele>28.0</ele><time>2026-04-22T09:21:22.981Z</time></trkpt><trkpt lat="45.9572586" lon="12.6594317"><ele>28.000000000000004</ele><time>2026-04-22T09:21:25.981Z</time></trkpt><trkpt lat="45.9573278" lon="12.6593619"><ele>28.0</ele><time>2026-04-22T09:21:29.978Z</time></trkpt><trkpt lat="45.957385" lon="12.6593"><ele>28.2</ele><time>2026-04-22T09:21:31.978Z</time></trkpt><trkpt lat="45.9574863" lon="12.6592227"><ele>28.4</ele><time>2026-04-22T09:21:35.978Z</time></trkpt><trkpt lat="45.957546" lon="12.6591729"><ele>28.599999999999998</ele><time>2026-04-22T09:21:37.978Z</time></trkpt><trkpt lat="45.9576505" lon="12.6591245"><ele>28.799999999999997</ele><time>2026-04-22T09:21:42.978Z</time></trkpt><trkpt lat="45.9577223" lon="12.6590892"><ele>29.0</ele><time>2026-04-22T09:21:45.978Z</time></trkpt><trkpt lat="45.9578029" lon="12.659015"><ele>29.000000000000004</ele><time>2026-04-22T09:21:50.978Z</time></trkpt><trkpt lat="45.9578475" lon="12.658949"><ele>29.0</ele><time>2026-04-22T09:21:54.977Z</time></trkpt><trkpt lat="45.957913" lon="12.658901"><ele>29.000000000000004</ele><time>2026-04-22T09:21:56.977Z</time></trkpt><trkpt lat="45.9579756" lon="12.6588564"><ele>29.000000000000004</ele><time>2026-04-22T09:21:59.978Z</time></trkpt><trkpt lat="45.9580469" lon="12.6588243"><ele>29.0</ele><time>2026-04-22T09:22:03.978Z</time></trkpt><trkpt lat="45.9581103" lon="12.6587989"><ele>29.000000000000004</ele><time>2026-04-22T09:22:08.978Z</time></trkpt><trkpt lat="45.9581861" lon="12.6587303"><ele>29.000000000000004</ele><time>2026-04-22T09:22:09.978Z</time></trkpt><trkpt lat="45.9582541" lon="12.6586662"><ele>28.666666666666664</ele><time>2026-04-22T09:22:11.978Z</time></trkpt><trkpt lat="45.9583101" lon="12.6585728"><ele>28.333333333333332</ele><time>2026-04-22T09:22:15.978Z</time></trkpt><trkpt lat="45.958364" lon="12.6584824"><ele>28.0</ele><time>2026-04-22T09:22:18.979Z</time></trkpt><trkpt lat="45.9584262" lon="12.6584205"><ele>27.666666666666664</ele><time>2026-04-22T09:22:21.977Z</time></trkpt><trkpt lat="45.9585071" lon="12.6584018"><ele>27.333333333333332</ele><time>2026-04-22T09:22:24.978Z</time></trkpt><trkpt lat="45.9585813" lon="12.6583902"><ele>27.0</ele><time>2026-04-22T09:22:27.978Z</time></trkpt><trkpt lat="45.958652" lon="12.6583423"><ele>26.714285714285715</ele><time>2026-04-22T09:22:31.977Z</time></trkpt><trkpt lat="45.9587083" lon="12.6582802"><ele>26.428571428571427</ele><time>2026-04-22T09:22:34.979Z</time></trkpt><trkpt lat="45.9587577" lon="12.6581958"><ele>26.142857142857146</ele><time>2026-04-22T09:22:37.978Z</time></trkpt><trkpt lat="45.9588088" lon="12.6581224"><ele>25.857142857142858</ele><time>2026-04-22T09:22:40.978Z</time></trkpt><trkpt lat="45.9588586" lon="12.6580468"><ele>25.571428571428573</ele><time>2026-04-22T09:22:43.978Z</time></trkpt><trkpt lat="45.9589088" lon="12.6579585"><ele>25.28571428571429</ele><time>2026-04-22T09:22:46.978Z</time></trkpt><trkpt lat="45.9589595" lon="12.6578748"><ele>25.0</ele><time>2026-04-22T09:22:49.977Z</time></trkpt><trkpt lat="45.959013" lon="12.6578011"><ele>25.000000000000004</ele><time>2026-04-22T09:22:52.978Z</time></trkpt><trkpt lat="45.9590789" lon="12.6577407"><ele>25.0</ele><time>2026-04-22T09:22:55.977Z</time></trkpt><trkpt lat="45.9591537" lon="12.6577002"><ele>25.0</ele><time>2026-04-22T09:22:58.977Z</time></trkpt><trkpt lat="45.9592244" lon="12.6576549"><ele>25.0</ele><time>2026-04-22T09:23:01.978Z</time></trkpt><trkpt lat="45.9592921" lon="12.6576181"><ele>25.000000000000004</ele><time>2026-04-22T09:23:04.978Z</time></trkpt><trkpt lat="45.9593581" lon="12.6575859"><ele>25.0</ele><time>2026-04-22T09:23:07.977Z</time></trkpt><trkpt lat="45.9594266" lon="12.6575512"><ele>25.000000000000004</ele><time>2026-04-22T09:23:10.98Z</time></trkpt><trkpt lat="45.9594993" lon="12.6575261"><ele>25.0</ele><time>2026-04-22T09:23:13.978Z</time></trkpt><trkpt lat="45.9595757" lon="12.6574966"><ele>25.0</ele><time>2026-04-22T09:23:16.978Z</time></trkpt><trkpt lat="45.9596561" lon="12.6574695"><ele>25.0</ele><time>2026-04-22T09:23:19.979Z</time></trkpt><trkpt lat="45.9597285" lon="12.6574646"><ele>25.000000000000004</ele><time>2026-04-22T09:23:22.979Z</time></trkpt><trkpt lat="45.9597994" lon="12.6574449"><ele>25.0</ele><time>2026-04-22T09:23:25.978Z</time></trkpt><trkpt lat="45.9598662" lon="12.6574097"><ele>25.000000000000004</ele><time>2026-04-22T09:23:28.978Z</time></trkpt><trkpt lat="45.959925" lon="12.6573588"><ele>25.0</ele><time>2026-04-22T09:23:31.978Z</time></trkpt><trkpt lat="45.9599696" lon="12.657279"><ele>25.0</ele><time>2026-04-22T09:23:34.978Z</time></trkpt><trkpt lat="45.9600159" lon="12.6571981"><ele>25.0</ele><time>2026-04-22T09:23:37.98Z</time></trkpt><trkpt lat="45.9600667" lon="12.6571361"><ele>25.0</ele><time>2026-04-22T09:23:40.979Z</time></trkpt><trkpt lat="45.9601336" lon="12.6570706"><ele>25.000000000000004</ele><time>2026-04-22T09:23:44.978Z</time></trkpt><trkpt lat="45.9601857" lon="12.6570137"><ele>25.0</ele><time>2026-04-22T09:23:47.979Z</time></trkpt><trkpt lat="45.9602458" lon="12.6569416"><ele>25.833333333333336</ele><time>2026-04-22T09:23:50.978Z</time></trkpt><trkpt lat="45.9603014" lon="12.6568636"><ele>26.666666666666668</ele><time>2026-04-22T09:23:53.978Z</time></trkpt><trkpt lat="45.9603588" lon="12.6567877"><ele>27.5</ele><time>2026-04-22T09:23:56.978Z</time></trkpt><trkpt lat="45.9604266" lon="12.6567101"><ele>28.333333333333336</ele><time>2026-04-22T09:23:59.982Z</time></trkpt><trkpt lat="45.9605047" lon="12.6566403"><ele>29.166666666666668</ele><time>2026-04-22T09:24:02.977Z</time></trkpt><trkpt lat="45.9605759" lon="12.6565743"><ele>30.0</ele><time>2026-04-22T09:24:05.978Z</time></trkpt><trkpt lat="45.9606385" lon="12.6565137"><ele>30.0</ele><time>2026-04-22T09:24:08.978Z</time></trkpt><trkpt lat="45.9607103" lon="12.6564675"><ele>30.0</ele><time>2026-04-22T09:24:11.977Z</time></trkpt><trkpt lat="45.9607856" lon="12.6564176"><ele>30.0</ele><time>2026-04-22T09:24:14.977Z</time></trkpt><trkpt lat="45.9608603" lon="12.6563852"><ele>30.0</ele><time>2026-04-22T09:24:17.978Z</time></trkpt><trkpt lat="45.9609189" lon="12.656347"><ele>30.0</ele><time>2026-04-22T09:24:20.979Z</time></trkpt><trkpt lat="45.9609844" lon="12.6563008"><ele>30.0</ele><time>2026-04-22T09:24:24.977Z</time></trkpt><trkpt lat="45.9610441" lon="12.656219"><ele>30.285714285714285</ele><time>2026-04-22T09:24:28.978Z</time></trkpt><trkpt lat="45.9611042" lon="12.6561539"><ele>30.57142857142857</ele><time>2026-04-22T09:24:31.977Z</time></trkpt><trkpt lat="45.9611505" lon="12.6560739"><ele>30.857142857142854</ele><time>2026-04-22T09:24:34.978Z</time></trkpt><trkpt lat="45.9611967" lon="12.6559981"><ele>31.142857142857142</ele><time>2026-04-22T09:24:37.979Z</time></trkpt><trkpt lat="45.9612541" lon="12.6559511"><ele>31.428571428571423</ele><time>2026-04-22T09:24:40.978Z</time></trkpt><trkpt lat="45.961323" lon="12.6559213"><ele>31.71428571428571</ele><time>2026-04-22T09:24:43.977Z</time></trkpt><trkpt lat="45.9613929" lon="12.6559011"><ele>32.0</ele><time>2026-04-22T09:24:46.978Z</time></trkpt><trkpt lat="45.9614704" lon="12.655891"><ele>32.166666666666664</ele><time>2026-04-22T09:24:49.977Z</time></trkpt><trkpt lat="45.961555" lon="12.6558906"><ele>32.33333333333333</ele><time>2026-04-22T09:24:52.977Z</time></trkpt><trkpt lat="45.9616873" lon="12.6558983"><ele>32.5</ele><time>2026-04-22T09:24:57.978Z</time></trkpt><trkpt lat="45.9617484" lon="12.6558583"><ele>32.666666666666664</ele><time>2026-04-22T09:25:00.978Z</time></trkpt><trkpt lat="45.9617956" lon="12.6557939"><ele>32.833333333333336</ele><time>2026-04-22T09:25:03.979Z</time></trkpt><trkpt lat="45.9618401" lon="12.655717"><ele>33.0</ele><time>2026-04-22T09:25:07.979Z</time></trkpt><trkpt lat="45.9619093" lon="12.655693"><ele>32.666666666666664</ele><time>2026-04-22T09:25:19.988Z</time></trkpt><trkpt lat="45.9619724" lon="12.6556599"><ele>32.333333333333336</ele><time>2026-04-22T09:25:26.984Z</time></trkpt><trkpt lat="45.9620441" lon="12.65562"><ele>32.0</ele><time>2026-04-22T09:25:32.98Z</time></trkpt><trkpt lat="45.9621595" lon="12.6556134"><ele>31.666666666666668</ele><time>2026-04-22T09:25:38.981Z</time></trkpt><trkpt lat="45.9622389" lon="12.65556"><ele>31.333333333333336</ele><time>2026-04-22T09:25:41.976Z</time></trkpt><trkpt lat="45.9622939" lon="12.6554998"><ele>31.0</ele><time>2026-04-22T09:25:43.978Z</time></trkpt><trkpt lat="45.9623517" lon="12.6554302"><ele>31.0</ele><time>2026-04-22T09:25:45.981Z</time></trkpt><trkpt lat="45.9624152" lon="12.6553448"><ele>31.0</ele><time>2026-04-22T09:25:48.095Z</time></trkpt><trkpt lat="45.9624696" lon="12.655241"><ele>31.0</ele><time>2026-04-22T09:25:49.987Z</time></trkpt><trkpt lat="45.9625186" lon="12.6551229"><ele>31.0</ele><time>2026-04-22T09:25:51.984Z</time></trkpt><trkpt lat="45.9625615" lon="12.6549889"><ele>31.0</ele><time>2026-04-22T09:25:54.047Z</time></trkpt><trkpt lat="45.9625991" lon="12.6548726"><ele>32.2</ele><time>2026-04-22T09:25:55.978Z</time></trkpt><trkpt lat="45.9626332" lon="12.6547746"><ele>33.400000000000006</ele><time>2026-04-22T09:25:58.166Z</time></trkpt><trkpt lat="45.9626833" lon="12.6546689"><ele>34.6</ele><time>2026-04-22T09:26:00.983Z</time></trkpt><trkpt lat="45.9627349" lon="12.6545739"><ele>35.800000000000004</ele><time>2026-04-22T09:26:03.977Z</time></trkpt><trkpt lat="45.962775" lon="12.6544753"><ele>37.0</ele><time>2026-04-22T09:26:06.979Z</time></trkpt><trkpt lat="45.962846" lon="12.6543208"><ele>37.142857142857146</ele><time>2026-04-22T09:26:11.98Z</time></trkpt><trkpt lat="45.9628846" lon="12.6542145"><ele>37.285714285714285</ele><time>2026-04-22T09:26:15.991Z</time></trkpt><trkpt lat="45.9629106" lon="12.6541267"><ele>37.42857142857143</ele><time>2026-04-22T09:26:18.981Z</time></trkpt><trkpt lat="45.9629404" lon="12.6540349"><ele>37.57142857142857</ele><time>2026-04-22T09:26:21.978Z</time></trkpt><trkpt lat="45.9629549" lon="12.6539312"><ele>37.714285714285715</ele><time>2026-04-22T09:26:24.977Z</time></trkpt><trkpt lat="45.9629776" lon="12.6538271"><ele>37.857142857142854</ele><time>2026-04-22T09:26:27.978Z</time></trkpt><trkpt lat="45.9629977" lon="12.6537361"><ele>38.0</ele><time>2026-04-22T09:26:30.977Z</time></trkpt><trkpt lat="45.9630252" lon="12.6536392"><ele>37.714285714285715</ele><time>2026-04-22T09:26:34.977Z</time></trkpt><trkpt lat="45.9630628" lon="12.6535498"><ele>37.42857142857143</ele><time>2026-04-22T09:26:38.977Z</time></trkpt><trkpt lat="45.9630681" lon="12.6534564"><ele>37.142857142857146</ele><time>2026-04-22T09:26:41.977Z</time></trkpt><trkpt lat="45.9630546" lon="12.653359"><ele>36.85714285714286</ele><time>2026-04-22T09:26:44.977Z</time></trkpt><trkpt lat="45.9630556" lon="12.6532641"><ele>36.57142857142857</ele><time>2026-04-22T09:26:47.978Z</time></trkpt><trkpt lat="45.9630827" lon="12.653155"><ele>36.28571428571429</ele><time>2026-04-22T09:26:50.977Z</time></trkpt><trkpt lat="45.9631293" lon="12.6530452"><ele>36.0</ele><time>2026-04-22T09:26:53.977Z</time></trkpt><trkpt lat="45.9631715" lon="12.6529316"><ele>36.0</ele><time>2026-04-22T09:26:56.978Z</time></trkpt><trkpt lat="45.9632142" lon="12.6528308"><ele>36.0</ele><time>2026-04-22T09:26:59.98Z</time></trkpt><trkpt lat="45.9632489" lon="12.6527307"><ele>36.0</ele><time>2026-04-22T09:27:02.976Z</time></trkpt><trkpt lat="45.963283" lon="12.6526342"><ele>36.0</ele><time>2026-04-22T09:27:05.978Z</time></trkpt><trkpt lat="45.9633006" lon="12.6525252"><ele>36.0</ele><time>2026-04-22T09:27:09.977Z</time></trkpt><trkpt lat="45.9633053" lon="12.6524161"><ele>36.0</ele><time>2026-04-22T09:27:14.977Z</time></trkpt><trkpt lat="45.9633361" lon="12.6523159"><ele>36.00000000000001</ele><time>2026-04-22T09:27:18.977Z</time></trkpt><trkpt lat="45.9633515" lon="12.6522156"><ele>36.0</ele><time>2026-04-22T09:27:22.977Z</time></trkpt><trkpt lat="45.9633616" lon="12.6521135"><ele>36.0</ele><time>2026-04-22T09:27:25.979Z</time></trkpt><trkpt lat="45.9633721" lon="12.6520031"><ele>36.0</ele><time>2026-04-22T09:27:28.977Z</time></trkpt><trkpt lat="45.9633859" lon="12.651893"><ele>36.0</ele><time>2026-04-22T09:27:31.98Z</time></trkpt><trkpt lat="45.9633987" lon="12.6517909"><ele>36.00000000000001</ele><time>2026-04-22T09:27:34.978Z</time></trkpt><trkpt lat="45.9634181" lon="12.6516984"><ele>36.0</ele><time>2026-04-22T09:27:37.977Z</time></trkpt><trkpt lat="45.9634418" lon="12.6516134"><ele>35.714285714285715</ele><time>2026-04-22T09:27:40.98Z</time></trkpt><trkpt lat="45.963464" lon="12.6515001"><ele>35.42857142857143</ele><time>2026-04-22T09:27:44.977Z</time></trkpt><trkpt lat="45.9634881" lon="12.6513956"><ele>35.14285714285714</ele><time>2026-04-22T09:27:47.977Z</time></trkpt><trkpt lat="45.9635059" lon="12.6513054"><ele>34.85714285714286</ele><time>2026-04-22T09:27:49.982Z</time></trkpt><trkpt lat="45.9635171" lon="12.6512158"><ele>34.57142857142857</ele><time>2026-04-22T09:27:51.977Z</time></trkpt><trkpt lat="45.9635282" lon="12.6511253"><ele>34.285714285714285</ele><time>2026-04-22T09:27:53.978Z</time></trkpt><trkpt lat="45.963553" lon="12.6510005"><ele>34.0</ele><time>2026-04-22T09:27:56.977Z</time></trkpt><trkpt lat="45.9635818" lon="12.6508782"><ele>33.99999999999999</ele><time>2026-04-22T09:27:59.978Z</time></trkpt><trkpt lat="45.963596" lon="12.6507777"><ele>34.0</ele><time>2026-04-22T09:28:02.981Z</time></trkpt><trkpt lat="45.96361" lon="12.6506868"><ele>34.0</ele><time>2026-04-22T09:28:05.977Z</time></trkpt><trkpt lat="45.9636223" lon="12.6505886"><ele>34.0</ele><time>2026-04-22T09:28:08.978Z</time></trkpt><trkpt lat="45.9636401" lon="12.650483"><ele>34.0</ele><time>2026-04-22T09:28:11.977Z</time></trkpt><trkpt lat="45.9636607" lon="12.650381"><ele>33.99999999999999</ele><time>2026-04-22T09:28:14.978Z</time></trkpt><trkpt lat="45.9636823" lon="12.6502755"><ele>34.0</ele><time>2026-04-22T09:28:17.978Z</time></trkpt><trkpt lat="45.9637107" lon="12.6501715"><ele>33.99999999999999</ele><time>2026-04-22T09:28:20.977Z</time></trkpt><trkpt lat="45.9637277" lon="12.6500659"><ele>34.0</ele><time>2026-04-22T09:28:23.978Z</time></trkpt><trkpt lat="45.963732" lon="12.6499676"><ele>34.0</ele><time>2026-04-22T09:28:26.977Z</time></trkpt><trkpt lat="45.9637432" lon="12.6498559"><ele>34.0</ele><time>2026-04-22T09:28:30.978Z</time></trkpt><trkpt lat="45.9637603" lon="12.6497678"><ele>34.0</ele><time>2026-04-22T09:28:33.98Z</time></trkpt><trkpt lat="45.9637969" lon="12.6496851"><ele>33.99999999999999</ele><time>2026-04-22T09:28:36.978Z</time></trkpt><trkpt lat="45.963836" lon="12.6496051"><ele>34.0</ele><time>2026-04-22T09:28:39.978Z</time></trkpt><trkpt lat="45.9638649" lon="12.6495072"><ele>34.333333333333336</ele><time>2026-04-22T09:28:43.979Z</time></trkpt><trkpt lat="45.9638929" lon="12.6494112"><ele>34.66666666666667</ele><time>2026-04-22T09:28:46.979Z</time></trkpt><trkpt lat="45.9639251" lon="12.649303"><ele>35.0</ele><time>2026-04-22T09:28:49.978Z</time></trkpt><trkpt lat="45.9639453" lon="12.649198"><ele>35.333333333333336</ele><time>2026-04-22T09:28:52.978Z</time></trkpt><trkpt lat="45.9639613" lon="12.6490689"><ele>35.666666666666664</ele><time>2026-04-22T09:28:55.977Z</time></trkpt><trkpt lat="45.9639866" lon="12.6489427"><ele>36.0</ele><time>2026-04-22T09:28:58.977Z</time></trkpt><trkpt lat="45.9640209" lon="12.648831"><ele>36.00000000000001</ele><time>2026-04-22T09:29:01.976Z</time></trkpt><trkpt lat="45.9640299" lon="12.6487141"><ele>36.0</ele><time>2026-04-22T09:29:04.979Z</time></trkpt><trkpt lat="45.9640374" lon="12.648618"><ele>36.0</ele><time>2026-04-22T09:29:07.98Z</time></trkpt><trkpt lat="45.9640582" lon="12.6485165"><ele>36.0</ele><time>2026-04-22T09:29:10.977Z</time></trkpt><trkpt lat="45.964081" lon="12.6484132"><ele>36.0</ele><time>2026-04-22T09:29:14.976Z</time></trkpt><trkpt lat="45.9641064" lon="12.6483101"><ele>36.00000000000001</ele><time>2026-04-22T09:29:18.979Z</time></trkpt><trkpt lat="45.9641316" lon="12.6482218"><ele>36.0</ele><time>2026-04-22T09:29:21.977Z</time></trkpt><trkpt lat="45.9641618" lon="12.6481334"><ele>36.0</ele><time>2026-04-22T09:29:24.977Z</time></trkpt><trkpt lat="45.9641778" lon="12.6480181"><ele>36.0</ele><time>2026-04-22T09:29:28.977Z</time></trkpt><trkpt lat="45.9641797" lon="12.6479083"><ele>36.0</ele><time>2026-04-22T09:29:32.977Z</time></trkpt><trkpt lat="45.9642069" lon="12.647794"><ele>36.0</ele><time>2026-04-22T09:29:36.977Z</time></trkpt><trkpt lat="45.9642398" lon="12.6476778"><ele>36.0</ele><time>2026-04-22T09:29:39.979Z</time></trkpt><trkpt lat="45.9642694" lon="12.6475931"><ele>36.0</ele><time>2026-04-22T09:29:41.976Z</time></trkpt><trkpt lat="45.9643059" lon="12.6475034"><ele>36.0</ele><time>2026-04-22T09:29:44.976Z</time></trkpt><trkpt lat="45.9643315" lon="12.6474063"><ele>36.0</ele><time>2026-04-22T09:29:49.977Z</time></trkpt><trkpt lat="45.9643481" lon="12.6472973"><ele>36.0</ele><time>2026-04-22T09:29:55.981Z</time></trkpt><trkpt lat="45.9643561" lon="12.6472073"><ele>36.0</ele><time>2026-04-22T09:29:58.978Z</time></trkpt><trkpt lat="45.9643679" lon="12.6471074"><ele>36.0</ele><time>2026-04-22T09:30:01.977Z</time></trkpt><trkpt lat="45.9643872" lon="12.6469782"><ele>36.0</ele><time>2026-04-22T09:30:04.976Z</time></trkpt><trkpt lat="45.9644093" lon="12.6468711"><ele>36.00000000000001</ele><time>2026-04-22T09:30:07.978Z</time></trkpt><trkpt lat="45.9644381" lon="12.6467702"><ele>36.0</ele><time>2026-04-22T09:30:11.977Z</time></trkpt><trkpt lat="45.9644645" lon="12.6466796"><ele>36.0</ele><time>2026-04-22T09:30:14.976Z</time></trkpt><trkpt lat="45.9644774" lon="12.6465841"><ele>36.0</ele><time>2026-04-22T09:30:17.978Z</time></trkpt><trkpt lat="45.9644705" lon="12.6464923"><ele>36.0</ele><time>2026-04-22T09:30:20.977Z</time></trkpt><trkpt lat="45.9644746" lon="12.6463759"><ele>36.00000000000001</ele><time>2026-04-22T09:30:24.979Z</time></trkpt><trkpt lat="45.9645029" lon="12.6462874"><ele>36.0</ele><time>2026-04-22T09:30:27.977Z</time></trkpt><trkpt lat="45.9645331" lon="12.6461956"><ele>35.666666666666664</ele><time>2026-04-22T09:30:30.983Z</time></trkpt><trkpt lat="45.964551" lon="12.6461031"><ele>35.333333333333336</ele><time>2026-04-22T09:30:33.977Z</time></trkpt><trkpt lat="45.9645925" lon="12.6460046"><ele>35.0</ele><time>2026-04-22T09:30:36.977Z</time></trkpt><trkpt lat="45.9646362" lon="12.6458949"><ele>34.66666666666667</ele><time>2026-04-22T09:30:39.977Z</time></trkpt><trkpt lat="45.9646568" lon="12.6457738"><ele>34.333333333333336</ele><time>2026-04-22T09:30:42.977Z</time></trkpt><trkpt lat="45.9646506" lon="12.6456829"><ele>34.0</ele><time>2026-04-22T09:30:45.978Z</time></trkpt><trkpt lat="45.9646631" lon="12.6455839"><ele>33.99999999999999</ele><time>2026-04-22T09:30:51.977Z</time></trkpt><trkpt lat="45.9646983" lon="12.6454776"><ele>34.0</ele><time>2026-04-22T09:30:54.976Z</time></trkpt><trkpt lat="45.9647209" lon="12.645379"><ele>34.0</ele><time>2026-04-22T09:30:56.977Z</time></trkpt><trkpt lat="45.9647403" lon="12.6452765"><ele>34.0</ele><time>2026-04-22T09:30:58.977Z</time></trkpt><trkpt lat="45.9647584" lon="12.6451711"><ele>34.0</ele><time>2026-04-22T09:31:00.977Z</time></trkpt><trkpt lat="45.9647797" lon="12.6450726"><ele>33.99999999999999</ele><time>2026-04-22T09:31:02.98Z</time></trkpt><trkpt lat="45.9647926" lon="12.6449835"><ele>34.0</ele><time>2026-04-22T09:31:04.977Z</time></trkpt><trkpt lat="45.9648149" lon="12.6448694"><ele>33.99999999999999</ele><time>2026-04-22T09:31:07.978Z</time></trkpt><trkpt lat="45.964851" lon="12.6447806"><ele>34.0</ele><time>2026-04-22T09:31:10.977Z</time></trkpt><trkpt lat="45.9648921" lon="12.6447097"><ele>34.0</ele><time>2026-04-22T09:31:13.976Z</time></trkpt><trkpt lat="45.9649199" lon="12.6446177"><ele>34.0</ele><time>2026-04-22T09:31:16.977Z</time></trkpt><trkpt lat="45.9649416" lon="12.644531"><ele>34.0</ele><time>2026-04-22T09:31:19.981Z</time></trkpt><trkpt lat="45.9649746" lon="12.6444258"><ele>33.99999999999999</ele><time>2026-04-22T09:31:23.978Z</time></trkpt><trkpt lat="45.9649967" lon="12.6443289"><ele>34.0</ele><time>2026-04-22T09:31:26.977Z</time></trkpt><trkpt lat="45.9650255" lon="12.6442085"><ele>33.833333333333336</ele><time>2026-04-22T09:31:29.976Z</time></trkpt><trkpt lat="45.9650538" lon="12.6441271"><ele>33.66666666666667</ele><time>2026-04-22T09:31:31.978Z</time></trkpt><trkpt lat="45.9650945" lon="12.6440158"><ele>33.5</ele><time>2026-04-22T09:31:34.977Z</time></trkpt><trkpt lat="45.9651232" lon="12.6438996"><ele>33.333333333333336</ele><time>2026-04-22T09:31:37.977Z</time></trkpt><trkpt lat="45.9651536" lon="12.6437739"><ele>33.166666666666664</ele><time>2026-04-22T09:31:40.978Z</time></trkpt><trkpt lat="45.9651872" lon="12.6436756"><ele>33.0</ele><time>2026-04-22T09:31:43.977Z</time></trkpt><trkpt lat="45.9651819" lon="12.6435834"><ele>33.0</ele><time>2026-04-22T09:31:50.978Z</time></trkpt><trkpt lat="45.9651677" lon="12.6434811"><ele>33.0</ele><time>2026-04-22T09:32:07.978Z</time></trkpt><trkpt lat="45.9651799" lon="12.6433851"><ele>33.0</ele><time>2026-04-22T09:32:10.978Z</time></trkpt><trkpt lat="45.965197" lon="12.6432703"><ele>33.0</ele><time>2026-04-22T09:32:13.978Z</time></trkpt><trkpt lat="45.9652266" lon="12.6431331"><ele>33.0</ele><time>2026-04-22T09:32:16.979Z</time></trkpt><trkpt lat="45.9652522" lon="12.6430408"><ele>33.0</ele><time>2026-04-22T09:32:18.978Z</time></trkpt><trkpt lat="45.9652778" lon="12.642921"><ele>33.0</ele><time>2026-04-22T09:32:21.98Z</time></trkpt><trkpt lat="45.9652896" lon="12.6428275"><ele>33.0</ele><time>2026-04-22T09:32:24.978Z</time></trkpt><trkpt lat="45.9653076" lon="12.6427152"><ele>33.0</ele><time>2026-04-22T09:32:28.978Z</time></trkpt><trkpt lat="45.9653308" lon="12.6426251"><ele>33.0</ele><time>2026-04-22T09:32:31.978Z</time></trkpt><trkpt lat="45.9653453" lon="12.642533"><ele>33.0</ele><time>2026-04-22T09:32:34.977Z</time></trkpt><trkpt lat="45.9653697" lon="12.6424457"><ele>33.0</ele><time>2026-04-22T09:32:37.977Z</time></trkpt><trkpt lat="45.965395" lon="12.642336"><ele>33.0</ele><time>2026-04-22T09:32:41.977Z</time></trkpt><trkpt lat="45.9654143" lon="12.6422474"><ele>33.166666666666664</ele><time>2026-04-22T09:32:44.978Z</time></trkpt><trkpt lat="45.9654425" lon="12.6421478"><ele>33.333333333333336</ele><time>2026-04-22T09:32:47.979Z</time></trkpt><trkpt lat="45.9654727" lon="12.6420669"><ele>33.5</ele><time>2026-04-22T09:32:49.978Z</time></trkpt><trkpt lat="45.9655229" lon="12.6419572"><ele>33.66666666666667</ele><time>2026-04-22T09:32:52.977Z</time></trkpt><trkpt lat="45.9655608" lon="12.64184"><ele>33.833333333333336</ele><time>2026-04-22T09:32:55.977Z</time></trkpt><trkpt lat="45.9655905" lon="12.6417317"><ele>34.0</ele><time>2026-04-22T09:32:58.976Z</time></trkpt><trkpt lat="45.9656174" lon="12.6416368"><ele>34.285714285714285</ele><time>2026-04-22T09:33:01.976Z</time></trkpt><trkpt lat="45.9656348" lon="12.6415488"><ele>34.57142857142857</ele><time>2026-04-22T09:33:04.977Z</time></trkpt><trkpt lat="45.9656437" lon="12.6414416"><ele>34.85714285714286</ele><time>2026-04-22T09:33:08.976Z</time></trkpt><trkpt lat="45.9656485" lon="12.6413461"><ele>35.14285714285714</ele><time>2026-04-22T09:33:12.977Z</time></trkpt><trkpt lat="45.9656767" lon="12.6412331"><ele>35.42857142857143</ele><time>2026-04-22T09:33:16.978Z</time></trkpt><trkpt lat="45.9657068" lon="12.641134"><ele>35.714285714285715</ele><time>2026-04-22T09:33:19.98Z</time></trkpt><trkpt lat="45.9657273" lon="12.6410415"><ele>36.0</ele><time>2026-04-22T09:33:21.977Z</time></trkpt><trkpt lat="45.9657476" lon="12.6409442"><ele>36.00000000000001</ele><time>2026-04-22T09:33:23.977Z</time></trkpt><trkpt lat="45.9657659" lon="12.6408563"><ele>36.0</ele><time>2026-04-22T09:33:25.978Z</time></trkpt><trkpt lat="45.9657714" lon="12.6407495"><ele>36.0</ele><time>2026-04-22T09:33:29.976Z</time></trkpt><trkpt lat="45.9657665" lon="12.6406494"><ele>36.0</ele><time>2026-04-22T09:33:33.98Z</time></trkpt><trkpt lat="45.965778" lon="12.6405398"><ele>36.0</ele><time>2026-04-22T09:33:36.976Z</time></trkpt><trkpt lat="45.9658041" lon="12.6404286"><ele>36.00000000000001</ele><time>2026-04-22T09:33:39.978Z</time></trkpt><trkpt lat="45.9658287" lon="12.6403223"><ele>36.0</ele><time>2026-04-22T09:33:42.976Z</time></trkpt><trkpt lat="45.9658518" lon="12.6402204"><ele>36.166666666666664</ele><time>2026-04-22T09:33:45.977Z</time></trkpt><trkpt lat="45.9658779" lon="12.6401094"><ele>36.333333333333336</ele><time>2026-04-22T09:33:48.978Z</time></trkpt><trkpt lat="45.96591" lon="12.6400035"><ele>36.5</ele><time>2026-04-22T09:33:51.978Z</time></trkpt><trkpt lat="45.9659338" lon="12.6398853"><ele>36.66666666666667</ele><time>2026-04-22T09:33:54.977Z</time></trkpt><trkpt lat="45.9659574" lon="12.6397567"><ele>36.833333333333336</ele><time>2026-04-22T09:33:57.981Z</time></trkpt><trkpt lat="45.9659626" lon="12.6396631"><ele>37.0</ele><time>2026-04-22T09:33:59.977Z</time></trkpt><trkpt lat="45.965964" lon="12.6395696"><ele>36.66666666666667</ele><time>2026-04-22T09:34:01.977Z</time></trkpt><trkpt lat="45.9659668" lon="12.639444"><ele>36.333333333333336</ele><time>2026-04-22T09:34:04.978Z</time></trkpt><trkpt lat="45.9659898" lon="12.6393294"><ele>36.0</ele><time>2026-04-22T09:34:07.977Z</time></trkpt><trkpt lat="45.9660259" lon="12.6392187"><ele>35.666666666666664</ele><time>2026-04-22T09:34:10.978Z</time></trkpt><trkpt lat="45.9660748" lon="12.6391185"><ele>35.33333333333333</ele><time>2026-04-22T09:34:13.976Z</time></trkpt><trkpt lat="45.9661256" lon="12.6390371"><ele>35.0</ele><time>2026-04-22T09:34:16.98Z</time></trkpt><trkpt lat="45.9661645" lon="12.6389346"><ele>35.0</ele><time>2026-04-22T09:34:20.978Z</time></trkpt><trkpt lat="45.9661853" lon="12.6388167"><ele>35.0</ele><time>2026-04-22T09:34:24.979Z</time></trkpt><trkpt lat="45.966209" lon="12.6387038"><ele>35.0</ele><time>2026-04-22T09:34:27.977Z</time></trkpt><trkpt lat="45.9662397" lon="12.6385739"><ele>35.0</ele><time>2026-04-22T09:34:30.978Z</time></trkpt><trkpt lat="45.9662595" lon="12.6384796"><ele>35.0</ele><time>2026-04-22T09:34:32.977Z</time></trkpt><trkpt lat="45.9662783" lon="12.6383859"><ele>35.0</ele><time>2026-04-22T09:34:34.977Z</time></trkpt><trkpt lat="45.9662956" lon="12.6382923"><ele>35.0</ele><time>2026-04-22T09:34:36.98Z</time></trkpt><trkpt lat="45.966313" lon="12.6382027"><ele>35.0</ele><time>2026-04-22T09:34:38.976Z</time></trkpt><trkpt lat="45.966331" lon="12.6381116"><ele>35.0</ele><time>2026-04-22T09:34:40.977Z</time></trkpt><trkpt lat="45.9663543" lon="12.6380264"><ele>35.0</ele><time>2026-04-22T09:34:42.977Z</time></trkpt><trkpt lat="45.9663868" lon="12.6379173"><ele>35.0</ele><time>2026-04-22T09:34:45.978Z</time></trkpt><trkpt lat="45.966423" lon="12.6378185"><ele>35.0</ele><time>2026-04-22T09:34:48.982Z</time></trkpt><trkpt lat="45.9664656" lon="12.6377193"><ele>35.0</ele><time>2026-04-22T09:34:51.977Z</time></trkpt><trkpt lat="45.9664993" lon="12.6376056"><ele>35.142857142857146</ele><time>2026-04-22T09:34:54.977Z</time></trkpt><trkpt lat="45.9665261" lon="12.6375003"><ele>35.285714285714285</ele><time>2026-04-22T09:34:57.978Z</time></trkpt><trkpt lat="45.9665543" lon="12.6373985"><ele>35.42857142857143</ele><time>2026-04-22T09:35:00.981Z</time></trkpt><trkpt lat="45.9665695" lon="12.6373035"><ele>35.57142857142857</ele><time>2026-04-22T09:35:03.978Z</time></trkpt><trkpt lat="45.9665887" lon="12.637214"><ele>35.714285714285715</ele><time>2026-04-22T09:35:06.976Z</time></trkpt><trkpt lat="45.9666097" lon="12.6371167"><ele>35.85714285714286</ele><time>2026-04-22T09:35:09.979Z</time></trkpt><trkpt lat="45.9666279" lon="12.6370122"><ele>36.0</ele><time>2026-04-22T09:35:12.977Z</time></trkpt><trkpt lat="45.966651" lon="12.6368961"><ele>36.333333333333336</ele><time>2026-04-22T09:35:15.978Z</time></trkpt><trkpt lat="45.9666814" lon="12.6367833"><ele>36.666666666666664</ele><time>2026-04-22T09:35:18.979Z</time></trkpt><trkpt lat="45.9667057" lon="12.6366715"><ele>37.0</ele><time>2026-04-22T09:35:21.978Z</time></trkpt><trkpt lat="45.9667161" lon="12.6365594"><ele>37.33333333333333</ele><time>2026-04-22T09:35:24.978Z</time></trkpt><trkpt lat="45.966736" lon="12.6364571"><ele>37.666666666666664</ele><time>2026-04-22T09:35:27.977Z</time></trkpt><trkpt lat="45.9667533" lon="12.6363569"><ele>38.0</ele><time>2026-04-22T09:35:30.978Z</time></trkpt><trkpt lat="45.9667797" lon="12.6362495"><ele>38.166666666666664</ele><time>2026-04-22T09:35:33.978Z</time></trkpt><trkpt lat="45.9667985" lon="12.6361302"><ele>38.33333333333333</ele><time>2026-04-22T09:35:36.978Z</time></trkpt><trkpt lat="45.9668096" lon="12.6360121"><ele>38.5</ele><time>2026-04-22T09:35:39.979Z</time></trkpt><trkpt lat="45.9668364" lon="12.6359048"><ele>38.666666666666664</ele><time>2026-04-22T09:35:42.977Z</time></trkpt><trkpt lat="45.9668665" lon="12.635797"><ele>38.833333333333336</ele><time>2026-04-22T09:35:45.981Z</time></trkpt><trkpt lat="45.9668901" lon="12.6356939"><ele>39.0</ele><time>2026-04-22T09:35:48.978Z</time></trkpt><trkpt lat="45.9669104" lon="12.6355885"><ele>39.0</ele><time>2026-04-22T09:35:51.979Z</time></trkpt><trkpt lat="45.9669283" lon="12.6354868"><ele>39.0</ele><time>2026-04-22T09:35:54.978Z</time></trkpt><trkpt lat="45.9669457" lon="12.6353811"><ele>39.0</ele><time>2026-04-22T09:35:57.978Z</time></trkpt><trkpt lat="45.9669788" lon="12.6352882"><ele>39.0</ele><time>2026-04-22T09:36:00.978Z</time></trkpt><trkpt lat="45.9669986" lon="12.6351976"><ele>39.0</ele><time>2026-04-22T09:36:03.978Z</time></trkpt><trkpt lat="45.9670144" lon="12.6351088"><ele>39.0</ele><time>2026-04-22T09:36:06.98Z</time></trkpt><trkpt lat="45.9670258" lon="12.6350054"><ele>39.0</ele><time>2026-04-22T09:36:09.975Z</time></trkpt><trkpt lat="45.9670461" lon="12.6348867"><ele>39.0</ele><time>2026-04-22T09:36:12.978Z</time></trkpt><trkpt lat="45.9670696" lon="12.6347654"><ele>39.0</ele><time>2026-04-22T09:36:15.978Z</time></trkpt><trkpt lat="45.9670996" lon="12.6346528"><ele>39.0</ele><time>2026-04-22T09:36:18.977Z</time></trkpt><trkpt lat="45.9671354" lon="12.6345516"><ele>39.0</ele><time>2026-04-22T09:36:21.977Z</time></trkpt><trkpt lat="45.9671614" lon="12.6344546"><ele>39.0</ele><time>2026-04-22T09:36:24.976Z</time></trkpt><trkpt lat="45.9671693" lon="12.6343517"><ele>39.0</ele><time>2026-04-22T09:36:27.977Z</time></trkpt><trkpt lat="45.967171" lon="12.634242"><ele>38.85714285714286</ele><time>2026-04-22T09:36:30.979Z</time></trkpt><trkpt lat="45.9671806" lon="12.6341335"><ele>38.71428571428571</ele><time>2026-04-22T09:36:33.978Z</time></trkpt><trkpt lat="45.9671832" lon="12.6340268"><ele>38.57142857142857</ele><time>2026-04-22T09:36:36.977Z</time></trkpt><trkpt lat="45.9671816" lon="12.6339244"><ele>38.42857142857143</ele><time>2026-04-22T09:36:39.977Z</time></trkpt><trkpt lat="45.9671878" lon="12.633822"><ele>38.28571428571429</ele><time>2026-04-22T09:36:42.977Z</time></trkpt><trkpt lat="45.9671801" lon="12.6337144"><ele>38.14285714285714</ele><time>2026-04-22T09:36:45.977Z</time></trkpt><trkpt lat="45.9671795" lon="12.633605"><ele>38.0</ele><time>2026-04-22T09:36:48.976Z</time></trkpt><trkpt lat="45.9671915" lon="12.6335061"><ele>38.0</ele><time>2026-04-22T09:36:51.976Z</time></trkpt><trkpt lat="45.9672076" lon="12.6334151"><ele>38.0</ele><time>2026-04-22T09:36:54.978Z</time></trkpt><trkpt lat="45.9672272" lon="12.6333225"><ele>38.0</ele><time>2026-04-22T09:36:57.976Z</time></trkpt><trkpt lat="45.9672451" lon="12.6332245"><ele>38.0</ele><time>2026-04-22T09:37:00.976Z</time></trkpt><trkpt lat="45.9672632" lon="12.6331294"><ele>38.0</ele><time>2026-04-22T09:37:03.985Z</time></trkpt><trkpt lat="45.9672818" lon="12.6330152"><ele>38.0</ele><time>2026-04-22T09:37:07.979Z</time></trkpt><trkpt lat="45.9672939" lon="12.6329247"><ele>38.0</ele><time>2026-04-22T09:37:10.977Z</time></trkpt><trkpt lat="45.9672957" lon="12.6328333"><ele>37.83333333333333</ele><time>2026-04-22T09:37:13.977Z</time></trkpt><trkpt lat="45.9673079" lon="12.6327123"><ele>37.666666666666664</ele><time>2026-04-22T09:37:17.978Z</time></trkpt><trkpt lat="45.9673249" lon="12.6326049"><ele>37.5</ele><time>2026-04-22T09:37:20.977Z</time></trkpt><trkpt lat="45.9673392" lon="12.6324888"><ele>37.333333333333336</ele><time>2026-04-22T09:37:23.976Z</time></trkpt><trkpt lat="45.967347" lon="12.6323667"><ele>37.16666666666667</ele><time>2026-04-22T09:37:26.977Z</time></trkpt><trkpt lat="45.967351" lon="12.632244"><ele>37.0</ele><time>2026-04-22T09:37:29.976Z</time></trkpt><trkpt lat="45.9673495" lon="12.632123"><ele>37.0</ele><time>2026-04-22T09:37:32.977Z</time></trkpt><trkpt lat="45.9673556" lon="12.6319959"><ele>37.0</ele><time>2026-04-22T09:37:35.976Z</time></trkpt><trkpt lat="45.9673581" lon="12.6318732"><ele>37.0</ele><time>2026-04-22T09:37:38.977Z</time></trkpt><trkpt lat="45.96736" lon="12.6317675"><ele>37.0</ele><time>2026-04-22T09:37:41.977Z</time></trkpt><trkpt lat="45.9673625" lon="12.6316748"><ele>37.0</ele><time>2026-04-22T09:37:44.977Z</time></trkpt><trkpt lat="45.9673727" lon="12.6315818"><ele>37.0</ele><time>2026-04-22T09:37:47.976Z</time></trkpt><trkpt lat="45.9673828" lon="12.6314788"><ele>37.142857142857146</ele><time>2026-04-22T09:37:50.977Z</time></trkpt><trkpt lat="45.9673908" lon="12.6313774"><ele>37.285714285714285</ele><time>2026-04-22T09:37:53.977Z</time></trkpt><trkpt lat="45.9674048" lon="12.6312708"><ele>37.42857142857143</ele><time>2026-04-22T09:37:56.977Z</time></trkpt><trkpt lat="45.9674208" lon="12.6311597"><ele>37.57142857142857</ele><time>2026-04-22T09:37:59.98Z</time></trkpt><trkpt lat="45.9674318" lon="12.6310518"><ele>37.714285714285715</ele><time>2026-04-22T09:38:02.977Z</time></trkpt><trkpt lat="45.9674234" lon="12.6309469"><ele>37.857142857142854</ele><time>2026-04-22T09:38:05.977Z</time></trkpt><trkpt lat="45.9674142" lon="12.6308496"><ele>38.0</ele><time>2026-04-22T09:38:08.976Z</time></trkpt><trkpt lat="45.9674173" lon="12.6307302"><ele>38.0</ele><time>2026-04-22T09:38:12.982Z</time></trkpt><trkpt lat="45.9674227" lon="12.6306311"><ele>38.0</ele><time>2026-04-22T09:38:15.976Z</time></trkpt><trkpt lat="45.9674322" lon="12.6305246"><ele>38.0</ele><time>2026-04-22T09:38:18.977Z</time></trkpt><trkpt lat="45.9674502" lon="12.6304137"><ele>38.0</ele><time>2026-04-22T09:38:21.977Z</time></trkpt><trkpt lat="45.9674652" lon="12.6303087"><ele>38.0</ele><time>2026-04-22T09:38:24.978Z</time></trkpt><trkpt lat="45.9674685" lon="12.6301884"><ele>38.0</ele><time>2026-04-22T09:38:27.976Z</time></trkpt><trkpt lat="45.9674726" lon="12.6300715"><ele>38.0</ele><time>2026-04-22T09:38:30.977Z</time></trkpt><trkpt lat="45.9674828" lon="12.6299532"><ele>38.0</ele><time>2026-04-22T09:38:33.987Z</time></trkpt><trkpt lat="45.9675024" lon="12.6298316"><ele>38.0</ele><time>2026-04-22T09:38:36.978Z</time></trkpt><trkpt lat="45.9675252" lon="12.6297108"><ele>38.0</ele><time>2026-04-22T09:38:39.977Z</time></trkpt><trkpt lat="45.9675375" lon="12.6295914"><ele>38.0</ele><time>2026-04-22T09:38:42.978Z</time></trkpt><trkpt lat="45.9675495" lon="12.6294895"><ele>38.0</ele><time>2026-04-22T09:38:45.976Z</time></trkpt><trkpt lat="45.9675554" lon="12.6293913"><ele>37.83333333333333</ele><time>2026-04-22T09:38:48.978Z</time></trkpt><trkpt lat="45.9675619" lon="12.6292856"><ele>37.666666666666664</ele><time>2026-04-22T09:38:51.977Z</time></trkpt><trkpt lat="45.9675734" lon="12.6291716"><ele>37.5</ele><time>2026-04-22T09:38:54.978Z</time></trkpt><trkpt lat="45.9675858" lon="12.6290466"><ele>37.333333333333336</ele><time>2026-04-22T09:38:57.978Z</time></trkpt><trkpt lat="45.9676004" lon="12.6289141"><ele>37.16666666666667</ele><time>2026-04-22T09:39:00.977Z</time></trkpt><trkpt lat="45.9676135" lon="12.6287808"><ele>37.0</ele><time>2026-04-22T09:39:03.979Z</time></trkpt><trkpt lat="45.9676254" lon="12.6286501"><ele>37.16666666666667</ele><time>2026-04-22T09:39:06.978Z</time></trkpt><trkpt lat="45.9676329" lon="12.6285197"><ele>37.333333333333336</ele><time>2026-04-22T09:39:09.982Z</time></trkpt><trkpt lat="45.967632" lon="12.6284047"><ele>37.5</ele><time>2026-04-22T09:39:12.978Z</time></trkpt><trkpt lat="45.9676371" lon="12.6282917"><ele>37.666666666666664</ele><time>2026-04-22T09:39:15.977Z</time></trkpt><trkpt lat="45.9676434" lon="12.6281755"><ele>37.83333333333333</ele><time>2026-04-22T09:39:18.977Z</time></trkpt><trkpt lat="45.967651" lon="12.6280634"><ele>38.0</ele><time>2026-04-22T09:39:21.978Z</time></trkpt><trkpt lat="45.9676543" lon="12.6279592"><ele>38.0</ele><time>2026-04-22T09:39:24.978Z</time></trkpt><trkpt lat="45.9676518" lon="12.6278506"><ele>38.0</ele><time>2026-04-22T09:39:27.98Z</time></trkpt><trkpt lat="45.9676429" lon="12.6277407"><ele>38.0</ele><time>2026-04-22T09:39:30.978Z</time></trkpt><trkpt lat="45.9676321" lon="12.6276301"><ele>38.0</ele><time>2026-04-22T09:39:33.979Z</time></trkpt><trkpt lat="45.9676405" lon="12.6275047"><ele>38.0</ele><time>2026-04-22T09:39:36.978Z</time></trkpt><trkpt lat="45.9676518" lon="12.6273812"><ele>38.0</ele><time>2026-04-22T09:39:39.977Z</time></trkpt><trkpt lat="45.9676601" lon="12.6272639"><ele>38.0</ele><time>2026-04-22T09:39:42.977Z</time></trkpt><trkpt lat="45.967667" lon="12.627154"><ele>38.0</ele><time>2026-04-22T09:39:45.977Z</time></trkpt><trkpt lat="45.9676569" lon="12.6270429"><ele>38.0</ele><time>2026-04-22T09:39:48.978Z</time></trkpt><trkpt lat="45.9676288" lon="12.6269392"><ele>38.0</ele><time>2026-04-22T09:39:51.977Z</time></trkpt><trkpt lat="45.9675735" lon="12.626878"><ele>38.0</ele><time>2026-04-22T09:39:54.977Z</time></trkpt><trkpt lat="45.9674993" lon="12.6268695"><ele>38.0</ele><time>2026-04-22T09:39:57.977Z</time></trkpt><trkpt lat="45.9674194" lon="12.6268843"><ele>38.0</ele><time>2026-04-22T09:40:00.978Z</time></trkpt><trkpt lat="45.967301" lon="12.6269256"><ele>38.0</ele><time>2026-04-22T09:40:04.977Z</time></trkpt><trkpt lat="45.9672355" lon="12.626957"><ele>38.0</ele><time>2026-04-22T09:40:06.978Z</time></trkpt><trkpt lat="45.9671707" lon="12.626987"><ele>38.0</ele><time>2026-04-22T09:40:08.978Z</time></trkpt><trkpt lat="45.9670855" lon="12.627008"><ele>38.0</ele><time>2026-04-22T09:40:11.977Z</time></trkpt><trkpt lat="45.9670129" lon="12.6270096"><ele>38.0</ele><time>2026-04-22T09:40:14.977Z</time></trkpt><trkpt lat="45.9669423" lon="12.6270056"><ele>38.0</ele><time>2026-04-22T09:40:17.977Z</time></trkpt><trkpt lat="45.9668736" lon="12.6270086"><ele>38.0</ele><time>2026-04-22T09:40:20.977Z</time></trkpt><trkpt lat="45.9668102" lon="12.6270107"><ele>38.0</ele><time>2026-04-22T09:40:24.977Z</time></trkpt><trkpt lat="45.9667442" lon="12.6269991"><ele>38.0</ele><time>2026-04-22T09:40:29.977Z</time></trkpt><trkpt lat="45.9666768" lon="12.6269955"><ele>38.0</ele><time>2026-04-22T09:40:32.977Z</time></trkpt><trkpt lat="45.9665913" lon="12.6269973"><ele>38.0</ele><time>2026-04-22T09:40:35.977Z</time></trkpt><trkpt lat="45.9665068" lon="12.6269924"><ele>38.0</ele><time>2026-04-22T09:40:38.977Z</time></trkpt><trkpt lat="45.9664285" lon="12.6269856"><ele>38.0</ele><time>2026-04-22T09:40:41.976Z</time></trkpt><trkpt lat="45.9663537" lon="12.6269805"><ele>38.0</ele><time>2026-04-22T09:40:44.976Z</time></trkpt><trkpt lat="45.9662784" lon="12.6269956"><ele>38.0</ele><time>2026-04-22T09:40:47.978Z</time></trkpt><trkpt lat="45.966202" lon="12.6270137"><ele>38.0</ele><time>2026-04-22T09:40:50.977Z</time></trkpt><trkpt lat="45.9661269" lon="12.6270215"><ele>38.0</ele><time>2026-04-22T09:40:53.977Z</time></trkpt><trkpt lat="45.9660494" lon="12.627026"><ele>38.0</ele><time>2026-04-22T09:40:56.978Z</time></trkpt><trkpt lat="45.9659726" lon="12.6270343"><ele>38.0</ele><time>2026-04-22T09:40:59.977Z</time></trkpt><trkpt lat="45.9658904" lon="12.627031"><ele>38.0</ele><time>2026-04-22T09:41:02.977Z</time></trkpt><trkpt lat="45.9658134" lon="12.6270277"><ele>38.0</ele><time>2026-04-22T09:41:05.978Z</time></trkpt><trkpt lat="45.965748" lon="12.6270282"><ele>38.0</ele><time>2026-04-22T09:41:08.977Z</time></trkpt><trkpt lat="45.9656635" lon="12.6270118"><ele>38.0</ele><time>2026-04-22T09:41:12.977Z</time></trkpt><trkpt lat="45.9655946" lon="12.6269979"><ele>38.0</ele><time>2026-04-22T09:41:15.98Z</time></trkpt><trkpt lat="45.9655236" lon="12.6269974"><ele>37.83333333333333</ele><time>2026-04-22T09:41:18.978Z</time></trkpt><trkpt lat="45.9654389" lon="12.6269902"><ele>37.666666666666664</ele><time>2026-04-22T09:41:21.977Z</time></trkpt><trkpt lat="45.9653751" lon="12.6269836"><ele>37.5</ele><time>2026-04-22T09:41:23.976Z</time></trkpt><trkpt lat="45.9652856" lon="12.626967"><ele>37.333333333333336</ele><time>2026-04-22T09:41:26.976Z</time></trkpt><trkpt lat="45.9652004" lon="12.6269507"><ele>37.16666666666667</ele><time>2026-04-22T09:41:29.977Z</time></trkpt><trkpt lat="45.9651164" lon="12.6269476"><ele>37.0</ele><time>2026-04-22T09:41:32.977Z</time></trkpt><trkpt lat="45.9650364" lon="12.6269447"><ele>36.57142857142857</ele><time>2026-04-22T09:41:35.978Z</time></trkpt><trkpt lat="45.9649654" lon="12.6269414"><ele>36.14285714285714</ele><time>2026-04-22T09:41:38.977Z</time></trkpt><trkpt lat="45.9648894" lon="12.6269339"><ele>35.71428571428571</ele><time>2026-04-22T09:41:41.977Z</time></trkpt><trkpt lat="45.9648202" lon="12.6269247"><ele>35.285714285714285</ele><time>2026-04-22T09:41:44.977Z</time></trkpt><trkpt lat="45.9647498" lon="12.6268843"><ele>34.857142857142854</ele><time>2026-04-22T09:41:49.98Z</time></trkpt><trkpt lat="45.9646801" lon="12.6269094"><ele>34.42857142857142</ele><time>2026-04-22T09:41:52.977Z</time></trkpt><trkpt lat="45.9645971" lon="12.6269074"><ele>34.0</ele><time>2026-04-22T09:41:55.978Z</time></trkpt><trkpt lat="45.9645324" lon="12.6268987"><ele>34.0</ele><time>2026-04-22T09:41:57.978Z</time></trkpt><trkpt lat="45.9644606" lon="12.6268977"><ele>34.0</ele><time>2026-04-22T09:41:59.977Z</time></trkpt><trkpt lat="45.9643865" lon="12.6268932"><ele>34.0</ele><time>2026-04-22T09:42:01.978Z</time></trkpt><trkpt lat="45.9643162" lon="12.6268756"><ele>34.0</ele><time>2026-04-22T09:42:03.977Z</time></trkpt><trkpt lat="45.9642418" lon="12.6268649"><ele>34.0</ele><time>2026-04-22T09:42:05.977Z</time></trkpt><trkpt lat="45.9641735" lon="12.6268536"><ele>34.0</ele><time>2026-04-22T09:42:07.976Z</time></trkpt><trkpt lat="45.9640871" lon="12.6268198"><ele>34.333333333333336</ele><time>2026-04-22T09:42:10.978Z</time></trkpt><trkpt lat="45.9640016" lon="12.6268228"><ele>34.66666666666667</ele><time>2026-04-22T09:42:13.976Z</time></trkpt><trkpt lat="45.9639244" lon="12.6268388"><ele>35.0</ele><time>2026-04-22T09:42:16.977Z</time></trkpt><trkpt lat="45.9638413" lon="12.6268379"><ele>35.333333333333336</ele><time>2026-04-22T09:42:20.977Z</time></trkpt><trkpt lat="45.9637752" lon="12.6268406"><ele>35.666666666666664</ele><time>2026-04-22T09:42:23.982Z</time></trkpt><trkpt lat="45.9637058" lon="12.6268562"><ele>36.0</ele><time>2026-04-22T09:42:26.977Z</time></trkpt><trkpt lat="45.9636401" lon="12.6268747"><ele>36.0</ele><time>2026-04-22T09:42:29.978Z</time></trkpt><trkpt lat="45.9635691" lon="12.6268663"><ele>36.0</ele><time>2026-04-22T09:42:33.977Z</time></trkpt><trkpt lat="45.9634872" lon="12.6268462"><ele>36.0</ele><time>2026-04-22T09:42:37.982Z</time></trkpt><trkpt lat="45.9634205" lon="12.6268047"><ele>36.0</ele><time>2026-04-22T09:42:40.977Z</time></trkpt><trkpt lat="45.9633571" lon="12.6267509"><ele>36.0</ele><time>2026-04-22T09:42:43.978Z</time></trkpt><trkpt lat="45.9632746" lon="12.6267476"><ele>36.0</ele><time>2026-04-22T09:42:46.978Z</time></trkpt><trkpt lat="45.9631962" lon="12.62675"><ele>35.714285714285715</ele><time>2026-04-22T09:42:49.98Z</time></trkpt><trkpt lat="45.9631259" lon="12.6267357"><ele>35.42857142857143</ele><time>2026-04-22T09:42:52.978Z</time></trkpt><trkpt lat="45.9630542" lon="12.6267157"><ele>35.14285714285714</ele><time>2026-04-22T09:42:55.98Z</time></trkpt><trkpt lat="45.9629797" lon="12.6266854"><ele>34.85714285714286</ele><time>2026-04-22T09:42:58.978Z</time></trkpt><trkpt lat="45.9629083" lon="12.6266747"><ele>34.57142857142857</ele><time>2026-04-22T09:43:01.983Z</time></trkpt><trkpt lat="45.9628392" lon="12.6266821"><ele>34.285714285714285</ele><time>2026-04-22T09:43:04.978Z</time></trkpt><trkpt lat="45.9627585" lon="12.6267001"><ele>34.0</ele><time>2026-04-22T09:43:07.982Z</time></trkpt><trkpt lat="45.9626721" lon="12.6267206"><ele>34.0</ele><time>2026-04-22T09:43:10.978Z</time></trkpt><trkpt lat="45.9625918" lon="12.6267267"><ele>34.0</ele><time>2026-04-22T09:43:13.981Z</time></trkpt><trkpt lat="45.9625145" lon="12.6267482"><ele>34.0</ele><time>2026-04-22T09:43:16.978Z</time></trkpt><trkpt lat="45.9624327" lon="12.6267673"><ele>34.0</ele><time>2026-04-22T09:43:19.978Z</time></trkpt><trkpt lat="45.9623542" lon="12.6267776"><ele>34.0</ele><time>2026-04-22T09:43:22.978Z</time></trkpt><trkpt lat="45.9622756" lon="12.6267869"><ele>34.0</ele><time>2026-04-22T09:43:25.976Z</time></trkpt><trkpt lat="45.9621908" lon="12.6267935"><ele>33.833333333333336</ele><time>2026-04-22T09:43:28.976Z</time></trkpt><trkpt lat="45.9620996" lon="12.6268106"><ele>33.66666666666667</ele><time>2026-04-22T09:43:31.976Z</time></trkpt><trkpt lat="45.9620131" lon="12.6268256"><ele>33.5</ele><time>2026-04-22T09:43:34.977Z</time></trkpt><trkpt lat="45.9619409" lon="12.6268111"><ele>33.333333333333336</ele><time>2026-04-22T09:43:37.976Z</time></trkpt><trkpt lat="45.9618774" lon="12.6268107"><ele>33.166666666666664</ele><time>2026-04-22T09:43:40.976Z</time></trkpt><trkpt lat="45.9617975" lon="12.6268492"><ele>33.0</ele><time>2026-04-22T09:43:44.977Z</time></trkpt><trkpt lat="45.961738" lon="12.6268933"><ele>32.833333333333336</ele><time>2026-04-22T09:43:47.978Z</time></trkpt><trkpt lat="45.9616741" lon="12.6269398"><ele>32.666666666666664</ele><time>2026-04-22T09:43:50.977Z</time></trkpt><trkpt lat="45.9615984" lon="12.6269888"><ele>32.5</ele><time>2026-04-22T09:43:53.977Z</time></trkpt><trkpt lat="45.961516" lon="12.6270397"><ele>32.33333333333333</ele><time>2026-04-22T09:43:56.977Z</time></trkpt><trkpt lat="45.9614546" lon="12.6270741"><ele>32.166666666666664</ele><time>2026-04-22T09:43:58.976Z</time></trkpt><trkpt lat="45.9613693" lon="12.6271265"><ele>32.0</ele><time>2026-04-22T09:44:01.977Z</time></trkpt><trkpt lat="45.9612948" lon="12.6271867"><ele>31.999999999999996</ele><time>2026-04-22T09:44:04.977Z</time></trkpt><trkpt lat="45.9612119" lon="12.6272272"><ele>32.0</ele><time>2026-04-22T09:44:07.977Z</time></trkpt><trkpt lat="45.9611314" lon="12.6272587"><ele>32.0</ele><time>2026-04-22T09:44:10.976Z</time></trkpt><trkpt lat="45.9610559" lon="12.6272923"><ele>32.0</ele><time>2026-04-22T09:44:13.98Z</time></trkpt><trkpt lat="45.9609908" lon="12.6273369"><ele>31.999999999999996</ele><time>2026-04-22T09:44:16.977Z</time></trkpt><trkpt lat="45.9609291" lon="12.6273867"><ele>32.0</ele><time>2026-04-22T09:44:19.977Z</time></trkpt><trkpt lat="45.9608687" lon="12.6274282"><ele>32.166666666666664</ele><time>2026-04-22T09:44:22.977Z</time></trkpt><trkpt lat="45.960803" lon="12.6274801"><ele>32.33333333333333</ele><time>2026-04-22T09:44:25.977Z</time></trkpt><trkpt lat="45.9607386" lon="12.6275485"><ele>32.5</ele><time>2026-04-22T09:44:28.977Z</time></trkpt><trkpt lat="45.9606713" lon="12.6276116"><ele>32.666666666666664</ele><time>2026-04-22T09:44:31.98Z</time></trkpt><trkpt lat="45.9605957" lon="12.6276627"><ele>32.833333333333336</ele><time>2026-04-22T09:44:34.977Z</time></trkpt><trkpt lat="45.9605135" lon="12.6277148"><ele>33.0</ele><time>2026-04-22T09:44:37.979Z</time></trkpt><trkpt lat="45.9604245" lon="12.6277534"><ele>33.0</ele><time>2026-04-22T09:44:40.976Z</time></trkpt><trkpt lat="45.960335" lon="12.6277825"><ele>33.0</ele><time>2026-04-22T09:44:43.977Z</time></trkpt><trkpt lat="45.9602552" lon="12.6278177"><ele>33.0</ele><time>2026-04-22T09:44:46.976Z</time></trkpt><trkpt lat="45.9601762" lon="12.627865"><ele>33.0</ele><time>2026-04-22T09:44:49.976Z</time></trkpt><trkpt lat="45.9601011" lon="12.627912"><ele>33.0</ele><time>2026-04-22T09:44:52.977Z</time></trkpt><trkpt lat="45.9600278" lon="12.6279584"><ele>33.0</ele><time>2026-04-22T09:44:55.976Z</time></trkpt><trkpt lat="45.9599502" lon="12.6280043"><ele>33.14285714285714</ele><time>2026-04-22T09:44:58.981Z</time></trkpt><trkpt lat="45.9598814" lon="12.6280421"><ele>33.285714285714285</ele><time>2026-04-22T09:45:01.976Z</time></trkpt><trkpt lat="45.9598046" lon="12.6280469"><ele>33.42857142857143</ele><time>2026-04-22T09:45:05.982Z</time></trkpt><trkpt lat="45.959771" lon="12.6279674"><ele>33.57142857142857</ele><time>2026-04-22T09:45:08.976Z</time></trkpt><trkpt lat="45.9597562" lon="12.6278676"><ele>33.714285714285715</ele><time>2026-04-22T09:45:11.977Z</time></trkpt><trkpt lat="45.9597417" lon="12.6277604"><ele>33.857142857142854</ele><time>2026-04-22T09:45:14.976Z</time></trkpt><trkpt lat="45.9597246" lon="12.6276407"><ele>34.0</ele><time>2026-04-22T09:45:17.977Z</time></trkpt><trkpt lat="45.9597091" lon="12.627525"><ele>34.0</ele><time>2026-04-22T09:45:20.977Z</time></trkpt><trkpt lat="45.959702" lon="12.6274072"><ele>34.0</ele><time>2026-04-22T09:45:23.976Z</time></trkpt><trkpt lat="45.9596892" lon="12.6272946"><ele>34.0</ele><time>2026-04-22T09:45:26.977Z</time></trkpt><trkpt lat="45.9596705" lon="12.6271867"><ele>34.0</ele><time>2026-04-22T09:45:29.977Z</time></trkpt><trkpt lat="45.9596542" lon="12.6270788"><ele>34.0</ele><time>2026-04-22T09:45:32.977Z</time></trkpt><trkpt lat="45.9596205" lon="12.6269924"><ele>34.0</ele><time>2026-04-22T09:45:35.977Z</time></trkpt><trkpt lat="45.9595502" lon="12.6269632"><ele>34.16666666666667</ele><time>2026-04-22T09:45:38.977Z</time></trkpt><trkpt lat="45.9594724" lon="12.6269472"><ele>34.333333333333336</ele><time>2026-04-22T09:45:41.977Z</time></trkpt><trkpt lat="45.9593995" lon="12.6269343"><ele>34.5</ele><time>2026-04-22T09:45:44.976Z</time></trkpt><trkpt lat="45.959331" lon="12.626916"><ele>34.666666666666664</ele><time>2026-04-22T09:45:47.978Z</time></trkpt><trkpt lat="45.9592612" lon="12.6268549"><ele>34.83333333333333</ele><time>2026-04-22T09:45:51.979Z</time></trkpt><trkpt lat="45.9592089" lon="12.6267934"><ele>35.0</ele><time>2026-04-22T09:45:55.98Z</time></trkpt><trkpt lat="45.9591955" lon="12.6266686"><ele>34.33333333333333</ele><time>2026-04-22T09:45:59.978Z</time></trkpt><trkpt lat="45.9591742" lon="12.6265608"><ele>33.666666666666664</ele><time>2026-04-22T09:46:02.978Z</time></trkpt><trkpt lat="45.9591508" lon="12.6264529"><ele>33.0</ele><time>2026-04-22T09:46:05.978Z</time></trkpt><trkpt lat="45.959124" lon="12.6263389"><ele>32.333333333333336</ele><time>2026-04-22T09:46:08.979Z</time></trkpt><trkpt lat="45.9590994" lon="12.6262315"><ele>31.666666666666668</ele><time>2026-04-22T09:46:11.977Z</time></trkpt><trkpt lat="45.9590788" lon="12.626125"><ele>31.0</ele><time>2026-04-22T09:46:14.979Z</time></trkpt><trkpt lat="45.9590581" lon="12.6260212"><ele>30.571428571428573</ele><time>2026-04-22T09:46:17.978Z</time></trkpt><trkpt lat="45.9590286" lon="12.6259217"><ele>30.142857142857146</ele><time>2026-04-22T09:46:20.977Z</time></trkpt><trkpt lat="45.958993" lon="12.625826"><ele>29.714285714285715</ele><time>2026-04-22T09:46:23.976Z</time></trkpt><trkpt lat="45.9589544" lon="12.625728"><ele>29.285714285714285</ele><time>2026-04-22T09:46:26.977Z</time></trkpt><trkpt lat="45.9589243" lon="12.6256253"><ele>28.857142857142858</ele><time>2026-04-22T09:46:29.977Z</time></trkpt><trkpt lat="45.9589002" lon="12.6255381"><ele>28.42857142857143</ele><time>2026-04-22T09:46:32.978Z</time></trkpt><trkpt lat="45.9588707" lon="12.6254502"><ele>28.0</ele><time>2026-04-22T09:46:35.978Z</time></trkpt><trkpt lat="45.9588331" lon="12.625369"><ele>28.0</ele><time>2026-04-22T09:46:38.978Z</time></trkpt><trkpt lat="45.9587823" lon="12.6252773"><ele>28.0</ele><time>2026-04-22T09:46:42.976Z</time></trkpt><trkpt lat="45.9587596" lon="12.6251898"><ele>28.0</ele><time>2026-04-22T09:46:45.977Z</time></trkpt><trkpt lat="45.9587293" lon="12.6251033"><ele>28.0</ele><time>2026-04-22T09:46:48.977Z</time></trkpt><trkpt lat="45.9586948" lon="12.6250244"><ele>28.0</ele><time>2026-04-22T09:46:51.978Z</time></trkpt><trkpt lat="45.958668" lon="12.624942"><ele>28.0</ele><time>2026-04-22T09:46:54.978Z</time></trkpt><trkpt lat="45.9586568" lon="12.6248448"><ele>28.0</ele><time>2026-04-22T09:46:57.978Z</time></trkpt><trkpt lat="45.9586371" lon="12.6247585"><ele>28.0</ele><time>2026-04-22T09:47:00.979Z</time></trkpt><trkpt lat="45.9586095" lon="12.6246624"><ele>28.0</ele><time>2026-04-22T09:47:04.979Z</time></trkpt><trkpt lat="45.9585727" lon="12.6245622"><ele>28.0</ele><time>2026-04-22T09:47:08.98Z</time></trkpt><trkpt lat="45.9585453" lon="12.624472"><ele>28.0</ele><time>2026-04-22T09:47:11.978Z</time></trkpt><trkpt lat="45.9585206" lon="12.6243739"><ele>28.0</ele><time>2026-04-22T09:47:14.977Z</time></trkpt><trkpt lat="45.9584913" lon="12.6242749"><ele>28.0</ele><time>2026-04-22T09:47:17.977Z</time></trkpt><trkpt lat="45.9584627" lon="12.624174"><ele>28.0</ele><time>2026-04-22T09:47:20.978Z</time></trkpt><trkpt lat="45.9584403" lon="12.6240719"><ele>28.0</ele><time>2026-04-22T09:47:23.978Z</time></trkpt><trkpt lat="45.9584122" lon="12.6239744"><ele>28.0</ele><time>2026-04-22T09:47:26.979Z</time></trkpt><trkpt lat="45.9583793" lon="12.6238824"><ele>28.0</ele><time>2026-04-22T09:47:29.976Z</time></trkpt><trkpt lat="45.9583503" lon="12.6237976"><ele>28.0</ele><time>2026-04-22T09:47:32.977Z</time></trkpt><trkpt lat="45.9583263" lon="12.6237103"><ele>28.0</ele><time>2026-04-22T09:47:35.976Z</time></trkpt><trkpt lat="45.958295" lon="12.6236026"><ele>28.0</ele><time>2026-04-22T09:47:39.977Z</time></trkpt><trkpt lat="45.9582702" lon="12.6235162"><ele>28.0</ele><time>2026-04-22T09:47:42.976Z</time></trkpt><trkpt lat="45.9582395" lon="12.6234232"><ele>28.000000000000004</ele><time>2026-04-22T09:47:45.979Z</time></trkpt><trkpt lat="45.9582086" lon="12.6233212"><ele>28.0</ele><time>2026-04-22T09:47:48.979Z</time></trkpt><trkpt lat="45.9581918" lon="12.6232077"><ele>28.0</ele><time>2026-04-22T09:47:51.977Z</time></trkpt><trkpt lat="45.9581707" lon="12.6231023"><ele>28.0</ele><time>2026-04-22T09:47:54.977Z</time></trkpt><trkpt lat="45.958146" lon="12.6229962"><ele>28.000000000000004</ele><time>2026-04-22T09:47:57.977Z</time></trkpt><trkpt lat="45.9581127" lon="12.6229003"><ele>28.0</ele><time>2026-04-22T09:48:00.977Z</time></trkpt><trkpt lat="45.9580848" lon="12.6228057"><ele>28.142857142857142</ele><time>2026-04-22T09:48:03.977Z</time></trkpt><trkpt lat="45.9580559" lon="12.622721"><ele>28.285714285714285</ele><time>2026-04-22T09:48:06.976Z</time></trkpt><trkpt lat="45.958016" lon="12.6226387"><ele>28.42857142857143</ele><time>2026-04-22T09:48:09.977Z</time></trkpt><trkpt lat="45.9579709" lon="12.6225626"><ele>28.571428571428573</ele><time>2026-04-22T09:48:12.977Z</time></trkpt><trkpt lat="45.9579359" lon="12.6224755"><ele>28.714285714285715</ele><time>2026-04-22T09:48:15.976Z</time></trkpt><trkpt lat="45.9579009" lon="12.6223801"><ele>28.85714285714286</ele><time>2026-04-22T09:48:18.978Z</time></trkpt><trkpt lat="45.9578798" lon="12.6222813"><ele>29.000000000000004</ele><time>2026-04-22T09:48:21.977Z</time></trkpt><trkpt lat="45.9578701" lon="12.6221715"><ele>28.999999999999996</ele><time>2026-04-22T09:48:24.978Z</time></trkpt><trkpt lat="45.9578512" lon="12.6220636"><ele>29.0</ele><time>2026-04-22T09:48:27.977Z</time></trkpt><trkpt lat="45.9578194" lon="12.6219647"><ele>29.0</ele><time>2026-04-22T09:48:30.979Z</time></trkpt><trkpt lat="45.9577918" lon="12.6218684"><ele>29.0</ele><time>2026-04-22T09:48:33.977Z</time></trkpt><trkpt lat="45.9577663" lon="12.6217692"><ele>28.999999999999996</ele><time>2026-04-22T09:48:36.976Z</time></trkpt><trkpt lat="45.9577337" lon="12.6216739"><ele>29.0</ele><time>2026-04-22T09:48:39.977Z</time></trkpt><trkpt lat="45.957694" lon="12.6215784"><ele>28.999999999999996</ele><time>2026-04-22T09:48:42.977Z</time></trkpt><trkpt lat="45.9576559" lon="12.621477"><ele>29.0</ele><time>2026-04-22T09:48:45.978Z</time></trkpt><trkpt lat="45.9576127" lon="12.6213744"><ele>29.0</ele><time>2026-04-22T09:48:48.977Z</time></trkpt><trkpt lat="45.957567" lon="12.6212727"><ele>29.0</ele><time>2026-04-22T09:48:51.977Z</time></trkpt><trkpt lat="45.957528" lon="12.6211733"><ele>28.999999999999996</ele><time>2026-04-22T09:48:54.978Z</time></trkpt><trkpt lat="45.9575006" lon="12.6210715"><ele>29.0</ele><time>2026-04-22T09:48:57.978Z</time></trkpt><trkpt lat="45.95747" lon="12.6209777"><ele>29.000000000000004</ele><time>2026-04-22T09:49:00.977Z</time></trkpt><trkpt lat="45.957441" lon="12.6208824"><ele>29.0</ele><time>2026-04-22T09:49:03.977Z</time></trkpt><trkpt lat="45.9574211" lon="12.6207828"><ele>29.000000000000004</ele><time>2026-04-22T09:49:06.977Z</time></trkpt><trkpt lat="45.9574004" lon="12.6206808"><ele>29.000000000000004</ele><time>2026-04-22T09:49:09.979Z</time></trkpt><trkpt lat="45.957375" lon="12.6205803"><ele>29.0</ele><time>2026-04-22T09:49:12.977Z</time></trkpt><trkpt lat="45.9573531" lon="12.6204749"><ele>29.000000000000004</ele><time>2026-04-22T09:49:15.986Z</time></trkpt><trkpt lat="45.9573325" lon="12.6203658"><ele>29.000000000000004</ele><time>2026-04-22T09:49:18.976Z</time></trkpt><trkpt lat="45.9573073" lon="12.6202631"><ele>28.999999999999996</ele><time>2026-04-22T09:49:21.977Z</time></trkpt><trkpt lat="45.9572846" lon="12.6201622"><ele>29.0</ele><time>2026-04-22T09:49:24.978Z</time></trkpt><trkpt lat="45.9572637" lon="12.6200656"><ele>29.0</ele><time>2026-04-22T09:49:27.976Z</time></trkpt><trkpt lat="45.9572502" lon="12.6199575"><ele>29.0</ele><time>2026-04-22T09:49:30.978Z</time></trkpt><trkpt lat="45.9572577" lon="12.6198409"><ele>28.999999999999996</ele><time>2026-04-22T09:49:33.978Z</time></trkpt><trkpt lat="45.957271" lon="12.6197279"><ele>29.0</ele><time>2026-04-22T09:49:36.977Z</time></trkpt><trkpt lat="45.9572842" lon="12.6196155"><ele>29.000000000000004</ele><time>2026-04-22T09:49:39.978Z</time></trkpt><trkpt lat="45.9572979" lon="12.6195105"><ele>29.0</ele><time>2026-04-22T09:49:42.978Z</time></trkpt><trkpt lat="45.9573172" lon="12.6194135"><ele>29.000000000000004</ele><time>2026-04-22T09:49:45.977Z</time></trkpt><trkpt lat="45.9573346" lon="12.6193232"><ele>29.000000000000004</ele><time>2026-04-22T09:49:48.977Z</time></trkpt><trkpt lat="45.957346" lon="12.6192225"><ele>29.0</ele><time>2026-04-22T09:49:51.978Z</time></trkpt><trkpt lat="45.9573585" lon="12.6191147"><ele>29.000000000000004</ele><time>2026-04-22T09:49:54.979Z</time></trkpt><trkpt lat="45.9573724" lon="12.6189951"><ele>29.000000000000004</ele><time>2026-04-22T09:49:57.978Z</time></trkpt><trkpt lat="45.957385" lon="12.6188837"><ele>28.71428571428572</ele><time>2026-04-22T09:50:00.977Z</time></trkpt><trkpt lat="45.9574146" lon="12.6187841"><ele>28.42857142857143</ele><time>2026-04-22T09:50:03.976Z</time></trkpt><trkpt lat="45.9574548" lon="12.6187022"><ele>28.142857142857146</ele><time>2026-04-22T09:50:06.978Z</time></trkpt><trkpt lat="45.9575003" lon="12.6186091"><ele>27.85714285714286</ele><time>2026-04-22T09:50:10.979Z</time></trkpt><trkpt lat="45.9574995" lon="12.6185148"><ele>27.57142857142857</ele><time>2026-04-22T09:50:13.98Z</time></trkpt><trkpt lat="45.9574855" lon="12.6184191"><ele>27.285714285714285</ele><time>2026-04-22T09:50:16.977Z</time></trkpt><trkpt lat="45.9574753" lon="12.6183043"><ele>27.0</ele><time>2026-04-22T09:50:19.977Z</time></trkpt><trkpt lat="45.957477" lon="12.6181747"><ele>27.0</ele><time>2026-04-22T09:50:22.978Z</time></trkpt><trkpt lat="45.9574927" lon="12.618054"><ele>27.0</ele><time>2026-04-22T09:50:25.978Z</time></trkpt><trkpt lat="45.957515" lon="12.6179471"><ele>27.0</ele><time>2026-04-22T09:50:28.978Z</time></trkpt><trkpt lat="45.9575429" lon="12.6178612"><ele>27.0</ele><time>2026-04-22T09:50:31.978Z</time></trkpt><trkpt lat="45.9575664" lon="12.617775"><ele>27.0</ele><time>2026-04-22T09:50:34.978Z</time></trkpt><trkpt lat="45.9575882" lon="12.6176891"><ele>27.0</ele><time>2026-04-22T09:50:37.979Z</time></trkpt><trkpt lat="45.9576098" lon="12.6175809"><ele>27.0</ele><time>2026-04-22T09:50:41.978Z</time></trkpt><trkpt lat="45.9576273" lon="12.6174798"><ele>27.0</ele><time>2026-04-22T09:50:45.984Z</time></trkpt><trkpt lat="45.9576333" lon="12.6173846"><ele>27.0</ele><time>2026-04-22T09:50:49.983Z</time></trkpt><trkpt lat="45.9576586" lon="12.6172793"><ele>27.0</ele><time>2026-04-22T09:50:53.978Z</time></trkpt><trkpt lat="45.9576918" lon="12.6171618"><ele>27.0</ele><time>2026-04-22T09:50:56.978Z</time></trkpt><trkpt lat="45.9577186" lon="12.6170774"><ele>27.0</ele><time>2026-04-22T09:50:58.984Z</time></trkpt><trkpt lat="45.9577545" lon="12.6169984"><ele>27.0</ele><time>2026-04-22T09:51:00.981Z</time></trkpt><trkpt lat="45.9577915" lon="12.6169175"><ele>27.0</ele><time>2026-04-22T09:51:02.978Z</time></trkpt><trkpt lat="45.9578263" lon="12.6168356"><ele>27.0</ele><time>2026-04-22T09:51:04.98Z</time></trkpt><trkpt lat="45.9578576" lon="12.6167529"><ele>27.0</ele><time>2026-04-22T09:51:06.977Z</time></trkpt><trkpt lat="45.9578881" lon="12.6166704"><ele>27.0</ele><time>2026-04-22T09:51:08.977Z</time></trkpt><trkpt lat="45.9579256" lon="12.6165477"><ele>27.0</ele><time>2026-04-22T09:51:11.976Z</time></trkpt><trkpt lat="45.9579516" lon="12.616459"><ele>27.0</ele><time>2026-04-22T09:51:13.976Z</time></trkpt><trkpt lat="45.9579651" lon="12.6163646"><ele>27.0</ele><time>2026-04-22T09:51:15.978Z</time></trkpt><trkpt lat="45.9579746" lon="12.6162741"><ele>27.0</ele><time>2026-04-22T09:51:17.976Z</time></trkpt><trkpt lat="45.9579925" lon="12.6161546"><ele>27.0</ele><time>2026-04-22T09:51:20.977Z</time></trkpt><trkpt lat="45.9580074" lon="12.6160582"><ele>27.0</ele><time>2026-04-22T09:51:23.977Z</time></trkpt><trkpt lat="45.9580316" lon="12.6159486"><ele>27.0</ele><time>2026-04-22T09:51:27.978Z</time></trkpt><trkpt lat="45.9580187" lon="12.6158578"><ele>27.0</ele><time>2026-04-22T09:51:31.978Z</time></trkpt><trkpt lat="45.9580707" lon="12.6157618"><ele>27.0</ele><time>2026-04-22T09:51:35.977Z</time></trkpt><trkpt lat="45.9581175" lon="12.6156662"><ele>27.0</ele><time>2026-04-22T09:51:38.977Z</time></trkpt><trkpt lat="45.9581533" lon="12.615565"><ele>27.0</ele><time>2026-04-22T09:51:41.979Z</time></trkpt><trkpt lat="45.9581838" lon="12.6154685"><ele>27.0</ele><time>2026-04-22T09:51:44.977Z</time></trkpt><trkpt lat="45.9582161" lon="12.6153642"><ele>27.0</ele><time>2026-04-22T09:51:47.977Z</time></trkpt><trkpt lat="45.9582567" lon="12.6152643"><ele>27.0</ele><time>2026-04-22T09:51:50.977Z</time></trkpt><trkpt lat="45.9582904" lon="12.6151629"><ele>27.0</ele><time>2026-04-22T09:51:53.978Z</time></trkpt><trkpt lat="45.958348" lon="12.6150786"><ele>27.0</ele><time>2026-04-22T09:51:56.977Z</time></trkpt><trkpt lat="45.9584174" lon="12.6150083"><ele>27.285714285714285</ele><time>2026-04-22T09:51:59.977Z</time></trkpt><trkpt lat="45.9584624" lon="12.6149191"><ele>27.57142857142857</ele><time>2026-04-22T09:52:02.977Z</time></trkpt><trkpt lat="45.9584578" lon="12.6148262"><ele>27.85714285714286</ele><time>2026-04-22T09:52:05.977Z</time></trkpt><trkpt lat="45.9584119" lon="12.614751"><ele>28.142857142857146</ele><time>2026-04-22T09:52:08.976Z</time></trkpt><trkpt lat="45.958382" lon="12.6146467"><ele>28.42857142857143</ele><time>2026-04-22T09:52:12.976Z</time></trkpt><trkpt lat="45.9583532" lon="12.6145478"><ele>28.71428571428572</ele><time>2026-04-22T09:52:16.977Z</time></trkpt><trkpt lat="45.9583185" lon="12.6144516"><ele>29.000000000000004</ele><time>2026-04-22T09:52:20.977Z</time></trkpt><trkpt lat="45.9582896" lon="12.6143483"><ele>29.166666666666664</ele><time>2026-04-22T09:52:24.977Z</time></trkpt><trkpt lat="45.9582729" lon="12.6142499"><ele>29.333333333333332</ele><time>2026-04-22T09:52:27.977Z</time></trkpt><trkpt lat="45.9582435" lon="12.6141447"><ele>29.5</ele><time>2026-04-22T09:52:30.977Z</time></trkpt><trkpt lat="45.9582118" lon="12.6140181"><ele>29.666666666666664</ele><time>2026-04-22T09:52:33.977Z</time></trkpt><trkpt lat="45.9581962" lon="12.6139131"><ele>29.833333333333332</ele><time>2026-04-22T09:52:35.977Z</time></trkpt><trkpt lat="45.9581733" lon="12.613815"><ele>30.0</ele><time>2026-04-22T09:52:37.976Z</time></trkpt><trkpt lat="45.9581328" lon="12.6136927"><ele>30.333333333333332</ele><time>2026-04-22T09:52:40.979Z</time></trkpt><trkpt lat="45.9580942" lon="12.6135725"><ele>30.666666666666664</ele><time>2026-04-22T09:52:43.979Z</time></trkpt><trkpt lat="45.9580511" lon="12.6134714"><ele>31.0</ele><time>2026-04-22T09:52:46.977Z</time></trkpt><trkpt lat="45.9579925" lon="12.6133887"><ele>31.333333333333332</ele><time>2026-04-22T09:52:49.977Z</time></trkpt><trkpt lat="45.9579467" lon="12.6133013"><ele>31.666666666666664</ele><time>2026-04-22T09:52:52.977Z</time></trkpt><trkpt lat="45.9579082" lon="12.6132107"><ele>32.0</ele><time>2026-04-22T09:52:55.978Z</time></trkpt><trkpt lat="45.9578842" lon="12.6130948"><ele>32.0</ele><time>2026-04-22T09:52:59.977Z</time></trkpt><trkpt lat="45.9578713" lon="12.6130009"><ele>31.999999999999996</ele><time>2026-04-22T09:53:02.978Z</time></trkpt><trkpt lat="45.9578726" lon="12.6129002"><ele>32.0</ele><time>2026-04-22T09:53:05.977Z</time></trkpt><trkpt lat="45.9578883" lon="12.6127969"><ele>32.0</ele><time>2026-04-22T09:53:08.976Z</time></trkpt><trkpt lat="45.957855" lon="12.6126896"><ele>31.999999999999996</ele><time>2026-04-22T09:53:12.977Z</time></trkpt><trkpt lat="45.9578042" lon="12.6126196"><ele>32.0</ele><time>2026-04-22T09:53:15.976Z</time></trkpt><trkpt lat="45.9577538" lon="12.6125568"><ele>32.0</ele><time>2026-04-22T09:53:18.977Z</time></trkpt><trkpt lat="45.957705" lon="12.6124902"><ele>31.999999999999996</ele><time>2026-04-22T09:53:21.978Z</time></trkpt><trkpt lat="45.9576775" lon="12.6123836"><ele>32.0</ele><time>2026-04-22T09:53:24.977Z</time></trkpt><trkpt lat="45.9576603" lon="12.6122594"><ele>32.0</ele><time>2026-04-22T09:53:27.978Z</time></trkpt><trkpt lat="45.9576503" lon="12.6121637"><ele>32.0</ele><time>2026-04-22T09:53:29.976Z</time></trkpt><trkpt lat="45.9576367" lon="12.6120719"><ele>31.999999999999996</ele><time>2026-04-22T09:53:31.978Z</time></trkpt><trkpt lat="45.9575995" lon="12.6119506"><ele>32.0</ele><time>2026-04-22T09:53:34.977Z</time></trkpt><trkpt lat="45.9575565" lon="12.6118717"><ele>31.400000000000002</ele><time>2026-04-22T09:53:37.978Z</time></trkpt><trkpt lat="45.9574314" lon="12.6116464"><ele>30.800000000000004</ele><time>2026-04-22T10:02:42.986Z</time></trkpt><trkpt lat="45.9574197" lon="12.6115563"><ele>30.2</ele><time>2026-04-22T10:02:47.977Z</time></trkpt><trkpt lat="45.9573855" lon="12.6114415"><ele>29.6</ele><time>2026-04-22T10:02:50.977Z</time></trkpt><trkpt lat="45.9573595" lon="12.6113552"><ele>29.0</ele><time>2026-04-22T10:02:52.978Z</time></trkpt><trkpt lat="45.9573272" lon="12.6112275"><ele>29.499999999999996</ele><time>2026-04-22T10:02:55.978Z</time></trkpt><trkpt lat="45.9573037" lon="12.611138"><ele>30.0</ele><time>2026-04-22T10:02:57.978Z</time></trkpt><trkpt lat="45.9572803" lon="12.6110508"><ele>30.5</ele><time>2026-04-22T10:02:59.978Z</time></trkpt><trkpt lat="45.957248" lon="12.6109296"><ele>31.0</ele><time>2026-04-22T10:03:02.978Z</time></trkpt><trkpt lat="45.9572198" lon="12.6108072"><ele>31.499999999999996</ele><time>2026-04-22T10:03:05.979Z</time></trkpt><trkpt lat="45.9571915" lon="12.6106955"><ele>32.0</ele><time>2026-04-22T10:03:08.978Z</time></trkpt><trkpt lat="45.9571405" lon="12.6105943"><ele>31.999999999999996</ele><time>2026-04-22T10:03:11.979Z</time></trkpt><trkpt lat="45.9571072" lon="12.6104934"><ele>32.0</ele><time>2026-04-22T10:03:14.977Z</time></trkpt><trkpt lat="45.9571044" lon="12.6103873"><ele>32.0</ele><time>2026-04-22T10:03:17.979Z</time></trkpt><trkpt lat="45.9570923" lon="12.6102769"><ele>32.0</ele><time>2026-04-22T10:03:20.977Z</time></trkpt><trkpt lat="45.9570796" lon="12.6101702"><ele>31.999999999999996</ele><time>2026-04-22T10:03:23.979Z</time></trkpt><trkpt lat="45.9570834" lon="12.6100536"><ele>32.0</ele><time>2026-04-22T10:03:26.98Z</time></trkpt><trkpt lat="45.9570817" lon="12.6099264"><ele>31.8</ele><time>2026-04-22T10:03:29.977Z</time></trkpt><trkpt lat="45.9570794" lon="12.6098052"><ele>31.6</ele><time>2026-04-22T10:03:32.978Z</time></trkpt><trkpt lat="45.9570854" lon="12.6096731"><ele>31.400000000000002</ele><time>2026-04-22T10:03:35.978Z</time></trkpt><trkpt lat="45.9570981" lon="12.6095381"><ele>31.200000000000003</ele><time>2026-04-22T10:03:38.979Z</time></trkpt><trkpt lat="45.9571059" lon="12.6094074"><ele>31.0</ele><time>2026-04-22T10:03:41.977Z</time></trkpt><trkpt lat="45.9570934" lon="12.6092772"><ele>30.833333333333336</ele><time>2026-04-22T10:03:44.978Z</time></trkpt><trkpt lat="45.9570759" lon="12.6091804"><ele>30.666666666666668</ele><time>2026-04-22T10:03:46.978Z</time></trkpt><trkpt lat="45.9570614" lon="12.6090915"><ele>30.5</ele><time>2026-04-22T10:03:48.977Z</time></trkpt><trkpt lat="45.957048" lon="12.6089649"><ele>30.333333333333336</ele><time>2026-04-22T10:03:51.989Z</time></trkpt><trkpt lat="45.9570585" lon="12.6088482"><ele>30.166666666666668</ele><time>2026-04-22T10:03:54.979Z</time></trkpt><trkpt lat="45.9570611" lon="12.608718"><ele>30.0</ele><time>2026-04-22T10:03:57.979Z</time></trkpt><trkpt lat="45.9570984" lon="12.6086081"><ele>30.0</ele><time>2026-04-22T10:04:00.977Z</time></trkpt><trkpt lat="45.9571501" lon="12.6085312"><ele>30.0</ele><time>2026-04-22T10:04:03.978Z</time></trkpt><trkpt lat="45.9572318" lon="12.6084986"><ele>30.0</ele><time>2026-04-22T10:04:06.978Z</time></trkpt><trkpt lat="45.9573098" lon="12.6084861"><ele>30.0</ele><time>2026-04-22T10:04:09.981Z</time></trkpt><trkpt lat="45.9573846" lon="12.6084812"><ele>30.0</ele><time>2026-04-22T10:04:12.978Z</time></trkpt><trkpt lat="45.9574628" lon="12.6084734"><ele>30.0</ele><time>2026-04-22T10:04:15.979Z</time></trkpt><trkpt lat="45.9575457" lon="12.6084622"><ele>30.166666666666668</ele><time>2026-04-22T10:04:18.98Z</time></trkpt><trkpt lat="45.9576251" lon="12.6084536"><ele>30.333333333333336</ele><time>2026-04-22T10:04:21.977Z</time></trkpt><trkpt lat="45.9577054" lon="12.6084415"><ele>30.5</ele><time>2026-04-22T10:04:24.979Z</time></trkpt><trkpt lat="45.9577847" lon="12.6084284"><ele>30.666666666666668</ele><time>2026-04-22T10:04:27.977Z</time></trkpt><trkpt lat="45.9578668" lon="12.6084285"><ele>30.833333333333336</ele><time>2026-04-22T10:04:30.98Z</time></trkpt><trkpt lat="45.9579836" lon="12.6084322"><ele>31.0</ele><time>2026-04-22T10:04:34.979Z</time></trkpt><trkpt lat="45.9580771" lon="12.608423"><ele>31.0</ele><time>2026-04-22T10:04:37.979Z</time></trkpt><trkpt lat="45.9581665" lon="12.6084082"><ele>31.0</ele><time>2026-04-22T10:04:40.979Z</time></trkpt><trkpt lat="45.9582562" lon="12.6084007"><ele>31.0</ele><time>2026-04-22T10:04:43.979Z</time></trkpt><trkpt lat="45.9584082" lon="12.6084062"><ele>31.0</ele><time>2026-04-22T10:04:48.978Z</time></trkpt><trkpt lat="45.958498" lon="12.6083779"><ele>31.0</ele><time>2026-04-22T10:04:51.978Z</time></trkpt><trkpt lat="45.958637" lon="12.6082675"><ele>31.200000000000003</ele><time>2026-04-22T10:04:57.979Z</time></trkpt><trkpt lat="45.9587206" lon="12.6082141"><ele>31.400000000000002</ele><time>2026-04-22T10:05:01.979Z</time></trkpt><trkpt lat="45.9588989" lon="12.6081665"><ele>31.6</ele><time>2026-04-22T10:05:08.979Z</time></trkpt><trkpt lat="45.958978" lon="12.608124"><ele>31.8</ele><time>2026-04-22T10:05:11.984Z</time></trkpt><trkpt lat="45.9590543" lon="12.6080617"><ele>32.0</ele><time>2026-04-22T10:05:14.978Z</time></trkpt><trkpt lat="45.959132" lon="12.6079903"><ele>31.999999999999996</ele><time>2026-04-22T10:05:17.979Z</time></trkpt><trkpt lat="45.9591788" lon="12.6079291"><ele>32.0</ele><time>2026-04-22T10:05:19.979Z</time></trkpt><trkpt lat="45.9592366" lon="12.6078273"><ele>32.0</ele><time>2026-04-22T10:05:22.978Z</time></trkpt><trkpt lat="45.9592814" lon="12.6077282"><ele>32.0</ele><time>2026-04-22T10:05:25.978Z</time></trkpt><trkpt lat="45.9593264" lon="12.607637"><ele>31.999999999999996</ele><time>2026-04-22T10:05:28.981Z</time></trkpt><trkpt lat="45.959389" lon="12.6075461"><ele>32.0</ele><time>2026-04-22T10:05:31.979Z</time></trkpt><trkpt lat="45.9594605" lon="12.6074569"><ele>31.57142857142857</ele><time>2026-04-22T10:05:34.978Z</time></trkpt><trkpt lat="45.959518" lon="12.6073969"><ele>31.14285714285714</ele><time>2026-04-22T10:05:36.977Z</time></trkpt><trkpt lat="45.9595751" lon="12.6073382"><ele>30.714285714285715</ele><time>2026-04-22T10:05:38.977Z</time></trkpt><trkpt lat="45.959633" lon="12.6072839"><ele>30.285714285714285</ele><time>2026-04-22T10:05:40.977Z</time></trkpt><trkpt lat="45.9596882" lon="12.6072276"><ele>29.857142857142858</ele><time>2026-04-22T10:05:42.978Z</time></trkpt><trkpt lat="45.9597423" lon="12.6071793"><ele>29.42857142857143</ele><time>2026-04-22T10:05:44.978Z</time></trkpt><trkpt lat="45.9597981" lon="12.6071373"><ele>29.000000000000004</ele><time>2026-04-22T10:05:46.978Z</time></trkpt><trkpt lat="45.9598829" lon="12.6070841"><ele>28.999999999999996</ele><time>2026-04-22T10:05:49.978Z</time></trkpt><trkpt lat="45.9599659" lon="12.6070431"><ele>29.0</ele><time>2026-04-22T10:05:52.979Z</time></trkpt><trkpt lat="45.9600439" lon="12.6069958"><ele>29.0</ele><time>2026-04-22T10:05:55.979Z</time></trkpt><trkpt lat="45.9601242" lon="12.606935"><ele>29.0</ele><time>2026-04-22T10:05:58.977Z</time></trkpt><trkpt lat="45.9602091" lon="12.6068824"><ele>28.999999999999996</ele><time>2026-04-22T10:06:01.979Z</time></trkpt><trkpt lat="45.9602694" lon="12.6068432"><ele>29.0</ele><time>2026-04-22T10:06:03.984Z</time></trkpt><trkpt lat="45.9603304" lon="12.6067979"><ele>29.142857142857146</ele><time>2026-04-22T10:06:05.977Z</time></trkpt><trkpt lat="45.9603884" lon="12.6067467"><ele>29.285714285714285</ele><time>2026-04-22T10:06:07.98Z</time></trkpt><trkpt lat="45.9604443" lon="12.6066899"><ele>29.42857142857143</ele><time>2026-04-22T10:06:09.981Z</time></trkpt><trkpt lat="45.960496" lon="12.6066325"><ele>29.571428571428573</ele><time>2026-04-22T10:06:11.978Z</time></trkpt><trkpt lat="45.9605392" lon="12.6065664"><ele>29.714285714285715</ele><time>2026-04-22T10:06:13.979Z</time></trkpt><trkpt lat="45.96058" lon="12.606454"><ele>29.857142857142858</ele><time>2026-04-22T10:06:16.979Z</time></trkpt><trkpt lat="45.9605946" lon="12.6063298"><ele>30.0</ele><time>2026-04-22T10:06:19.979Z</time></trkpt><trkpt lat="45.9606106" lon="12.6061996"><ele>30.0</ele><time>2026-04-22T10:06:22.977Z</time></trkpt><trkpt lat="45.9606235" lon="12.6061071"><ele>30.0</ele><time>2026-04-22T10:06:24.978Z</time></trkpt><trkpt lat="45.9606514" lon="12.6059887"><ele>30.0</ele><time>2026-04-22T10:06:27.977Z</time></trkpt><trkpt lat="45.9606658" lon="12.605876"><ele>30.0</ele><time>2026-04-22T10:06:30.978Z</time></trkpt><trkpt lat="45.9606606" lon="12.6057485"><ele>30.0</ele><time>2026-04-22T10:06:33.978Z</time></trkpt><trkpt lat="45.9606451" lon="12.6056605"><ele>30.0</ele><time>2026-04-22T10:06:35.979Z</time></trkpt><trkpt lat="45.96062" lon="12.6055705"><ele>30.0</ele><time>2026-04-22T10:06:37.979Z</time></trkpt><trkpt lat="45.9605934" lon="12.6054811"><ele>30.0</ele><time>2026-04-22T10:06:39.977Z</time></trkpt><trkpt lat="45.9605734" lon="12.6053932"><ele>30.0</ele><time>2026-04-22T10:06:41.979Z</time></trkpt><trkpt lat="45.9605503" lon="12.6052644"><ele>30.0</ele><time>2026-04-22T10:06:44.98Z</time></trkpt><trkpt lat="45.9605192" lon="12.605141"><ele>30.0</ele><time>2026-04-22T10:06:47.978Z</time></trkpt><trkpt lat="45.9604902" lon="12.6050196"><ele>30.0</ele><time>2026-04-22T10:06:50.978Z</time></trkpt><trkpt lat="45.9604741" lon="12.6048901"><ele>30.0</ele><time>2026-04-22T10:06:53.978Z</time></trkpt><trkpt lat="45.9604546" lon="12.6047565"><ele>30.0</ele><time>2026-04-22T10:06:56.978Z</time></trkpt><trkpt lat="45.9604346" lon="12.604669"><ele>30.0</ele><time>2026-04-22T10:06:58.978Z</time></trkpt><trkpt lat="45.9604025" lon="12.6045426"><ele>30.0</ele><time>2026-04-22T10:07:01.982Z</time></trkpt><trkpt lat="45.9603655" lon="12.6044197"><ele>30.0</ele><time>2026-04-22T10:07:04.979Z</time></trkpt><trkpt lat="45.9603367" lon="12.6042938"><ele>30.0</ele><time>2026-04-22T10:07:07.979Z</time></trkpt><trkpt lat="45.9603093" lon="12.6041734"><ele>30.0</ele><time>2026-04-22T10:07:10.983Z</time></trkpt><trkpt lat="45.9602854" lon="12.6040526"><ele>30.0</ele><time>2026-04-22T10:07:13.979Z</time></trkpt><trkpt lat="45.9602598" lon="12.6039689"><ele>30.0</ele><time>2026-04-22T10:07:15.978Z</time></trkpt><trkpt lat="45.9602329" lon="12.6038419"><ele>30.0</ele><time>2026-04-22T10:07:18.981Z</time></trkpt><trkpt lat="45.9602144" lon="12.6037202"><ele>30.0</ele><time>2026-04-22T10:07:21.98Z</time></trkpt><trkpt lat="45.9601908" lon="12.6035963"><ele>30.0</ele><time>2026-04-22T10:07:24.981Z</time></trkpt><trkpt lat="45.9601626" lon="12.6034718"><ele>29.833333333333332</ele><time>2026-04-22T10:07:27.982Z</time></trkpt><trkpt lat="45.9601293" lon="12.6033549"><ele>29.666666666666664</ele><time>2026-04-22T10:07:30.979Z</time></trkpt><trkpt lat="45.9601046" lon="12.6032334"><ele>29.5</ele><time>2026-04-22T10:07:33.979Z</time></trkpt><trkpt lat="45.9600818" lon="12.6031132"><ele>29.333333333333332</ele><time>2026-04-22T10:07:36.979Z</time></trkpt><trkpt lat="45.9600464" lon="12.6029915"><ele>29.166666666666664</ele><time>2026-04-22T10:07:39.982Z</time></trkpt><trkpt lat="45.96002" lon="12.6028777"><ele>29.0</ele><time>2026-04-22T10:07:42.979Z</time></trkpt><trkpt lat="45.9599925" lon="12.6027611"><ele>29.000000000000004</ele><time>2026-04-22T10:07:45.979Z</time></trkpt><trkpt lat="45.9599705" lon="12.6026754"><ele>29.0</ele><time>2026-04-22T10:07:47.979Z</time></trkpt><trkpt lat="45.9599466" lon="12.6025874"><ele>29.000000000000004</ele><time>2026-04-22T10:07:49.979Z</time></trkpt><trkpt lat="45.959918" lon="12.6025036"><ele>29.000000000000004</ele><time>2026-04-22T10:07:51.979Z</time></trkpt><trkpt lat="45.9598829" lon="12.6024196"><ele>29.0</ele><time>2026-04-22T10:07:53.978Z</time></trkpt><trkpt lat="45.9598434" lon="12.6023372"><ele>29.000000000000004</ele><time>2026-04-22T10:07:55.979Z</time></trkpt><trkpt lat="45.9598076" lon="12.6022597"><ele>29.000000000000004</ele><time>2026-04-22T10:07:57.979Z</time></trkpt><trkpt lat="45.9597554" lon="12.6021441"><ele>28.999999999999996</ele><time>2026-04-22T10:08:00.987Z</time></trkpt><trkpt lat="45.9597234" lon="12.6020642"><ele>29.0</ele><time>2026-04-22T10:08:02.978Z</time></trkpt><trkpt lat="45.9597171" lon="12.6019372"><ele>29.0</ele><time>2026-04-22T10:08:05.98Z</time></trkpt><trkpt lat="45.959716" lon="12.6018198"><ele>29.0</ele><time>2026-04-22T10:08:08.978Z</time></trkpt><trkpt lat="45.9597062" lon="12.6017018"><ele>28.999999999999996</ele><time>2026-04-22T10:08:11.98Z</time></trkpt><trkpt lat="45.9596788" lon="12.6015823"><ele>29.0</ele><time>2026-04-22T10:08:14.978Z</time></trkpt><trkpt lat="45.9596394" lon="12.6014574"><ele>29.166666666666664</ele><time>2026-04-22T10:08:17.978Z</time></trkpt><trkpt lat="45.9596165" lon="12.6013694"><ele>29.333333333333332</ele><time>2026-04-22T10:08:19.981Z</time></trkpt><trkpt lat="45.9595863" lon="12.6012441"><ele>29.5</ele><time>2026-04-22T10:08:22.979Z</time></trkpt><trkpt lat="45.9595604" lon="12.6011286"><ele>29.666666666666664</ele><time>2026-04-22T10:08:25.98Z</time></trkpt><trkpt lat="45.9595312" lon="12.6010467"><ele>29.833333333333332</ele><time>2026-04-22T10:08:29.977Z</time></trkpt><trkpt lat="45.9594955" lon="12.6009479"><ele>30.0</ele><time>2026-04-22T10:08:33.979Z</time></trkpt><trkpt lat="45.9594688" lon="12.6008445"><ele>30.0</ele><time>2026-04-22T10:08:36.978Z</time></trkpt><trkpt lat="45.9594529" lon="12.6007279"><ele>30.0</ele><time>2026-04-22T10:08:39.977Z</time></trkpt><trkpt lat="45.9594306" lon="12.6006083"><ele>30.0</ele><time>2026-04-22T10:08:42.977Z</time></trkpt><trkpt lat="45.9594026" lon="12.6004901"><ele>30.0</ele><time>2026-04-22T10:08:45.976Z</time></trkpt><trkpt lat="45.9593785" lon="12.6003612"><ele>30.0</ele><time>2026-04-22T10:08:48.977Z</time></trkpt><trkpt lat="45.9593437" lon="12.6002361"><ele>30.0</ele><time>2026-04-22T10:08:51.979Z</time></trkpt><trkpt lat="45.9592872" lon="12.6001279"><ele>30.0</ele><time>2026-04-22T10:08:54.977Z</time></trkpt><trkpt lat="45.9592355" lon="12.6000213"><ele>30.0</ele><time>2026-04-22T10:08:57.977Z</time></trkpt><trkpt lat="45.9592024" lon="12.59992"><ele>30.0</ele><time>2026-04-22T10:09:00.976Z</time></trkpt><trkpt lat="45.9591771" lon="12.5998136"><ele>30.0</ele><time>2026-04-22T10:09:03.982Z</time></trkpt><trkpt lat="45.9591415" lon="12.5997107"><ele>30.0</ele><time>2026-04-22T10:09:06.977Z</time></trkpt><trkpt lat="45.9591058" lon="12.5996089"><ele>30.0</ele><time>2026-04-22T10:09:09.976Z</time></trkpt><trkpt lat="45.9590741" lon="12.5995002"><ele>30.166666666666668</ele><time>2026-04-22T10:09:12.977Z</time></trkpt><trkpt lat="45.9590373" lon="12.5993938"><ele>30.333333333333336</ele><time>2026-04-22T10:09:15.977Z</time></trkpt><trkpt lat="45.9589891" lon="12.5992871"><ele>30.5</ele><time>2026-04-22T10:09:18.983Z</time></trkpt><trkpt lat="45.9589411" lon="12.5991817"><ele>30.666666666666668</ele><time>2026-04-22T10:09:21.979Z</time></trkpt><trkpt lat="45.9588849" lon="12.5990775"><ele>30.833333333333336</ele><time>2026-04-22T10:09:24.977Z</time></trkpt><trkpt lat="45.9588344" lon="12.5989691"><ele>31.0</ele><time>2026-04-22T10:09:27.976Z</time></trkpt><trkpt lat="45.9587906" lon="12.5988631"><ele>31.0</ele><time>2026-04-22T10:09:30.98Z</time></trkpt><trkpt lat="45.9587435" lon="12.598746"><ele>31.0</ele><time>2026-04-22T10:09:33.977Z</time></trkpt><trkpt lat="45.9587012" lon="12.5986277"><ele>31.0</ele><time>2026-04-22T10:09:36.977Z</time></trkpt><trkpt lat="45.9586557" lon="12.598516"><ele>31.0</ele><time>2026-04-22T10:09:39.977Z</time></trkpt><trkpt lat="45.9586102" lon="12.5984052"><ele>31.0</ele><time>2026-04-22T10:09:42.978Z</time></trkpt><trkpt lat="45.9585612" lon="12.598297"><ele>30.833333333333336</ele><time>2026-04-22T10:09:45.977Z</time></trkpt><trkpt lat="45.9585031" lon="12.5982009"><ele>30.666666666666668</ele><time>2026-04-22T10:09:48.98Z</time></trkpt><trkpt lat="45.9584444" lon="12.5981036"><ele>30.5</ele><time>2026-04-22T10:09:51.977Z</time></trkpt><trkpt lat="45.9583812" lon="12.5980172"><ele>30.333333333333336</ele><time>2026-04-22T10:09:54.977Z</time></trkpt><trkpt lat="45.9583363" lon="12.5979233"><ele>30.166666666666668</ele><time>2026-04-22T10:09:57.979Z</time></trkpt><trkpt lat="45.9582888" lon="12.5978217"><ele>30.0</ele><time>2026-04-22T10:10:00.977Z</time></trkpt><trkpt lat="45.9582332" lon="12.597728"><ele>29.666666666666668</ele><time>2026-04-22T10:10:03.977Z</time></trkpt><trkpt lat="45.9581706" lon="12.5976315"><ele>29.333333333333336</ele><time>2026-04-22T10:10:06.977Z</time></trkpt><trkpt lat="45.9581201" lon="12.5975668"><ele>29.0</ele><time>2026-04-22T10:10:08.977Z</time></trkpt><trkpt lat="45.9580779" lon="12.5974936"><ele>28.666666666666668</ele><time>2026-04-22T10:10:10.978Z</time></trkpt><trkpt lat="45.9580402" lon="12.5973771"><ele>28.333333333333336</ele><time>2026-04-22T10:10:13.977Z</time></trkpt><trkpt lat="45.9580164" lon="12.5972925"><ele>28.0</ele><time>2026-04-22T10:10:15.98Z</time></trkpt><trkpt lat="45.9579859" lon="12.597165"><ele>28.000000000000004</ele><time>2026-04-22T10:10:18.978Z</time></trkpt><trkpt lat="45.9579726" lon="12.5970404"><ele>28.0</ele><time>2026-04-22T10:10:21.983Z</time></trkpt><trkpt lat="45.9579716" lon="12.5969157"><ele>28.0</ele><time>2026-04-22T10:10:24.977Z</time></trkpt><trkpt lat="45.9579726" lon="12.5968066"><ele>28.0</ele><time>2026-04-22T10:10:27.977Z</time></trkpt><trkpt lat="45.9579769" lon="12.5967075"><ele>28.000000000000004</ele><time>2026-04-22T10:10:30.976Z</time></trkpt><trkpt lat="45.9579718" lon="12.5966102"><ele>28.0</ele><time>2026-04-22T10:10:33.977Z</time></trkpt><trkpt lat="45.9579767" lon="12.5965095"><ele>28.142857142857142</ele><time>2026-04-22T10:10:36.978Z</time></trkpt><trkpt lat="45.9579842" lon="12.5964113"><ele>28.285714285714285</ele><time>2026-04-22T10:10:39.977Z</time></trkpt><trkpt lat="45.9579844" lon="12.5963057"><ele>28.42857142857143</ele><time>2026-04-22T10:10:42.977Z</time></trkpt><trkpt lat="45.9579841" lon="12.5962033"><ele>28.571428571428573</ele><time>2026-04-22T10:10:45.976Z</time></trkpt><trkpt lat="45.9579867" lon="12.5961111"><ele>28.714285714285715</ele><time>2026-04-22T10:10:48.979Z</time></trkpt><trkpt lat="45.957986" lon="12.5960079"><ele>28.85714285714286</ele><time>2026-04-22T10:10:51.976Z</time></trkpt><trkpt lat="45.9579806" lon="12.595902"><ele>29.000000000000004</ele><time>2026-04-22T10:10:54.98Z</time></trkpt><trkpt lat="45.9579833" lon="12.5957983"><ele>29.285714285714292</ele><time>2026-04-22T10:10:57.977Z</time></trkpt><trkpt lat="45.9579856" lon="12.5956978"><ele>29.571428571428573</ele><time>2026-04-22T10:11:00.978Z</time></trkpt><trkpt lat="45.9579855" lon="12.5955997"><ele>29.85714285714286</ele><time>2026-04-22T10:11:03.978Z</time></trkpt><trkpt lat="45.9579855" lon="12.5955033"><ele>30.142857142857146</ele><time>2026-04-22T10:11:06.978Z</time></trkpt><trkpt lat="45.9579868" lon="12.5954054"><ele>30.42857142857143</ele><time>2026-04-22T10:11:09.977Z</time></trkpt><trkpt lat="45.957983" lon="12.5953003"><ele>30.714285714285715</ele><time>2026-04-22T10:11:12.978Z</time></trkpt><trkpt lat="45.9579876" lon="12.5951988"><ele>31.0</ele><time>2026-04-22T10:11:15.978Z</time></trkpt><trkpt lat="45.9579868" lon="12.5950881"><ele>31.000000000000004</ele><time>2026-04-22T10:11:18.978Z</time></trkpt><trkpt lat="45.9579921" lon="12.5949698"><ele>31.0</ele><time>2026-04-22T10:11:21.976Z</time></trkpt><trkpt lat="45.9580008" lon="12.5948447"><ele>31.0</ele><time>2026-04-22T10:11:24.977Z</time></trkpt><trkpt lat="45.958003" lon="12.5947117"><ele>31.0</ele><time>2026-04-22T10:11:27.977Z</time></trkpt><trkpt lat="45.9580018" lon="12.594617"><ele>31.000000000000004</ele><time>2026-04-22T10:11:29.978Z</time></trkpt><trkpt lat="45.9580045" lon="12.5945212"><ele>31.0</ele><time>2026-04-22T10:11:31.981Z</time></trkpt><trkpt lat="45.958011" lon="12.5943898"><ele>31.000000000000004</ele><time>2026-04-22T10:11:34.977Z</time></trkpt><trkpt lat="45.9580071" lon="12.594267"><ele>31.0</ele><time>2026-04-22T10:11:37.978Z</time></trkpt><trkpt lat="45.9580124" lon="12.5941379"><ele>31.0</ele><time>2026-04-22T10:11:40.978Z</time></trkpt><trkpt lat="45.9580192" lon="12.5940032"><ele>31.0</ele><time>2026-04-22T10:11:43.987Z</time></trkpt><trkpt lat="45.9580316" lon="12.5938797"><ele>31.000000000000004</ele><time>2026-04-22T10:11:46.98Z</time></trkpt><trkpt lat="45.9580305" lon="12.593753"><ele>31.0</ele><time>2026-04-22T10:11:49.977Z</time></trkpt><trkpt lat="45.9580212" lon="12.5936174"><ele>30.666666666666668</ele><time>2026-04-22T10:11:52.978Z</time></trkpt><trkpt lat="45.9580197" lon="12.5934831"><ele>30.333333333333336</ele><time>2026-04-22T10:11:55.978Z</time></trkpt><trkpt lat="45.9580166" lon="12.5933922"><ele>30.0</ele><time>2026-04-22T10:11:57.978Z</time></trkpt><trkpt lat="45.9580056" lon="12.5932591"><ele>29.666666666666664</ele><time>2026-04-22T10:12:00.978Z</time></trkpt><trkpt lat="45.9579962" lon="12.5931329"><ele>29.333333333333332</ele><time>2026-04-22T10:12:03.978Z</time></trkpt><trkpt lat="45.9579855" lon="12.5930041"><ele>29.0</ele><time>2026-04-22T10:12:06.978Z</time></trkpt><trkpt lat="45.9579705" lon="12.5928714"><ele>28.999999999999996</ele><time>2026-04-22T10:12:09.978Z</time></trkpt><trkpt lat="45.9579549" lon="12.5927811"><ele>29.0</ele><time>2026-04-22T10:12:11.977Z</time></trkpt><trkpt lat="45.9579411" lon="12.5926519"><ele>29.0</ele><time>2026-04-22T10:12:14.978Z</time></trkpt><trkpt lat="45.9579325" lon="12.59252"><ele>29.0</ele><time>2026-04-22T10:12:17.977Z</time></trkpt><trkpt lat="45.9579225" lon="12.5923943"><ele>28.999999999999996</ele><time>2026-04-22T10:12:20.978Z</time></trkpt><trkpt lat="45.9579149" lon="12.5922627"><ele>29.0</ele><time>2026-04-22T10:12:23.976Z</time></trkpt><trkpt lat="45.9579059" lon="12.5921728"><ele>28.999999999999996</ele><time>2026-04-22T10:12:25.978Z</time></trkpt><trkpt lat="45.9578927" lon="12.5920837"><ele>29.0</ele><time>2026-04-22T10:12:27.976Z</time></trkpt><trkpt lat="45.9578823" lon="12.5919932"><ele>29.0</ele><time>2026-04-22T10:12:29.977Z</time></trkpt><trkpt lat="45.9578687" lon="12.591904"><ele>29.0</ele><time>2026-04-22T10:12:31.978Z</time></trkpt><trkpt lat="45.9578529" lon="12.5917708"><ele>28.999999999999996</ele><time>2026-04-22T10:12:34.977Z</time></trkpt><trkpt lat="45.9578432" lon="12.5916379"><ele>29.0</ele><time>2026-04-22T10:12:37.977Z</time></trkpt><trkpt lat="45.9578361" lon="12.5915036"><ele>28.666666666666664</ele><time>2026-04-22T10:12:40.976Z</time></trkpt><trkpt lat="45.957833" lon="12.5914101"><ele>28.333333333333332</ele><time>2026-04-22T10:12:42.977Z</time></trkpt><trkpt lat="45.957827" lon="12.5913193"><ele>28.0</ele><time>2026-04-22T10:12:44.977Z</time></trkpt><trkpt lat="45.9578193" lon="12.5912282"><ele>27.666666666666664</ele><time>2026-04-22T10:12:46.977Z</time></trkpt><trkpt lat="45.9578017" lon="12.591102"><ele>27.333333333333332</ele><time>2026-04-22T10:12:49.978Z</time></trkpt><trkpt lat="45.9577959" lon="12.5909836"><ele>27.0</ele><time>2026-04-22T10:12:52.977Z</time></trkpt><trkpt lat="45.9577915" lon="12.590861"><ele>26.833333333333332</ele><time>2026-04-22T10:12:55.979Z</time></trkpt><trkpt lat="45.9577883" lon="12.5907455"><ele>26.666666666666664</ele><time>2026-04-22T10:12:58.977Z</time></trkpt><trkpt lat="45.9577885" lon="12.5906285"><ele>26.5</ele><time>2026-04-22T10:13:01.977Z</time></trkpt><trkpt lat="45.9577937" lon="12.5905058"><ele>26.333333333333332</ele><time>2026-04-22T10:13:04.976Z</time></trkpt><trkpt lat="45.9577993" lon="12.5903788"><ele>26.166666666666664</ele><time>2026-04-22T10:13:07.982Z</time></trkpt><trkpt lat="45.9577758" lon="12.5902499"><ele>26.0</ele><time>2026-04-22T10:13:10.981Z</time></trkpt><trkpt lat="45.9577715" lon="12.5901159"><ele>25.999999999999996</ele><time>2026-04-22T10:13:13.978Z</time></trkpt><trkpt lat="45.9577626" lon="12.5899861"><ele>26.0</ele><time>2026-04-22T10:13:16.98Z</time></trkpt><trkpt lat="45.9577731" lon="12.5898651"><ele>26.0</ele><time>2026-04-22T10:13:19.978Z</time></trkpt><trkpt lat="45.9577841" lon="12.5897708"><ele>26.0</ele><time>2026-04-22T10:13:22.978Z</time></trkpt><trkpt lat="45.9577801" lon="12.5896705"><ele>25.999999999999996</ele><time>2026-04-22T10:13:25.978Z</time></trkpt><trkpt lat="45.9577663" lon="12.5895523"><ele>26.0</ele><time>2026-04-22T10:13:28.977Z</time></trkpt><trkpt lat="45.9577593" lon="12.5894249"><ele>26.285714285714285</ele><time>2026-04-22T10:13:31.978Z</time></trkpt><trkpt lat="45.9577464" lon="12.589335"><ele>26.571428571428573</ele><time>2026-04-22T10:13:33.978Z</time></trkpt><trkpt lat="45.9577379" lon="12.5892389"><ele>26.857142857142858</ele><time>2026-04-22T10:13:35.977Z</time></trkpt><trkpt lat="45.9577304" lon="12.5891416"><ele>27.142857142857142</ele><time>2026-04-22T10:13:37.977Z</time></trkpt><trkpt lat="45.9577203" lon="12.5890503"><ele>27.42857142857143</ele><time>2026-04-22T10:13:39.977Z</time></trkpt><trkpt lat="45.9577039" lon="12.5889628"><ele>27.714285714285715</ele><time>2026-04-22T10:13:41.977Z</time></trkpt><trkpt lat="45.9576796" lon="12.588875"><ele>28.0</ele><time>2026-04-22T10:13:43.978Z</time></trkpt><trkpt lat="45.9576494" lon="12.5887902"><ele>28.000000000000004</ele><time>2026-04-22T10:13:45.977Z</time></trkpt><trkpt lat="45.9576163" lon="12.5887118"><ele>28.0</ele><time>2026-04-22T10:13:47.977Z</time></trkpt><trkpt lat="45.9575633" lon="12.5886018"><ele>28.0</ele><time>2026-04-22T10:13:50.977Z</time></trkpt><trkpt lat="45.9575071" lon="12.5885014"><ele>28.0</ele><time>2026-04-22T10:13:53.977Z</time></trkpt><trkpt lat="45.9574439" lon="12.5884093"><ele>28.000000000000004</ele><time>2026-04-22T10:13:56.977Z</time></trkpt><trkpt lat="45.9573847" lon="12.5883292"><ele>28.0</ele><time>2026-04-22T10:13:59.977Z</time></trkpt><trkpt lat="45.9573467" lon="12.5882366"><ele>28.285714285714285</ele><time>2026-04-22T10:14:02.977Z</time></trkpt><trkpt lat="45.9573282" lon="12.5881393"><ele>28.57142857142857</ele><time>2026-04-22T10:14:05.976Z</time></trkpt><trkpt lat="45.9573328" lon="12.5880412"><ele>28.857142857142858</ele><time>2026-04-22T10:14:08.977Z</time></trkpt><trkpt lat="45.9573455" lon="12.5879294"><ele>29.142857142857142</ele><time>2026-04-22T10:14:12.978Z</time></trkpt><trkpt lat="45.9573504" lon="12.5878281"><ele>29.428571428571427</ele><time>2026-04-22T10:14:16.977Z</time></trkpt><trkpt lat="45.9573872" lon="12.5877393"><ele>29.714285714285715</ele><time>2026-04-22T10:14:20.979Z</time></trkpt><trkpt lat="45.9574264" lon="12.587666"><ele>30.0</ele><time>2026-04-22T10:14:23.977Z</time></trkpt><trkpt lat="45.9574726" lon="12.5875994"><ele>29.833333333333332</ele><time>2026-04-22T10:14:26.98Z</time></trkpt><trkpt lat="45.9575225" lon="12.5875274"><ele>29.666666666666664</ele><time>2026-04-22T10:14:29.977Z</time></trkpt><trkpt lat="45.9575664" lon="12.5874284"><ele>29.5</ele><time>2026-04-22T10:14:32.977Z</time></trkpt><trkpt lat="45.9576052" lon="12.5873162"><ele>29.333333333333332</ele><time>2026-04-22T10:14:35.977Z</time></trkpt><trkpt lat="45.9576505" lon="12.5872126"><ele>29.166666666666664</ele><time>2026-04-22T10:14:38.977Z</time></trkpt><trkpt lat="45.957701" lon="12.5871152"><ele>29.0</ele><time>2026-04-22T10:14:41.976Z</time></trkpt><trkpt lat="45.9577357" lon="12.5870376"><ele>28.833333333333332</ele><time>2026-04-22T10:14:43.979Z</time></trkpt><trkpt lat="45.9577746" lon="12.5869144"><ele>28.666666666666664</ele><time>2026-04-22T10:14:46.981Z</time></trkpt><trkpt lat="45.9578019" lon="12.5868272"><ele>28.5</ele><time>2026-04-22T10:14:48.979Z</time></trkpt><trkpt lat="45.9578335" lon="12.5867303"><ele>28.333333333333336</ele><time>2026-04-22T10:14:50.979Z</time></trkpt><trkpt lat="45.9578558" lon="12.5866217"><ele>28.166666666666668</ele><time>2026-04-22T10:14:52.981Z</time></trkpt><trkpt lat="45.95787" lon="12.5865165"><ele>28.0</ele><time>2026-04-22T10:14:54.978Z</time></trkpt><trkpt lat="45.9578657" lon="12.5864207"><ele>28.000000000000004</ele><time>2026-04-22T10:14:56.977Z</time></trkpt><trkpt lat="45.957844" lon="12.5862953"><ele>28.0</ele><time>2026-04-22T10:14:59.977Z</time></trkpt><trkpt lat="45.957823" lon="12.5861638"><ele>28.0</ele><time>2026-04-22T10:15:02.977Z</time></trkpt><trkpt lat="45.9578105" lon="12.5860743"><ele>28.0</ele><time>2026-04-22T10:15:04.978Z</time></trkpt><trkpt lat="45.9577936" lon="12.585943"><ele>28.000000000000004</ele><time>2026-04-22T10:15:07.978Z</time></trkpt><trkpt lat="45.9577769" lon="12.5858546"><ele>28.0</ele><time>2026-04-22T10:15:09.978Z</time></trkpt><trkpt lat="45.9577432" lon="12.5857291"><ele>28.000000000000004</ele><time>2026-04-22T10:15:12.979Z</time></trkpt><trkpt lat="45.9577118" lon="12.5856021"><ele>28.0</ele><time>2026-04-22T10:15:15.977Z</time></trkpt><trkpt lat="45.9576805" lon="12.5854782"><ele>28.0</ele><time>2026-04-22T10:15:18.979Z</time></trkpt><trkpt lat="45.9576492" lon="12.5853591"><ele>28.0</ele><time>2026-04-22T10:15:21.977Z</time></trkpt><trkpt lat="45.9576225" lon="12.5852379"><ele>28.000000000000004</ele><time>2026-04-22T10:15:24.979Z</time></trkpt><trkpt lat="45.9576141" lon="12.5851158"><ele>28.0</ele><time>2026-04-22T10:15:27.978Z</time></trkpt><trkpt lat="45.9575861" lon="12.5849908"><ele>27.833333333333336</ele><time>2026-04-22T10:15:30.978Z</time></trkpt><trkpt lat="45.9575701" lon="12.5848668"><ele>27.666666666666668</ele><time>2026-04-22T10:15:33.977Z</time></trkpt><trkpt lat="45.9575592" lon="12.5847538"><ele>27.5</ele><time>2026-04-22T10:15:36.978Z</time></trkpt><trkpt lat="45.9575535" lon="12.5846419"><ele>27.333333333333336</ele><time>2026-04-22T10:15:40.978Z</time></trkpt><trkpt lat="45.9575598" lon="12.5845457"><ele>27.166666666666668</ele><time>2026-04-22T10:15:44.978Z</time></trkpt><trkpt lat="45.9575925" lon="12.5844419"><ele>27.0</ele><time>2026-04-22T10:15:48.978Z</time></trkpt><trkpt lat="45.9576243" lon="12.5843504"><ele>26.833333333333332</ele><time>2026-04-22T10:15:51.978Z</time></trkpt><trkpt lat="45.9576686" lon="12.5842641"><ele>26.666666666666664</ele><time>2026-04-22T10:15:54.977Z</time></trkpt><trkpt lat="45.9577168" lon="12.5841788"><ele>26.5</ele><time>2026-04-22T10:15:58.977Z</time></trkpt><trkpt lat="45.9577361" lon="12.5840642"><ele>26.333333333333332</ele><time>2026-04-22T10:16:05.978Z</time></trkpt><trkpt lat="45.957766" lon="12.5839528"><ele>26.166666666666664</ele><time>2026-04-22T10:16:08.978Z</time></trkpt><trkpt lat="45.9578074" lon="12.5838348"><ele>26.0</ele><time>2026-04-22T10:16:11.979Z</time></trkpt><trkpt lat="45.9578353" lon="12.5837429"><ele>26.142857142857142</ele><time>2026-04-22T10:16:13.978Z</time></trkpt><trkpt lat="45.9578524" lon="12.583648"><ele>26.28571428571429</ele><time>2026-04-22T10:16:15.977Z</time></trkpt><trkpt lat="45.9578629" lon="12.5835561"><ele>26.42857142857143</ele><time>2026-04-22T10:16:17.978Z</time></trkpt><trkpt lat="45.9578736" lon="12.5834641"><ele>26.57142857142857</ele><time>2026-04-22T10:16:19.977Z</time></trkpt><trkpt lat="45.95789" lon="12.5833683"><ele>26.714285714285715</ele><time>2026-04-22T10:16:21.977Z</time></trkpt><trkpt lat="45.9579128" lon="12.5832767"><ele>26.857142857142858</ele><time>2026-04-22T10:16:23.978Z</time></trkpt><trkpt lat="45.9579393" lon="12.583191"><ele>27.0</ele><time>2026-04-22T10:16:25.978Z</time></trkpt><trkpt lat="45.9579742" lon="12.5830667"><ele>27.0</ele><time>2026-04-22T10:16:28.977Z</time></trkpt><trkpt lat="45.9580005" lon="12.5829812"><ele>27.0</ele><time>2026-04-22T10:16:30.977Z</time></trkpt><trkpt lat="45.9580358" lon="12.5828618"><ele>27.0</ele><time>2026-04-22T10:16:33.977Z</time></trkpt><trkpt lat="45.9580658" lon="12.5827488"><ele>27.0</ele><time>2026-04-22T10:16:36.977Z</time></trkpt><trkpt lat="45.9581002" lon="12.5826405"><ele>27.0</ele><time>2026-04-22T10:16:39.977Z</time></trkpt><trkpt lat="45.9581347" lon="12.5825277"><ele>27.0</ele><time>2026-04-22T10:16:42.977Z</time></trkpt><trkpt lat="45.9581747" lon="12.5824121"><ele>27.0</ele><time>2026-04-22T10:16:45.979Z</time></trkpt><trkpt lat="45.958198" lon="12.5823278"><ele>27.0</ele><time>2026-04-22T10:16:47.977Z</time></trkpt><trkpt lat="45.9582336" lon="12.5822058"><ele>27.0</ele><time>2026-04-22T10:16:50.977Z</time></trkpt><trkpt lat="45.9582671" lon="12.5820822"><ele>27.0</ele><time>2026-04-22T10:16:53.977Z</time></trkpt><trkpt lat="45.9582989" lon="12.58196"><ele>27.0</ele><time>2026-04-22T10:16:56.976Z</time></trkpt><trkpt lat="45.9583379" lon="12.5818443"><ele>27.0</ele><time>2026-04-22T10:16:59.976Z</time></trkpt><trkpt lat="45.9583634" lon="12.5817262"><ele>27.333333333333332</ele><time>2026-04-22T10:17:02.977Z</time></trkpt><trkpt lat="45.9583872" lon="12.5816089"><ele>27.666666666666664</ele><time>2026-04-22T10:17:05.977Z</time></trkpt><trkpt lat="45.9584133" lon="12.5814877"><ele>28.0</ele><time>2026-04-22T10:17:08.977Z</time></trkpt><trkpt lat="45.9584457" lon="12.5813805"><ele>28.333333333333332</ele><time>2026-04-22T10:17:11.977Z</time></trkpt><trkpt lat="45.9584863" lon="12.581267"><ele>28.666666666666664</ele><time>2026-04-22T10:17:14.976Z</time></trkpt><trkpt lat="45.9585184" lon="12.5811451"><ele>29.0</ele><time>2026-04-22T10:17:17.978Z</time></trkpt><trkpt lat="45.9585616" lon="12.5810289"><ele>28.999999999999996</ele><time>2026-04-22T10:17:20.976Z</time></trkpt><trkpt lat="45.958592" lon="12.5809098"><ele>29.0</ele><time>2026-04-22T10:17:23.976Z</time></trkpt><trkpt lat="45.9586287" lon="12.5808103"><ele>29.0</ele><time>2026-04-22T10:17:26.977Z</time></trkpt><trkpt lat="45.9586591" lon="12.5807274"><ele>29.0</ele><time>2026-04-22T10:17:29.977Z</time></trkpt><trkpt lat="45.9586895" lon="12.5806185"><ele>28.999999999999996</ele><time>2026-04-22T10:17:33.977Z</time></trkpt><trkpt lat="45.9587248" lon="12.5805182"><ele>29.0</ele><time>2026-04-22T10:17:36.977Z</time></trkpt><trkpt lat="45.9587743" lon="12.5804041"><ele>28.833333333333332</ele><time>2026-04-22T10:17:39.981Z</time></trkpt><trkpt lat="45.9588124" lon="12.5803292"><ele>28.666666666666664</ele><time>2026-04-22T10:17:41.981Z</time></trkpt><trkpt lat="45.9588549" lon="12.5802606"><ele>28.5</ele><time>2026-04-22T10:17:43.982Z</time></trkpt><trkpt lat="45.9589203" lon="12.5801671"><ele>28.333333333333336</ele><time>2026-04-22T10:17:46.98Z</time></trkpt><trkpt lat="45.9589833" lon="12.5800739"><ele>28.166666666666668</ele><time>2026-04-22T10:17:49.978Z</time></trkpt><trkpt lat="45.9590466" lon="12.5799872"><ele>28.0</ele><time>2026-04-22T10:17:52.977Z</time></trkpt><trkpt lat="45.959107" lon="12.5798903"><ele>28.000000000000004</ele><time>2026-04-22T10:17:55.979Z</time></trkpt><trkpt lat="45.9591715" lon="12.5797903"><ele>28.0</ele><time>2026-04-22T10:17:58.98Z</time></trkpt><trkpt lat="45.9592228" lon="12.5797183"><ele>28.0</ele><time>2026-04-22T10:18:00.976Z</time></trkpt><trkpt lat="45.9592788" lon="12.5796487"><ele>28.0</ele><time>2026-04-22T10:18:02.977Z</time></trkpt><trkpt lat="45.9593206" lon="12.5795803"><ele>28.000000000000004</ele><time>2026-04-22T10:18:04.979Z</time></trkpt><trkpt lat="45.9593654" lon="12.5795152"><ele>28.0</ele><time>2026-04-22T10:18:06.977Z</time></trkpt><trkpt lat="45.9594256" lon="12.579422"><ele>28.285714285714285</ele><time>2026-04-22T10:18:09.977Z</time></trkpt><trkpt lat="45.9594781" lon="12.5793346"><ele>28.57142857142857</ele><time>2026-04-22T10:18:12.977Z</time></trkpt><trkpt lat="45.9595282" lon="12.5792418"><ele>28.857142857142858</ele><time>2026-04-22T10:18:15.978Z</time></trkpt><trkpt lat="45.9595867" lon="12.5791366"><ele>29.142857142857142</ele><time>2026-04-22T10:18:18.977Z</time></trkpt><trkpt lat="45.959625" lon="12.579063"><ele>29.428571428571427</ele><time>2026-04-22T10:18:20.977Z</time></trkpt><trkpt lat="45.9596601" lon="12.5789876"><ele>29.714285714285715</ele><time>2026-04-22T10:18:22.977Z</time></trkpt><trkpt lat="45.9596949" lon="12.578908"><ele>30.0</ele><time>2026-04-22T10:18:24.977Z</time></trkpt><trkpt lat="45.9597446" lon="12.5788033"><ele>30.0</ele><time>2026-04-22T10:18:27.978Z</time></trkpt><trkpt lat="45.9597834" lon="12.5787035"><ele>30.0</ele><time>2026-04-22T10:18:30.977Z</time></trkpt><trkpt lat="45.9598243" lon="12.5785986"><ele>30.0</ele><time>2026-04-22T10:18:33.977Z</time></trkpt><trkpt lat="45.9598713" lon="12.578496"><ele>30.0</ele><time>2026-04-22T10:18:36.976Z</time></trkpt><trkpt lat="45.9599197" lon="12.5783881"><ele>30.0</ele><time>2026-04-22T10:18:39.976Z</time></trkpt><trkpt lat="45.95997" lon="12.578281"><ele>30.0</ele><time>2026-04-22T10:18:42.976Z</time></trkpt><trkpt lat="45.9599885" lon="12.57818"><ele>30.0</ele><time>2026-04-22T10:18:46.977Z</time></trkpt><trkpt lat="45.9600334" lon="12.5780924"><ele>30.0</ele><time>2026-04-22T10:18:58.977Z</time></trkpt><trkpt lat="45.9600834" lon="12.5780091"><ele>30.0</ele><time>2026-04-22T10:19:01.979Z</time></trkpt><trkpt lat="45.9601334" lon="12.5779122"><ele>30.0</ele><time>2026-04-22T10:19:04.978Z</time></trkpt><trkpt lat="45.9601564" lon="12.5778216"><ele>30.0</ele><time>2026-04-22T10:19:07.978Z</time></trkpt><trkpt lat="45.9601666" lon="12.5777157"><ele>30.0</ele><time>2026-04-22T10:19:12.979Z</time></trkpt><trkpt lat="45.9602036" lon="12.5776256"><ele>30.0</ele><time>2026-04-22T10:19:16.978Z</time></trkpt><trkpt lat="45.9602391" lon="12.5775272"><ele>30.0</ele><time>2026-04-22T10:19:19.978Z</time></trkpt><trkpt lat="45.9602841" lon="12.5774291"><ele>30.0</ele><time>2026-04-22T10:19:22.983Z</time></trkpt><trkpt lat="45.9603221" lon="12.577341"><ele>30.0</ele><time>2026-04-22T10:19:25.978Z</time></trkpt><trkpt lat="45.9603638" lon="12.5772655"><ele>30.0</ele><time>2026-04-22T10:19:28.978Z</time></trkpt><trkpt lat="45.9604106" lon="12.5771916"><ele>30.0</ele><time>2026-04-22T10:19:31.978Z</time></trkpt><trkpt lat="45.9604683" lon="12.5771132"><ele>30.0</ele><time>2026-04-22T10:19:34.976Z</time></trkpt><trkpt lat="45.9605332" lon="12.577028"><ele>29.833333333333332</ele><time>2026-04-22T10:19:37.978Z</time></trkpt><trkpt lat="45.9605927" lon="12.5769353"><ele>29.666666666666664</ele><time>2026-04-22T10:19:40.977Z</time></trkpt><trkpt lat="45.9606503" lon="12.5768488"><ele>29.5</ele><time>2026-04-22T10:19:43.979Z</time></trkpt><trkpt lat="45.9607036" lon="12.5767675"><ele>29.333333333333332</ele><time>2026-04-22T10:19:46.978Z</time></trkpt><trkpt lat="45.9607508" lon="12.5766821"><ele>29.166666666666664</ele><time>2026-04-22T10:19:49.977Z</time></trkpt><trkpt lat="45.9607941" lon="12.5765947"><ele>29.0</ele><time>2026-04-22T10:19:52.978Z</time></trkpt><trkpt lat="45.9608404" lon="12.5764941"><ele>28.833333333333332</ele><time>2026-04-22T10:19:55.978Z</time></trkpt><trkpt lat="45.9608804" lon="12.5763809"><ele>28.666666666666664</ele><time>2026-04-22T10:19:58.978Z</time></trkpt><trkpt lat="45.9609182" lon="12.5762572"><ele>28.5</ele><time>2026-04-22T10:20:01.978Z</time></trkpt><trkpt lat="45.9609442" lon="12.5761282"><ele>28.333333333333336</ele><time>2026-04-22T10:20:04.977Z</time></trkpt><trkpt lat="45.9609555" lon="12.5760339"><ele>28.166666666666668</ele><time>2026-04-22T10:20:06.978Z</time></trkpt><trkpt lat="45.9609608" lon="12.575899"><ele>28.0</ele><time>2026-04-22T10:20:09.979Z</time></trkpt><trkpt lat="45.960961" lon="12.5758045"><ele>28.500000000000004</ele><time>2026-04-22T10:20:11.978Z</time></trkpt><trkpt lat="45.9609545" lon="12.57571"><ele>29.0</ele><time>2026-04-22T10:20:13.977Z</time></trkpt><trkpt lat="45.9609437" lon="12.5755795"><ele>29.5</ele><time>2026-04-22T10:20:16.978Z</time></trkpt><trkpt lat="45.9609298" lon="12.5754727"><ele>30.0</ele><time>2026-04-22T10:20:19.978Z</time></trkpt><trkpt lat="45.960925" lon="12.5753721"><ele>30.500000000000004</ele><time>2026-04-22T10:20:22.978Z</time></trkpt><trkpt lat="45.9609307" lon="12.5752626"><ele>31.0</ele><time>2026-04-22T10:20:25.979Z</time></trkpt><trkpt lat="45.9609356" lon="12.5751419"><ele>31.166666666666668</ele><time>2026-04-22T10:20:28.978Z</time></trkpt><trkpt lat="45.9609299" lon="12.5750168"><ele>31.333333333333336</ele><time>2026-04-22T10:20:31.978Z</time></trkpt><trkpt lat="45.9609312" lon="12.5748917"><ele>31.5</ele><time>2026-04-22T10:20:34.976Z</time></trkpt><trkpt lat="45.9609372" lon="12.5747587"><ele>31.666666666666664</ele><time>2026-04-22T10:20:37.979Z</time></trkpt><trkpt lat="45.9609376" lon="12.5746676"><ele>31.833333333333332</ele><time>2026-04-22T10:20:39.977Z</time></trkpt><trkpt lat="45.9609311" lon="12.5745322"><ele>32.0</ele><time>2026-04-22T10:20:42.976Z</time></trkpt><trkpt lat="45.9609207" lon="12.5743988"><ele>32.0</ele><time>2026-04-22T10:20:45.977Z</time></trkpt><trkpt lat="45.9609106" lon="12.574308"><ele>31.999999999999996</ele><time>2026-04-22T10:20:47.978Z</time></trkpt><trkpt lat="45.9608947" lon="12.5742099"><ele>32.0</ele><time>2026-04-22T10:20:49.978Z</time></trkpt><trkpt lat="45.96088" lon="12.5741084"><ele>32.0</ele><time>2026-04-22T10:20:51.979Z</time></trkpt><trkpt lat="45.9608682" lon="12.5740074"><ele>31.999999999999996</ele><time>2026-04-22T10:20:53.979Z</time></trkpt><trkpt lat="45.9608531" lon="12.5739016"><ele>32.0</ele><time>2026-04-22T10:20:55.978Z</time></trkpt><trkpt lat="45.9608437" lon="12.5737992"><ele>32.0</ele><time>2026-04-22T10:20:57.977Z</time></trkpt><trkpt lat="45.9608352" lon="12.5737021"><ele>31.666666666666664</ele><time>2026-04-22T10:20:59.977Z</time></trkpt><trkpt lat="45.9608238" lon="12.5736111"><ele>31.333333333333332</ele><time>2026-04-22T10:21:01.977Z</time></trkpt><trkpt lat="45.96081" lon="12.5735218"><ele>31.0</ele><time>2026-04-22T10:21:03.977Z</time></trkpt><trkpt lat="45.9607957" lon="12.5733949"><ele>30.666666666666664</ele><time>2026-04-22T10:21:06.976Z</time></trkpt><trkpt lat="45.9607706" lon="12.5732745"><ele>30.333333333333332</ele><time>2026-04-22T10:21:09.977Z</time></trkpt><trkpt lat="45.9607409" lon="12.5731478"><ele>30.0</ele><time>2026-04-22T10:21:12.978Z</time></trkpt><trkpt lat="45.9607228" lon="12.5730599"><ele>30.0</ele><time>2026-04-22T10:21:14.977Z</time></trkpt><trkpt lat="45.9607089" lon="12.5729707"><ele>30.0</ele><time>2026-04-22T10:21:16.977Z</time></trkpt><trkpt lat="45.9607021" lon="12.5728492"><ele>30.0</ele><time>2026-04-22T10:21:19.978Z</time></trkpt><trkpt lat="45.960696" lon="12.5727331"><ele>30.0</ele><time>2026-04-22T10:21:22.977Z</time></trkpt><trkpt lat="45.9606874" lon="12.5726128"><ele>30.0</ele><time>2026-04-22T10:21:25.978Z</time></trkpt><trkpt lat="45.9606725" lon="12.5724922"><ele>30.0</ele><time>2026-04-22T10:21:28.977Z</time></trkpt><trkpt lat="45.9606542" lon="12.5723647"><ele>30.166666666666668</ele><time>2026-04-22T10:21:31.978Z</time></trkpt><trkpt lat="45.9606423" lon="12.5722484"><ele>30.333333333333336</ele><time>2026-04-22T10:21:34.977Z</time></trkpt><trkpt lat="45.9606712" lon="12.5721483"><ele>30.5</ele><time>2026-04-22T10:21:37.979Z</time></trkpt><trkpt lat="45.9607287" lon="12.5720832"><ele>30.666666666666668</ele><time>2026-04-22T10:21:40.976Z</time></trkpt><trkpt lat="45.960796" lon="12.5720729"><ele>30.833333333333336</ele><time>2026-04-22T10:21:43.978Z</time></trkpt><trkpt lat="45.9608723" lon="12.57211"><ele>31.0</ele><time>2026-04-22T10:21:46.979Z</time></trkpt><trkpt lat="45.9609512" lon="12.5721628"><ele>31.333333333333336</ele><time>2026-04-22T10:21:49.978Z</time></trkpt><trkpt lat="45.9610337" lon="12.5722109"><ele>31.666666666666668</ele><time>2026-04-22T10:21:52.978Z</time></trkpt><trkpt lat="45.9611162" lon="12.5722622"><ele>32.0</ele><time>2026-04-22T10:21:55.98Z</time></trkpt><trkpt lat="45.9611977" lon="12.5723056"><ele>32.333333333333336</ele><time>2026-04-22T10:21:58.98Z</time></trkpt><trkpt lat="45.9612771" lon="12.5723396"><ele>32.666666666666664</ele><time>2026-04-22T10:22:01.977Z</time></trkpt><trkpt lat="45.9613606" lon="12.5723747"><ele>33.0</ele><time>2026-04-22T10:22:04.979Z</time></trkpt><trkpt lat="45.9614462" lon="12.5724201"><ele>33.0</ele><time>2026-04-22T10:22:07.978Z</time></trkpt><trkpt lat="45.9615057" lon="12.5724517"><ele>33.0</ele><time>2026-04-22T10:22:09.977Z</time></trkpt><trkpt lat="45.9615683" lon="12.5724833"><ele>33.0</ele><time>2026-04-22T10:22:11.978Z</time></trkpt><trkpt lat="45.9616339" lon="12.5725153"><ele>33.0</ele><time>2026-04-22T10:22:13.978Z</time></trkpt><trkpt lat="45.9616924" lon="12.5725537"><ele>33.0</ele><time>2026-04-22T10:22:15.978Z</time></trkpt><trkpt lat="45.9617741" lon="12.5726015"><ele>33.0</ele><time>2026-04-22T10:22:18.977Z</time></trkpt><trkpt lat="45.9618519" lon="12.5726443"><ele>33.0</ele><time>2026-04-22T10:22:21.977Z</time></trkpt><trkpt lat="45.9619245" lon="12.5726863"><ele>33.0</ele><time>2026-04-22T10:22:24.976Z</time></trkpt><trkpt lat="45.9619984" lon="12.5727232"><ele>33.0</ele><time>2026-04-22T10:22:27.979Z</time></trkpt><trkpt lat="45.9620774" lon="12.5727522"><ele>33.0</ele><time>2026-04-22T10:22:30.983Z</time></trkpt><trkpt lat="45.9621612" lon="12.5727578"><ele>33.0</ele><time>2026-04-22T10:22:33.977Z</time></trkpt><trkpt lat="45.9622355" lon="12.5727558"><ele>33.0</ele><time>2026-04-22T10:22:36.978Z</time></trkpt><trkpt lat="45.9623225" lon="12.5727367"><ele>33.0</ele><time>2026-04-22T10:22:39.977Z</time></trkpt><trkpt lat="45.9624105" lon="12.5727293"><ele>33.0</ele><time>2026-04-22T10:22:42.983Z</time></trkpt><trkpt lat="45.9624975" lon="12.5727279"><ele>33.0</ele><time>2026-04-22T10:22:45.977Z</time></trkpt><trkpt lat="45.9625779" lon="12.5727251"><ele>33.0</ele><time>2026-04-22T10:22:48.977Z</time></trkpt><trkpt lat="45.962668" lon="12.57271"><ele>33.0</ele><time>2026-04-22T10:22:51.976Z</time></trkpt><trkpt lat="45.9627321" lon="12.5726942"><ele>33.0</ele><time>2026-04-22T10:22:53.977Z</time></trkpt><trkpt lat="45.9627978" lon="12.5726812"><ele>33.0</ele><time>2026-04-22T10:22:55.978Z</time></trkpt><trkpt lat="45.9628636" lon="12.5726669"><ele>33.0</ele><time>2026-04-22T10:22:57.978Z</time></trkpt><trkpt lat="45.9629468" lon="12.5726532"><ele>33.0</ele><time>2026-04-22T10:23:00.977Z</time></trkpt><trkpt lat="45.9630311" lon="12.5726361"><ele>33.0</ele><time>2026-04-22T10:23:03.979Z</time></trkpt><trkpt lat="45.9631193" lon="12.572612"><ele>33.0</ele><time>2026-04-22T10:23:06.977Z</time></trkpt><trkpt lat="45.9632079" lon="12.5725926"><ele>33.0</ele><time>2026-04-22T10:23:09.978Z</time></trkpt><trkpt lat="45.963298" lon="12.5725858"><ele>33.0</ele><time>2026-04-22T10:23:12.978Z</time></trkpt><trkpt lat="45.9633846" lon="12.5725822"><ele>33.0</ele><time>2026-04-22T10:23:15.977Z</time></trkpt><trkpt lat="45.9634752" lon="12.572586"><ele>33.0</ele><time>2026-04-22T10:23:18.978Z</time></trkpt><trkpt lat="45.9635597" lon="12.57261"><ele>33.0</ele><time>2026-04-22T10:23:21.985Z</time></trkpt><trkpt lat="45.9636485" lon="12.5726334"><ele>33.0</ele><time>2026-04-22T10:23:24.977Z</time></trkpt><trkpt lat="45.963741" lon="12.5726518"><ele>33.0</ele><time>2026-04-22T10:23:27.978Z</time></trkpt><trkpt lat="45.9638042" lon="12.5726581"><ele>33.0</ele><time>2026-04-22T10:23:29.978Z</time></trkpt><trkpt lat="45.9638885" lon="12.5726845"><ele>33.0</ele><time>2026-04-22T10:23:32.978Z</time></trkpt><trkpt lat="45.9639709" lon="12.5727288"><ele>33.0</ele><time>2026-04-22T10:23:35.979Z</time></trkpt><trkpt lat="45.9640558" lon="12.5727642"><ele>33.0</ele><time>2026-04-22T10:23:38.978Z</time></trkpt><trkpt lat="45.9641434" lon="12.5727989"><ele>33.0</ele><time>2026-04-22T10:23:41.978Z</time></trkpt><trkpt lat="45.9642265" lon="12.5728278"><ele>33.0</ele><time>2026-04-22T10:23:44.978Z</time></trkpt><trkpt lat="45.9643053" lon="12.5728405"><ele>33.0</ele><time>2026-04-22T10:23:47.995Z</time></trkpt><trkpt lat="45.9643799" lon="12.5728702"><ele>33.166666666666664</ele><time>2026-04-22T10:23:50.978Z</time></trkpt><trkpt lat="45.9644605" lon="12.5729073"><ele>33.333333333333336</ele><time>2026-04-22T10:23:53.978Z</time></trkpt><trkpt lat="45.9645386" lon="12.5729577"><ele>33.5</ele><time>2026-04-22T10:23:56.978Z</time></trkpt><trkpt lat="45.9646227" lon="12.5730063"><ele>33.66666666666667</ele><time>2026-04-22T10:23:59.978Z</time></trkpt><trkpt lat="45.964706" lon="12.5730448"><ele>33.833333333333336</ele><time>2026-04-22T10:24:02.978Z</time></trkpt><trkpt lat="45.964772" lon="12.5730753"><ele>34.0</ele><time>2026-04-22T10:24:04.977Z</time></trkpt><trkpt lat="45.9648364" lon="12.5731118"><ele>34.0</ele><time>2026-04-22T10:24:06.978Z</time></trkpt><trkpt lat="45.9649037" lon="12.5731432"><ele>34.0</ele><time>2026-04-22T10:24:08.977Z</time></trkpt><trkpt lat="45.9649699" lon="12.5731717"><ele>34.0</ele><time>2026-04-22T10:24:10.977Z</time></trkpt><trkpt lat="45.9650317" lon="12.573203"><ele>34.0</ele><time>2026-04-22T10:24:12.976Z</time></trkpt><trkpt lat="45.9651189" lon="12.5732472"><ele>34.0</ele><time>2026-04-22T10:24:15.981Z</time></trkpt><trkpt lat="45.9652027" lon="12.5732878"><ele>34.0</ele><time>2026-04-22T10:24:18.977Z</time></trkpt><trkpt lat="45.9652852" lon="12.5733099"><ele>34.0</ele><time>2026-04-22T10:24:21.977Z</time></trkpt><trkpt lat="45.9653641" lon="12.5732845"><ele>34.0</ele><time>2026-04-22T10:24:24.976Z</time></trkpt><trkpt lat="45.9654259" lon="12.573202"><ele>34.0</ele><time>2026-04-22T10:24:27.985Z</time></trkpt><trkpt lat="45.965448" lon="12.5730811"><ele>34.0</ele><time>2026-04-22T10:24:30.978Z</time></trkpt><trkpt lat="45.9654376" lon="12.5729664"><ele>34.0</ele><time>2026-04-22T10:24:33.978Z</time></trkpt><trkpt lat="45.9654148" lon="12.5728533"><ele>34.0</ele><time>2026-04-22T10:24:36.977Z</time></trkpt><trkpt lat="45.9654016" lon="12.5727293"><ele>34.0</ele><time>2026-04-22T10:24:39.978Z</time></trkpt><trkpt lat="45.9653959" lon="12.5726033"><ele>34.0</ele><time>2026-04-22T10:24:42.977Z</time></trkpt><trkpt lat="45.9653958" lon="12.5725083"><ele>34.0</ele><time>2026-04-22T10:24:44.977Z</time></trkpt><trkpt lat="45.9654034" lon="12.572374"><ele>34.0</ele><time>2026-04-22T10:24:47.977Z</time></trkpt><trkpt lat="45.9654086" lon="12.5722444"><ele>34.0</ele><time>2026-04-22T10:24:50.977Z</time></trkpt><trkpt lat="45.9654072" lon="12.5721435"><ele>34.0</ele><time>2026-04-22T10:24:52.977Z</time></trkpt><trkpt lat="45.965406" lon="12.5720387"><ele>34.0</ele><time>2026-04-22T10:24:54.977Z</time></trkpt><trkpt lat="45.9654078" lon="12.5719431"><ele>34.0</ele><time>2026-04-22T10:24:56.977Z</time></trkpt><trkpt lat="45.9654125" lon="12.5718165"><ele>34.0</ele><time>2026-04-22T10:24:59.977Z</time></trkpt><trkpt lat="45.9654255" lon="12.5716998"><ele>34.0</ele><time>2026-04-22T10:25:02.977Z</time></trkpt><trkpt lat="45.9654379" lon="12.571569"><ele>34.0</ele><time>2026-04-22T10:25:05.977Z</time></trkpt><trkpt lat="45.9654464" lon="12.5714772"><ele>34.0</ele><time>2026-04-22T10:25:07.977Z</time></trkpt><trkpt lat="45.9654479" lon="12.5713855"><ele>34.0</ele><time>2026-04-22T10:25:09.977Z</time></trkpt><trkpt lat="45.9654454" lon="12.5712552"><ele>34.0</ele><time>2026-04-22T10:25:12.979Z</time></trkpt><trkpt lat="45.9654382" lon="12.5711349"><ele>34.0</ele><time>2026-04-22T10:25:15.977Z</time></trkpt><trkpt lat="45.9654331" lon="12.5710105"><ele>34.0</ele><time>2026-04-22T10:25:18.976Z</time></trkpt><trkpt lat="45.965416" lon="12.5708905"><ele>34.0</ele><time>2026-04-22T10:25:21.98Z</time></trkpt><trkpt lat="45.9653798" lon="12.5707739"><ele>34.0</ele><time>2026-04-22T10:25:24.977Z</time></trkpt><trkpt lat="45.9653304" lon="12.5706729"><ele>34.0</ele><time>2026-04-22T10:25:27.979Z</time></trkpt><trkpt lat="45.965278" lon="12.5705727"><ele>34.0</ele><time>2026-04-22T10:25:30.977Z</time></trkpt><trkpt lat="45.9652196" lon="12.5704699"><ele>34.0</ele><time>2026-04-22T10:25:33.979Z</time></trkpt><trkpt lat="45.965169" lon="12.5703678"><ele>34.0</ele><time>2026-04-22T10:25:36.976Z</time></trkpt><trkpt lat="45.9651287" lon="12.5702663"><ele>34.0</ele><time>2026-04-22T10:25:39.977Z</time></trkpt><trkpt lat="45.9650848" lon="12.5701664"><ele>34.0</ele><time>2026-04-22T10:25:42.978Z</time></trkpt><trkpt lat="45.965033" lon="12.570068"><ele>33.833333333333336</ele><time>2026-04-22T10:25:45.977Z</time></trkpt><trkpt lat="45.9649801" lon="12.5699733"><ele>33.66666666666667</ele><time>2026-04-22T10:25:48.98Z</time></trkpt><trkpt lat="45.9649276" lon="12.5698751"><ele>33.5</ele><time>2026-04-22T10:25:51.977Z</time></trkpt><trkpt lat="45.964877" lon="12.5697719"><ele>33.333333333333336</ele><time>2026-04-22T10:25:54.978Z</time></trkpt><trkpt lat="45.964827" lon="12.5696746"><ele>33.166666666666664</ele><time>2026-04-22T10:25:57.977Z</time></trkpt><trkpt lat="45.9647718" lon="12.5695752"><ele>33.0</ele><time>2026-04-22T10:26:00.977Z</time></trkpt><trkpt lat="45.9647201" lon="12.5694728"><ele>33.0</ele><time>2026-04-22T10:26:03.978Z</time></trkpt><trkpt lat="45.9646683" lon="12.5693629"><ele>33.0</ele><time>2026-04-22T10:26:06.978Z</time></trkpt><trkpt lat="45.9646142" lon="12.5692582"><ele>33.0</ele><time>2026-04-22T10:26:09.977Z</time></trkpt><trkpt lat="45.9645684" lon="12.5691463"><ele>33.0</ele><time>2026-04-22T10:26:12.977Z</time></trkpt><trkpt lat="45.9645207" lon="12.5690394"><ele>33.0</ele><time>2026-04-22T10:26:15.976Z</time></trkpt><trkpt lat="45.964474" lon="12.5689313"><ele>33.0</ele><time>2026-04-22T10:26:18.976Z</time></trkpt><trkpt lat="45.9644265" lon="12.568827"><ele>33.0</ele><time>2026-04-22T10:26:21.978Z</time></trkpt><trkpt lat="45.9643744" lon="12.5687167"><ele>33.0</ele><time>2026-04-22T10:26:24.977Z</time></trkpt><trkpt lat="45.9643205" lon="12.568609"><ele>33.0</ele><time>2026-04-22T10:26:27.977Z</time></trkpt><trkpt lat="45.9642804" lon="12.5685341"><ele>33.0</ele><time>2026-04-22T10:26:29.977Z</time></trkpt><trkpt lat="45.9642277" lon="12.5684273"><ele>33.0</ele><time>2026-04-22T10:26:32.976Z</time></trkpt><trkpt lat="45.9641775" lon="12.5683169"><ele>33.5</ele><time>2026-04-22T10:26:35.978Z</time></trkpt><trkpt lat="45.9641274" lon="12.5682141"><ele>34.0</ele><time>2026-04-22T10:26:38.977Z</time></trkpt><trkpt lat="45.9640756" lon="12.5681137"><ele>34.5</ele><time>2026-04-22T10:26:41.977Z</time></trkpt><trkpt lat="45.9640188" lon="12.5680199"><ele>35.0</ele><time>2026-04-22T10:26:44.977Z</time></trkpt><trkpt lat="45.9639653" lon="12.5679153"><ele>35.5</ele><time>2026-04-22T10:26:47.978Z</time></trkpt><trkpt lat="45.9639138" lon="12.5678107"><ele>36.0</ele><time>2026-04-22T10:26:50.978Z</time></trkpt><trkpt lat="45.9638681" lon="12.5677052"><ele>36.0</ele><time>2026-04-22T10:26:53.978Z</time></trkpt><trkpt lat="45.9638234" lon="12.5675952"><ele>36.0</ele><time>2026-04-22T10:26:56.978Z</time></trkpt><trkpt lat="45.9637714" lon="12.5674888"><ele>36.0</ele><time>2026-04-22T10:26:59.978Z</time></trkpt><trkpt lat="45.9637188" lon="12.567382"><ele>36.0</ele><time>2026-04-22T10:27:02.978Z</time></trkpt><trkpt lat="45.9636782" lon="12.5672748"><ele>36.0</ele><time>2026-04-22T10:27:05.978Z</time></trkpt><trkpt lat="45.9636315" lon="12.5671691"><ele>36.0</ele><time>2026-04-22T10:27:08.976Z</time></trkpt><trkpt lat="45.9635805" lon="12.5670741"><ele>35.666666666666664</ele><time>2026-04-22T10:27:11.98Z</time></trkpt><trkpt lat="45.963532" lon="12.5669934"><ele>35.333333333333336</ele><time>2026-04-22T10:27:14.977Z</time></trkpt><trkpt lat="45.9634811" lon="12.5669125"><ele>35.0</ele><time>2026-04-22T10:27:17.978Z</time></trkpt><trkpt lat="45.9634319" lon="12.5668164"><ele>34.66666666666667</ele><time>2026-04-22T10:27:20.977Z</time></trkpt><trkpt lat="45.9633764" lon="12.5667152"><ele>34.333333333333336</ele><time>2026-04-22T10:27:23.977Z</time></trkpt><trkpt lat="45.9633222" lon="12.5666124"><ele>34.0</ele><time>2026-04-22T10:27:26.978Z</time></trkpt><trkpt lat="45.9632896" lon="12.5665311"><ele>34.0</ele><time>2026-04-22T10:27:28.977Z</time></trkpt><trkpt lat="45.9632481" lon="12.5664131"><ele>34.0</ele><time>2026-04-22T10:27:31.978Z</time></trkpt><trkpt lat="45.9632052" lon="12.5663056"><ele>34.0</ele><time>2026-04-22T10:27:34.978Z</time></trkpt><trkpt lat="45.9631593" lon="12.5662027"><ele>34.0</ele><time>2026-04-22T10:27:37.978Z</time></trkpt><trkpt lat="45.9631086" lon="12.5661"><ele>34.0</ele><time>2026-04-22T10:27:40.98Z</time></trkpt><trkpt lat="45.9630536" lon="12.5659964"><ele>34.0</ele><time>2026-04-22T10:27:43.979Z</time></trkpt><trkpt lat="45.9629974" lon="12.56589"><ele>34.0</ele><time>2026-04-22T10:27:46.979Z</time></trkpt><trkpt lat="45.9629545" lon="12.565784"><ele>34.0</ele><time>2026-04-22T10:27:49.982Z</time></trkpt><trkpt lat="45.9629027" lon="12.5656846"><ele>34.0</ele><time>2026-04-22T10:27:52.977Z</time></trkpt><trkpt lat="45.9628478" lon="12.5655854"><ele>34.0</ele><time>2026-04-22T10:27:55.978Z</time></trkpt><trkpt lat="45.9628038" lon="12.5654818"><ele>34.0</ele><time>2026-04-22T10:27:58.978Z</time></trkpt><trkpt lat="45.9627523" lon="12.5653768"><ele>34.0</ele><time>2026-04-22T10:28:01.979Z</time></trkpt><trkpt lat="45.9626984" lon="12.5652716"><ele>33.66666666666667</ele><time>2026-04-22T10:28:04.978Z</time></trkpt><trkpt lat="45.9626415" lon="12.5651703"><ele>33.333333333333336</ele><time>2026-04-22T10:28:07.978Z</time></trkpt><trkpt lat="45.9626033" lon="12.5650974"><ele>33.0</ele><time>2026-04-22T10:28:09.977Z</time></trkpt><trkpt lat="45.9625469" lon="12.5649919"><ele>32.666666666666664</ele><time>2026-04-22T10:28:12.976Z</time></trkpt><trkpt lat="45.9624968" lon="12.5648926"><ele>32.33333333333333</ele><time>2026-04-22T10:28:15.978Z</time></trkpt><trkpt lat="45.9624539" lon="12.5647876"><ele>32.0</ele><time>2026-04-22T10:28:18.977Z</time></trkpt><trkpt lat="45.9624036" lon="12.5646892"><ele>32.166666666666664</ele><time>2026-04-22T10:28:21.977Z</time></trkpt><trkpt lat="45.9623472" lon="12.564589"><ele>32.33333333333333</ele><time>2026-04-22T10:28:24.978Z</time></trkpt><trkpt lat="45.9623001" lon="12.5644877"><ele>32.5</ele><time>2026-04-22T10:28:27.977Z</time></trkpt><trkpt lat="45.9622518" lon="12.5643863"><ele>32.666666666666664</ele><time>2026-04-22T10:28:30.977Z</time></trkpt><trkpt lat="45.9621983" lon="12.5642835"><ele>32.833333333333336</ele><time>2026-04-22T10:28:33.977Z</time></trkpt><trkpt lat="45.9621509" lon="12.5641767"><ele>33.0</ele><time>2026-04-22T10:28:36.977Z</time></trkpt><trkpt lat="45.9621055" lon="12.5640747"><ele>33.0</ele><time>2026-04-22T10:28:39.976Z</time></trkpt><trkpt lat="45.9620552" lon="12.5639765"><ele>33.0</ele><time>2026-04-22T10:28:42.977Z</time></trkpt><trkpt lat="45.9619983" lon="12.5638699"><ele>33.0</ele><time>2026-04-22T10:28:45.977Z</time></trkpt><trkpt lat="45.9619606" lon="12.5637946"><ele>33.0</ele><time>2026-04-22T10:28:47.977Z</time></trkpt><trkpt lat="45.9619139" lon="12.563682"><ele>33.0</ele><time>2026-04-22T10:28:50.976Z</time></trkpt><trkpt lat="45.9618637" lon="12.5635738"><ele>33.0</ele><time>2026-04-22T10:28:53.977Z</time></trkpt><trkpt lat="45.961811" lon="12.563473"><ele>33.166666666666664</ele><time>2026-04-22T10:28:56.977Z</time></trkpt><trkpt lat="45.9617665" lon="12.5633675"><ele>33.333333333333336</ele><time>2026-04-22T10:28:59.976Z</time></trkpt><trkpt lat="45.9617141" lon="12.5632628"><ele>33.5</ele><time>2026-04-22T10:29:02.976Z</time></trkpt><trkpt lat="45.9616617" lon="12.5631565"><ele>33.66666666666667</ele><time>2026-04-22T10:29:05.981Z</time></trkpt><trkpt lat="45.9616086" lon="12.5630517"><ele>33.833333333333336</ele><time>2026-04-22T10:29:08.977Z</time></trkpt><trkpt lat="45.9615592" lon="12.5629496"><ele>34.0</ele><time>2026-04-22T10:29:11.977Z</time></trkpt><trkpt lat="45.9615067" lon="12.5628558"><ele>33.333333333333336</ele><time>2026-04-22T10:29:14.976Z</time></trkpt><trkpt lat="45.9614511" lon="12.5627536"><ele>32.66666666666667</ele><time>2026-04-22T10:29:17.98Z</time></trkpt><trkpt lat="45.9613958" lon="12.5626476"><ele>32.0</ele><time>2026-04-22T10:29:20.977Z</time></trkpt><trkpt lat="45.961339" lon="12.5625478"><ele>31.333333333333336</ele><time>2026-04-22T10:29:23.978Z</time></trkpt><trkpt lat="45.9612902" lon="12.5624484"><ele>30.666666666666668</ele><time>2026-04-22T10:29:26.976Z</time></trkpt><trkpt lat="45.9612388" lon="12.5623469"><ele>30.0</ele><time>2026-04-22T10:29:29.976Z</time></trkpt><trkpt lat="45.9611811" lon="12.5622393"><ele>30.0</ele><time>2026-04-22T10:29:32.977Z</time></trkpt><trkpt lat="45.9611331" lon="12.5621284"><ele>30.0</ele><time>2026-04-22T10:29:35.976Z</time></trkpt><trkpt lat="45.9610857" lon="12.5620259"><ele>30.0</ele><time>2026-04-22T10:29:38.977Z</time></trkpt><trkpt lat="45.9610285" lon="12.5619288"><ele>30.0</ele><time>2026-04-22T10:29:41.977Z</time></trkpt><trkpt lat="45.9609671" lon="12.5618281"><ele>30.0</ele><time>2026-04-22T10:29:44.977Z</time></trkpt><trkpt lat="45.9609151" lon="12.5617201"><ele>30.0</ele><time>2026-04-22T10:29:47.977Z</time></trkpt><trkpt lat="45.9608625" lon="12.5616218"><ele>30.0</ele><time>2026-04-22T10:29:50.977Z</time></trkpt><trkpt lat="45.9608132" lon="12.5615187"><ele>30.0</ele><time>2026-04-22T10:29:53.978Z</time></trkpt><trkpt lat="45.9607592" lon="12.5614056"><ele>30.0</ele><time>2026-04-22T10:29:56.979Z</time></trkpt><trkpt lat="45.9607203" lon="12.5613296"><ele>30.0</ele><time>2026-04-22T10:29:58.976Z</time></trkpt><trkpt lat="45.9606827" lon="12.5612535"><ele>30.0</ele><time>2026-04-22T10:30:00.976Z</time></trkpt><trkpt lat="45.9606332" lon="12.5611484"><ele>30.0</ele><time>2026-04-22T10:30:03.979Z</time></trkpt><trkpt lat="45.9605866" lon="12.5610494"><ele>30.166666666666668</ele><time>2026-04-22T10:30:06.976Z</time></trkpt><trkpt lat="45.9605367" lon="12.5609503"><ele>30.333333333333336</ele><time>2026-04-22T10:30:09.978Z</time></trkpt><trkpt lat="45.9604873" lon="12.5608447"><ele>30.5</ele><time>2026-04-22T10:30:12.978Z</time></trkpt><trkpt lat="45.9604343" lon="12.5607382"><ele>30.666666666666668</ele><time>2026-04-22T10:30:15.978Z</time></trkpt><trkpt lat="45.9603832" lon="12.5606348"><ele>30.833333333333336</ele><time>2026-04-22T10:30:18.979Z</time></trkpt><trkpt lat="45.9603407" lon="12.5605251"><ele>31.0</ele><time>2026-04-22T10:30:21.976Z</time></trkpt><trkpt lat="45.9602931" lon="12.5604198"><ele>31.166666666666668</ele><time>2026-04-22T10:30:24.977Z</time></trkpt><trkpt lat="45.9602439" lon="12.5603223"><ele>31.333333333333336</ele><time>2026-04-22T10:30:27.978Z</time></trkpt><trkpt lat="45.9601983" lon="12.5602245"><ele>31.5</ele><time>2026-04-22T10:30:30.979Z</time></trkpt><trkpt lat="45.9601469" lon="12.5601215"><ele>31.666666666666664</ele><time>2026-04-22T10:30:33.978Z</time></trkpt><trkpt lat="45.9600986" lon="12.5600119"><ele>31.833333333333332</ele><time>2026-04-22T10:30:36.977Z</time></trkpt><trkpt lat="45.9600456" lon="12.5599051"><ele>32.0</ele><time>2026-04-22T10:30:39.976Z</time></trkpt><trkpt lat="45.9599905" lon="12.559794"><ele>31.833333333333332</ele><time>2026-04-22T10:30:42.978Z</time></trkpt><trkpt lat="45.9599512" lon="12.5597185"><ele>31.666666666666664</ele><time>2026-04-22T10:30:44.978Z</time></trkpt><trkpt lat="45.9599006" lon="12.5596159"><ele>31.5</ele><time>2026-04-22T10:30:47.978Z</time></trkpt><trkpt lat="45.9598485" lon="12.5595325"><ele>31.333333333333336</ele><time>2026-04-22T10:30:50.977Z</time></trkpt><trkpt lat="45.9598021" lon="12.5594341"><ele>31.166666666666668</ele><time>2026-04-22T10:30:54.978Z</time></trkpt><trkpt lat="45.9597657" lon="12.5593454"><ele>31.0</ele><time>2026-04-22T10:30:57.977Z</time></trkpt><trkpt lat="45.9597207" lon="12.55924"><ele>31.000000000000004</ele><time>2026-04-22T10:31:00.978Z</time></trkpt><trkpt lat="45.9596687" lon="12.5591398"><ele>31.0</ele><time>2026-04-22T10:31:03.977Z</time></trkpt><trkpt lat="45.9596225" lon="12.5590375"><ele>31.0</ele><time>2026-04-22T10:31:06.979Z</time></trkpt><trkpt lat="45.9595902" lon="12.558932"><ele>31.0</ele><time>2026-04-22T10:31:09.978Z</time></trkpt><trkpt lat="45.9595474" lon="12.5588302"><ele>31.000000000000004</ele><time>2026-04-22T10:31:12.978Z</time></trkpt><trkpt lat="45.9595065" lon="12.5587222"><ele>31.0</ele><time>2026-04-22T10:31:15.978Z</time></trkpt><trkpt lat="45.9594595" lon="12.5586193"><ele>30.833333333333336</ele><time>2026-04-22T10:31:18.979Z</time></trkpt><trkpt lat="45.9594129" lon="12.5585232"><ele>30.666666666666668</ele><time>2026-04-22T10:31:21.981Z</time></trkpt><trkpt lat="45.9593749" lon="12.5584217"><ele>30.5</ele><time>2026-04-22T10:31:24.978Z</time></trkpt><trkpt lat="45.9593269" lon="12.5583335"><ele>30.333333333333336</ele><time>2026-04-22T10:31:27.978Z</time></trkpt><trkpt lat="45.9592749" lon="12.5582455"><ele>30.166666666666668</ele><time>2026-04-22T10:31:30.977Z</time></trkpt><trkpt lat="45.9592268" lon="12.5581502"><ele>30.0</ele><time>2026-04-22T10:31:33.978Z</time></trkpt><trkpt lat="45.9591792" lon="12.5580419"><ele>29.833333333333332</ele><time>2026-04-22T10:31:36.978Z</time></trkpt><trkpt lat="45.9591375" lon="12.5579334"><ele>29.666666666666664</ele><time>2026-04-22T10:31:39.977Z</time></trkpt><trkpt lat="45.9590845" lon="12.5578347"><ele>29.5</ele><time>2026-04-22T10:31:42.976Z</time></trkpt><trkpt lat="45.9590271" lon="12.5577343"><ele>29.333333333333332</ele><time>2026-04-22T10:31:45.976Z</time></trkpt><trkpt lat="45.9589731" lon="12.5576376"><ele>29.166666666666664</ele><time>2026-04-22T10:31:48.977Z</time></trkpt><trkpt lat="45.9589164" lon="12.5575425"><ele>29.0</ele><time>2026-04-22T10:31:51.977Z</time></trkpt><trkpt lat="45.9588651" lon="12.5574371"><ele>28.833333333333332</ele><time>2026-04-22T10:31:54.977Z</time></trkpt><trkpt lat="45.9588236" lon="12.5573279"><ele>28.666666666666664</ele><time>2026-04-22T10:31:57.977Z</time></trkpt><trkpt lat="45.9587751" lon="12.5572178"><ele>28.5</ele><time>2026-04-22T10:32:00.977Z</time></trkpt><trkpt lat="45.9587262" lon="12.5571085"><ele>28.333333333333336</ele><time>2026-04-22T10:32:03.977Z</time></trkpt><trkpt lat="45.9586759" lon="12.5570015"><ele>28.166666666666668</ele><time>2026-04-22T10:32:06.979Z</time></trkpt><trkpt lat="45.9586267" lon="12.5568906"><ele>28.0</ele><time>2026-04-22T10:32:09.977Z</time></trkpt><trkpt lat="45.9585821" lon="12.5567788"><ele>28.000000000000004</ele><time>2026-04-22T10:32:12.978Z</time></trkpt><trkpt lat="45.9585334" lon="12.5566683"><ele>28.0</ele><time>2026-04-22T10:32:15.978Z</time></trkpt><trkpt lat="45.958483" lon="12.5565597"><ele>28.0</ele><time>2026-04-22T10:32:18.977Z</time></trkpt><trkpt lat="45.9584298" lon="12.5564545"><ele>28.0</ele><time>2026-04-22T10:32:21.976Z</time></trkpt><trkpt lat="45.9583797" lon="12.5563492"><ele>28.000000000000004</ele><time>2026-04-22T10:32:24.981Z</time></trkpt><trkpt lat="45.9583364" lon="12.5562477"><ele>28.0</ele><time>2026-04-22T10:32:27.977Z</time></trkpt><trkpt lat="45.9582944" lon="12.5561439"><ele>27.833333333333336</ele><time>2026-04-22T10:32:30.978Z</time></trkpt><trkpt lat="45.9582491" lon="12.5560415"><ele>27.666666666666668</ele><time>2026-04-22T10:32:33.977Z</time></trkpt><trkpt lat="45.9582087" lon="12.5559315"><ele>27.5</ele><time>2026-04-22T10:32:36.978Z</time></trkpt><trkpt lat="45.9581671" lon="12.5558117"><ele>27.333333333333336</ele><time>2026-04-22T10:32:39.977Z</time></trkpt><trkpt lat="45.9581269" lon="12.5556997"><ele>27.166666666666668</ele><time>2026-04-22T10:32:42.977Z</time></trkpt><trkpt lat="45.9580891" lon="12.5555877"><ele>27.0</ele><time>2026-04-22T10:32:45.977Z</time></trkpt><trkpt lat="45.9580598" lon="12.5554827"><ele>27.0</ele><time>2026-04-22T10:32:48.977Z</time></trkpt><trkpt lat="45.9580255" lon="12.5553795"><ele>27.0</ele><time>2026-04-22T10:32:51.978Z</time></trkpt><trkpt lat="45.9579887" lon="12.5552735"><ele>27.0</ele><time>2026-04-22T10:32:54.977Z</time></trkpt><trkpt lat="45.9579429" lon="12.5551621"><ele>27.0</ele><time>2026-04-22T10:32:57.98Z</time></trkpt><trkpt lat="45.9579079" lon="12.5550557"><ele>27.0</ele><time>2026-04-22T10:33:00.977Z</time></trkpt><trkpt lat="45.957865" lon="12.5549497"><ele>27.0</ele><time>2026-04-22T10:33:03.982Z</time></trkpt><trkpt lat="45.9578221" lon="12.5548392"><ele>26.666666666666668</ele><time>2026-04-22T10:33:06.977Z</time></trkpt><trkpt lat="45.9577833" lon="12.5547237"><ele>26.333333333333336</ele><time>2026-04-22T10:33:09.977Z</time></trkpt><trkpt lat="45.9577601" lon="12.5546394"><ele>26.0</ele><time>2026-04-22T10:33:11.977Z</time></trkpt><trkpt lat="45.9577262" lon="12.5545318"><ele>25.666666666666668</ele><time>2026-04-22T10:33:14.977Z</time></trkpt><trkpt lat="45.9576898" lon="12.5544331"><ele>25.333333333333336</ele><time>2026-04-22T10:33:17.977Z</time></trkpt><trkpt lat="45.957644" lon="12.5543302"><ele>25.0</ele><time>2026-04-22T10:33:20.978Z</time></trkpt><trkpt lat="45.9576064" lon="12.5542135"><ele>25.000000000000004</ele><time>2026-04-22T10:33:23.977Z</time></trkpt><trkpt lat="45.9575736" lon="12.5540938"><ele>25.0</ele><time>2026-04-22T10:33:26.977Z</time></trkpt><trkpt lat="45.9575382" lon="12.5539765"><ele>25.0</ele><time>2026-04-22T10:33:29.979Z</time></trkpt><trkpt lat="45.9574954" lon="12.5538675"><ele>25.0</ele><time>2026-04-22T10:33:32.977Z</time></trkpt><trkpt lat="45.9574547" lon="12.5537507"><ele>25.000000000000004</ele><time>2026-04-22T10:33:35.978Z</time></trkpt><trkpt lat="45.9574144" lon="12.5536301"><ele>25.0</ele><time>2026-04-22T10:33:38.977Z</time></trkpt><trkpt lat="45.9573759" lon="12.5535094"><ele>25.500000000000004</ele><time>2026-04-22T10:33:41.977Z</time></trkpt><trkpt lat="45.9573473" lon="12.5534262"><ele>26.0</ele><time>2026-04-22T10:33:43.977Z</time></trkpt><trkpt lat="45.9573083" lon="12.553307"><ele>26.5</ele><time>2026-04-22T10:33:46.977Z</time></trkpt><trkpt lat="45.9572734" lon="12.5531923"><ele>27.0</ele><time>2026-04-22T10:33:49.98Z</time></trkpt><trkpt lat="45.9572378" lon="12.5530852"><ele>27.500000000000004</ele><time>2026-04-22T10:33:52.977Z</time></trkpt><trkpt lat="45.9571925" lon="12.5529862"><ele>28.0</ele><time>2026-04-22T10:33:55.979Z</time></trkpt><trkpt lat="45.9571457" lon="12.552875"><ele>28.000000000000004</ele><time>2026-04-22T10:33:58.977Z</time></trkpt><trkpt lat="45.9571044" lon="12.5527554"><ele>28.0</ele><time>2026-04-22T10:34:01.978Z</time></trkpt><trkpt lat="45.9570732" lon="12.5526373"><ele>28.0</ele><time>2026-04-22T10:34:04.977Z</time></trkpt><trkpt lat="45.9570372" lon="12.5525145"><ele>28.0</ele><time>2026-04-22T10:34:07.977Z</time></trkpt><trkpt lat="45.9570156" lon="12.552428"><ele>28.000000000000004</ele><time>2026-04-22T10:34:09.981Z</time></trkpt><trkpt lat="45.9569917" lon="12.5523147"><ele>28.0</ele><time>2026-04-22T10:34:12.978Z</time></trkpt><trkpt lat="45.9569634" lon="12.5522092"><ele>28.000000000000004</ele><time>2026-04-22T10:34:15.977Z</time></trkpt><trkpt lat="45.9569341" lon="12.5520931"><ele>28.0</ele><time>2026-04-22T10:34:18.979Z</time></trkpt><trkpt lat="45.9568978" lon="12.5519749"><ele>28.0</ele><time>2026-04-22T10:34:21.977Z</time></trkpt><trkpt lat="45.956867" lon="12.5518526"><ele>28.0</ele><time>2026-04-22T10:34:24.978Z</time></trkpt><trkpt lat="45.9568485" lon="12.5517627"><ele>28.000000000000004</ele><time>2026-04-22T10:34:26.978Z</time></trkpt><trkpt lat="45.956822" lon="12.5516667"><ele>28.0</ele><time>2026-04-22T10:34:28.977Z</time></trkpt><trkpt lat="45.9567918" lon="12.5515742"><ele>27.833333333333336</ele><time>2026-04-22T10:34:30.978Z</time></trkpt><trkpt lat="45.9567643" lon="12.551488"><ele>27.666666666666668</ele><time>2026-04-22T10:34:32.978Z</time></trkpt><trkpt lat="45.9567299" lon="12.5513639"><ele>27.5</ele><time>2026-04-22T10:34:35.978Z</time></trkpt><trkpt lat="45.9566926" lon="12.5512474"><ele>27.333333333333336</ele><time>2026-04-22T10:34:38.976Z</time></trkpt><trkpt lat="45.9566699" lon="12.5511498"><ele>27.166666666666668</ele><time>2026-04-22T10:34:41.978Z</time></trkpt><trkpt lat="45.9566629" lon="12.5510593"><ele>27.0</ele><time>2026-04-22T10:34:44.977Z</time></trkpt><trkpt lat="45.9566517" lon="12.5509645"><ele>27.0</ele><time>2026-04-22T10:34:47.978Z</time></trkpt><trkpt lat="45.9566387" lon="12.5508619"><ele>27.0</ele><time>2026-04-22T10:34:50.977Z</time></trkpt><trkpt lat="45.9566051" lon="12.5507432"><ele>27.0</ele><time>2026-04-22T10:34:53.977Z</time></trkpt><trkpt lat="45.9565743" lon="12.5506163"><ele>27.0</ele><time>2026-04-22T10:34:56.976Z</time></trkpt><trkpt lat="45.9565588" lon="12.5505277"><ele>27.0</ele><time>2026-04-22T10:34:58.979Z</time></trkpt><trkpt lat="45.9565339" lon="12.5503978"><ele>27.0</ele><time>2026-04-22T10:35:01.978Z</time></trkpt><trkpt lat="45.9565116" lon="12.5503107"><ele>27.0</ele><time>2026-04-22T10:35:03.99Z</time></trkpt><trkpt lat="45.9564861" lon="12.550227"><ele>27.0</ele><time>2026-04-22T10:35:05.978Z</time></trkpt><trkpt lat="45.9564492" lon="12.5501083"><ele>27.0</ele><time>2026-04-22T10:35:08.978Z</time></trkpt><trkpt lat="45.9564167" lon="12.5499804"><ele>27.0</ele><time>2026-04-22T10:35:11.979Z</time></trkpt><trkpt lat="45.9563935" lon="12.5498933"><ele>27.0</ele><time>2026-04-22T10:35:13.978Z</time></trkpt><trkpt lat="45.9563652" lon="12.5497699"><ele>27.0</ele><time>2026-04-22T10:35:16.977Z</time></trkpt><trkpt lat="45.9563408" lon="12.5496535"><ele>27.166666666666668</ele><time>2026-04-22T10:35:19.978Z</time></trkpt><trkpt lat="45.9563169" lon="12.5495399"><ele>27.333333333333336</ele><time>2026-04-22T10:35:22.978Z</time></trkpt><trkpt lat="45.9562911" lon="12.5494385"><ele>27.5</ele><time>2026-04-22T10:35:25.981Z</time></trkpt><trkpt lat="45.9562671" lon="12.5493449"><ele>27.666666666666668</ele><time>2026-04-22T10:35:28.978Z</time></trkpt><trkpt lat="45.9562405" lon="12.5492466"><ele>27.833333333333336</ele><time>2026-04-22T10:35:31.984Z</time></trkpt><trkpt lat="45.9562198" lon="12.5491369"><ele>28.0</ele><time>2026-04-22T10:35:34.985Z</time></trkpt><trkpt lat="45.9562114" lon="12.549033"><ele>28.000000000000004</ele><time>2026-04-22T10:35:37.978Z</time></trkpt><trkpt lat="45.9561723" lon="12.5489312"><ele>28.0</ele><time>2026-04-22T10:35:40.979Z</time></trkpt><trkpt lat="45.9561361" lon="12.5488282"><ele>28.0</ele><time>2026-04-22T10:35:43.978Z</time></trkpt><trkpt lat="45.9561155" lon="12.5487149"><ele>28.0</ele><time>2026-04-22T10:35:46.979Z</time></trkpt><trkpt lat="45.9560874" lon="12.5485881"><ele>28.000000000000004</ele><time>2026-04-22T10:35:49.978Z</time></trkpt><trkpt lat="45.95608" lon="12.5484636"><ele>28.0</ele><time>2026-04-22T10:35:52.977Z</time></trkpt><trkpt lat="45.9560742" lon="12.5483492"><ele>27.833333333333336</ele><time>2026-04-22T10:35:55.978Z</time></trkpt><trkpt lat="45.9560526" lon="12.5482452"><ele>27.666666666666668</ele><time>2026-04-22T10:35:58.977Z</time></trkpt><trkpt lat="45.9560258" lon="12.5481423"><ele>27.5</ele><time>2026-04-22T10:36:01.979Z</time></trkpt><trkpt lat="45.9559991" lon="12.5480322"><ele>27.333333333333336</ele><time>2026-04-22T10:36:04.978Z</time></trkpt><trkpt lat="45.9559834" lon="12.5479235"><ele>27.166666666666668</ele><time>2026-04-22T10:36:07.978Z</time></trkpt><trkpt lat="45.9559728" lon="12.5478285"><ele>27.0</ele><time>2026-04-22T10:36:10.979Z</time></trkpt><trkpt lat="45.9559574" lon="12.5477177"><ele>27.0</ele><time>2026-04-22T10:36:13.982Z</time></trkpt><trkpt lat="45.9559329" lon="12.5476006"><ele>27.0</ele><time>2026-04-22T10:36:16.976Z</time></trkpt><trkpt lat="45.9558985" lon="12.5474795"><ele>27.0</ele><time>2026-04-22T10:36:19.978Z</time></trkpt><trkpt lat="45.9558797" lon="12.5473693"><ele>27.0</ele><time>2026-04-22T10:36:22.978Z</time></trkpt><trkpt lat="45.9558722" lon="12.5472694"><ele>27.0</ele><time>2026-04-22T10:36:25.978Z</time></trkpt><trkpt lat="45.9558581" lon="12.5471709"><ele>27.0</ele><time>2026-04-22T10:36:28.978Z</time></trkpt><trkpt lat="45.9558458" lon="12.5470553"><ele>26.833333333333332</ele><time>2026-04-22T10:36:31.978Z</time></trkpt><trkpt lat="45.9558272" lon="12.5469312"><ele>26.666666666666664</ele><time>2026-04-22T10:36:34.977Z</time></trkpt><trkpt lat="45.9558076" lon="12.5468101"><ele>26.5</ele><time>2026-04-22T10:36:37.979Z</time></trkpt><trkpt lat="45.955789" lon="12.5466889"><ele>26.333333333333332</ele><time>2026-04-22T10:36:40.98Z</time></trkpt><trkpt lat="45.955768" lon="12.5465699"><ele>26.166666666666664</ele><time>2026-04-22T10:36:43.977Z</time></trkpt><trkpt lat="45.9557436" lon="12.5464475"><ele>26.0</ele><time>2026-04-22T10:36:46.976Z</time></trkpt><trkpt lat="45.9557263" lon="12.5463271"><ele>25.999999999999996</ele><time>2026-04-22T10:36:49.977Z</time></trkpt><trkpt lat="45.955724" lon="12.5462169"><ele>26.0</ele><time>2026-04-22T10:36:52.977Z</time></trkpt><trkpt lat="45.9557142" lon="12.5461067"><ele>26.0</ele><time>2026-04-22T10:36:55.98Z</time></trkpt><trkpt lat="45.9557008" lon="12.5460064"><ele>26.0</ele><time>2026-04-22T10:36:58.977Z</time></trkpt><trkpt lat="45.9556885" lon="12.5459027"><ele>25.999999999999996</ele><time>2026-04-22T10:37:01.978Z</time></trkpt><trkpt lat="45.955665" lon="12.5457867"><ele>26.0</ele><time>2026-04-22T10:37:04.977Z</time></trkpt><trkpt lat="45.9556449" lon="12.5456631"><ele>25.999999999999996</ele><time>2026-04-22T10:37:07.979Z</time></trkpt><trkpt lat="45.9556168" lon="12.5455324"><ele>26.0</ele><time>2026-04-22T10:37:10.978Z</time></trkpt><trkpt lat="45.9555984" lon="12.5454442"><ele>26.0</ele><time>2026-04-22T10:37:12.978Z</time></trkpt><trkpt lat="45.9555704" lon="12.5453281"><ele>26.0</ele><time>2026-04-22T10:37:15.988Z</time></trkpt><trkpt lat="45.9555435" lon="12.5452107"><ele>25.999999999999996</ele><time>2026-04-22T10:37:18.977Z</time></trkpt><trkpt lat="45.9555285" lon="12.5450932"><ele>26.0</ele><time>2026-04-22T10:37:21.977Z</time></trkpt><trkpt lat="45.9555182" lon="12.5449813"><ele>26.166666666666664</ele><time>2026-04-22T10:37:24.977Z</time></trkpt><trkpt lat="45.9554977" lon="12.5448683"><ele>26.333333333333332</ele><time>2026-04-22T10:37:27.977Z</time></trkpt><trkpt lat="45.955476" lon="12.5447552"><ele>26.5</ele><time>2026-04-22T10:37:30.977Z</time></trkpt><trkpt lat="45.955456" lon="12.5446368"><ele>26.666666666666664</ele><time>2026-04-22T10:37:33.981Z</time></trkpt><trkpt lat="45.9554313" lon="12.5445203"><ele>26.833333333333332</ele><time>2026-04-22T10:37:36.977Z</time></trkpt><trkpt lat="45.9554129" lon="12.5443959"><ele>27.0</ele><time>2026-04-22T10:37:39.976Z</time></trkpt><trkpt lat="45.9553991" lon="12.5442692"><ele>27.166666666666668</ele><time>2026-04-22T10:37:42.978Z</time></trkpt><trkpt lat="45.9553827" lon="12.5441535"><ele>27.333333333333336</ele><time>2026-04-22T10:37:45.977Z</time></trkpt><trkpt lat="45.9553701" lon="12.5440517"><ele>27.5</ele><time>2026-04-22T10:37:48.979Z</time></trkpt><trkpt lat="45.9553757" lon="12.5439406"><ele>27.666666666666668</ele><time>2026-04-22T10:37:51.977Z</time></trkpt><trkpt lat="45.9553585" lon="12.5438313"><ele>27.833333333333336</ele><time>2026-04-22T10:37:54.977Z</time></trkpt><trkpt lat="45.9553397" lon="12.5437174"><ele>28.0</ele><time>2026-04-22T10:37:57.978Z</time></trkpt><trkpt lat="45.9553122" lon="12.5435991"><ele>28.000000000000004</ele><time>2026-04-22T10:38:00.978Z</time></trkpt><trkpt lat="45.9552833" lon="12.5434795"><ele>28.0</ele><time>2026-04-22T10:38:03.979Z</time></trkpt><trkpt lat="45.9552573" lon="12.5433552"><ele>28.0</ele><time>2026-04-22T10:38:06.977Z</time></trkpt><trkpt lat="45.9552347" lon="12.5432255"><ele>28.0</ele><time>2026-04-22T10:38:09.977Z</time></trkpt><trkpt lat="45.9552079" lon="12.5431077"><ele>28.000000000000004</ele><time>2026-04-22T10:38:12.978Z</time></trkpt><trkpt lat="45.9551791" lon="12.5430043"><ele>28.0</ele><time>2026-04-22T10:38:15.977Z</time></trkpt><trkpt lat="45.955156" lon="12.5428979"><ele>27.833333333333336</ele><time>2026-04-22T10:38:18.976Z</time></trkpt><trkpt lat="45.9551335" lon="12.5427853"><ele>27.666666666666668</ele><time>2026-04-22T10:38:21.978Z</time></trkpt><trkpt lat="45.9551078" lon="12.5426671"><ele>27.5</ele><time>2026-04-22T10:38:24.977Z</time></trkpt><trkpt lat="45.9550852" lon="12.5425396"><ele>27.333333333333336</ele><time>2026-04-22T10:38:27.979Z</time></trkpt><trkpt lat="45.9550654" lon="12.5424115"><ele>27.166666666666668</ele><time>2026-04-22T10:38:30.979Z</time></trkpt><trkpt lat="45.9550467" lon="12.542287"><ele>27.0</ele><time>2026-04-22T10:38:33.979Z</time></trkpt><trkpt lat="45.9550293" lon="12.5421562"><ele>26.5</ele><time>2026-04-22T10:38:36.977Z</time></trkpt><trkpt lat="45.9550149" lon="12.542027"><ele>26.0</ele><time>2026-04-22T10:38:39.978Z</time></trkpt><trkpt lat="45.9549969" lon="12.5419022"><ele>25.5</ele><time>2026-04-22T10:38:42.977Z</time></trkpt><trkpt lat="45.9549731" lon="12.5417754"><ele>25.0</ele><time>2026-04-22T10:38:45.979Z</time></trkpt><trkpt lat="45.9549555" lon="12.5416506"><ele>24.5</ele><time>2026-04-22T10:38:48.976Z</time></trkpt><trkpt lat="45.9549389" lon="12.541524"><ele>24.0</ele><time>2026-04-22T10:38:51.986Z</time></trkpt><trkpt lat="45.9549186" lon="12.5413974"><ele>24.0</ele><time>2026-04-22T10:38:54.979Z</time></trkpt><trkpt lat="45.9549112" lon="12.5412733"><ele>24.0</ele><time>2026-04-22T10:38:57.976Z</time></trkpt><trkpt lat="45.9549083" lon="12.541152"><ele>24.0</ele><time>2026-04-22T10:39:00.981Z</time></trkpt><trkpt lat="45.9548965" lon="12.5410316"><ele>24.0</ele><time>2026-04-22T10:39:03.98Z</time></trkpt><trkpt lat="45.9548716" lon="12.5409136"><ele>24.0</ele><time>2026-04-22T10:39:06.978Z</time></trkpt><trkpt lat="45.9548428" lon="12.5407997"><ele>24.0</ele><time>2026-04-22T10:39:09.978Z</time></trkpt><trkpt lat="45.9548043" lon="12.5406744"><ele>24.0</ele><time>2026-04-22T10:39:12.98Z</time></trkpt><trkpt lat="45.9547703" lon="12.540553"><ele>24.0</ele><time>2026-04-22T10:39:15.979Z</time></trkpt><trkpt lat="45.9547305" lon="12.5404392"><ele>24.0</ele><time>2026-04-22T10:39:18.978Z</time></trkpt><trkpt lat="45.9546869" lon="12.5403286"><ele>24.0</ele><time>2026-04-22T10:39:21.976Z</time></trkpt><trkpt lat="45.9546532" lon="12.5402241"><ele>24.0</ele><time>2026-04-22T10:39:24.979Z</time></trkpt><trkpt lat="45.9546146" lon="12.5401215"><ele>24.0</ele><time>2026-04-22T10:39:27.978Z</time></trkpt><trkpt lat="45.9545847" lon="12.5400133"><ele>24.0</ele><time>2026-04-22T10:39:30.978Z</time></trkpt><trkpt lat="45.9545613" lon="12.5399098"><ele>24.0</ele><time>2026-04-22T10:39:33.98Z</time></trkpt><trkpt lat="45.9545301" lon="12.5398039"><ele>24.0</ele><time>2026-04-22T10:39:36.982Z</time></trkpt><trkpt lat="45.9544951" lon="12.5397022"><ele>24.0</ele><time>2026-04-22T10:39:39.979Z</time></trkpt><trkpt lat="45.9544536" lon="12.5395964"><ele>24.0</ele><time>2026-04-22T10:39:42.979Z</time></trkpt><trkpt lat="45.9544099" lon="12.5394966"><ele>24.0</ele><time>2026-04-22T10:39:45.979Z</time></trkpt><trkpt lat="45.9543692" lon="12.539391"><ele>24.166666666666668</ele><time>2026-04-22T10:39:48.979Z</time></trkpt><trkpt lat="45.9543317" lon="12.5392789"><ele>24.333333333333336</ele><time>2026-04-22T10:39:51.979Z</time></trkpt><trkpt lat="45.9543023" lon="12.5391707"><ele>24.5</ele><time>2026-04-22T10:39:54.978Z</time></trkpt><trkpt lat="45.9542697" lon="12.5390638"><ele>24.666666666666668</ele><time>2026-04-22T10:39:57.979Z</time></trkpt><trkpt lat="45.9542287" lon="12.5389593"><ele>24.833333333333336</ele><time>2026-04-22T10:40:00.978Z</time></trkpt><trkpt lat="45.9541925" lon="12.5388545"><ele>25.0</ele><time>2026-04-22T10:40:03.979Z</time></trkpt><trkpt lat="45.9541578" lon="12.538753"><ele>24.833333333333336</ele><time>2026-04-22T10:40:06.979Z</time></trkpt><trkpt lat="45.9541167" lon="12.5386437"><ele>24.666666666666668</ele><time>2026-04-22T10:40:09.979Z</time></trkpt><trkpt lat="45.9540725" lon="12.5385378"><ele>24.5</ele><time>2026-04-22T10:40:12.98Z</time></trkpt><trkpt lat="45.9540371" lon="12.5384333"><ele>24.333333333333336</ele><time>2026-04-22T10:40:15.983Z</time></trkpt><trkpt lat="45.9539946" lon="12.5383123"><ele>24.166666666666668</ele><time>2026-04-22T10:40:18.979Z</time></trkpt><trkpt lat="45.9539627" lon="12.5382308"><ele>24.0</ele><time>2026-04-22T10:40:20.978Z</time></trkpt><trkpt lat="45.9539185" lon="12.5381123"><ele>24.0</ele><time>2026-04-22T10:40:23.979Z</time></trkpt><trkpt lat="45.9538863" lon="12.5380322"><ele>24.0</ele><time>2026-04-22T10:40:25.979Z</time></trkpt><trkpt lat="45.9538531" lon="12.5379532"><ele>24.0</ele><time>2026-04-22T10:40:28.001Z</time></trkpt><trkpt lat="45.9538112" lon="12.5378391"><ele>24.0</ele><time>2026-04-22T10:40:30.979Z</time></trkpt><trkpt lat="45.9537767" lon="12.537728"><ele>24.0</ele><time>2026-04-22T10:40:33.978Z</time></trkpt><trkpt lat="45.9537533" lon="12.5376219"><ele>24.0</ele><time>2026-04-22T10:40:36.979Z</time></trkpt><trkpt lat="45.9537285" lon="12.5375058"><ele>24.166666666666668</ele><time>2026-04-22T10:40:39.979Z</time></trkpt><trkpt lat="45.9536851" lon="12.5373852"><ele>24.333333333333336</ele><time>2026-04-22T10:40:42.979Z</time></trkpt><trkpt lat="45.9536544" lon="12.5373022"><ele>24.5</ele><time>2026-04-22T10:40:44.978Z</time></trkpt><trkpt lat="45.9536235" lon="12.5372226"><ele>24.666666666666668</ele><time>2026-04-22T10:40:46.979Z</time></trkpt><trkpt lat="45.95358" lon="12.5371193"><ele>24.833333333333336</ele><time>2026-04-22T10:40:49.98Z</time></trkpt><trkpt lat="45.953546" lon="12.5370198"><ele>25.0</ele><time>2026-04-22T10:40:52.979Z</time></trkpt><trkpt lat="45.9535044" lon="12.5369085"><ele>25.000000000000004</ele><time>2026-04-22T10:40:55.979Z</time></trkpt><trkpt lat="45.9534754" lon="12.5368273"><ele>25.0</ele><time>2026-04-22T10:40:57.978Z</time></trkpt><trkpt lat="45.9534431" lon="12.536747"><ele>25.0</ele><time>2026-04-22T10:40:59.979Z</time></trkpt><trkpt lat="45.9534032" lon="12.5366281"><ele>25.0</ele><time>2026-04-22T10:41:02.979Z</time></trkpt><trkpt lat="45.9533663" lon="12.5365083"><ele>25.000000000000004</ele><time>2026-04-22T10:41:05.979Z</time></trkpt><trkpt lat="45.9533267" lon="12.5363918"><ele>25.0</ele><time>2026-04-22T10:41:08.979Z</time></trkpt><trkpt lat="45.9532828" lon="12.5362789"><ele>25.000000000000004</ele><time>2026-04-22T10:41:11.978Z</time></trkpt><trkpt lat="45.9532541" lon="12.5361929"><ele>25.0</ele><time>2026-04-22T10:41:13.979Z</time></trkpt><trkpt lat="45.9532255" lon="12.5361049"><ele>25.0</ele><time>2026-04-22T10:41:15.979Z</time></trkpt><trkpt lat="45.9531853" lon="12.5359904"><ele>25.0</ele><time>2026-04-22T10:41:18.98Z</time></trkpt><trkpt lat="45.9531539" lon="12.5358805"><ele>25.000000000000004</ele><time>2026-04-22T10:41:21.979Z</time></trkpt><trkpt lat="45.9531234" lon="12.5357835"><ele>25.0</ele><time>2026-04-22T10:41:24.982Z</time></trkpt><trkpt lat="45.9530872" lon="12.5356857"><ele>25.000000000000004</ele><time>2026-04-22T10:41:27.979Z</time></trkpt><trkpt lat="45.9530592" lon="12.5355812"><ele>25.0</ele><time>2026-04-22T10:41:30.978Z</time></trkpt><trkpt lat="45.9530267" lon="12.5354768"><ele>25.0</ele><time>2026-04-22T10:41:33.978Z</time></trkpt><trkpt lat="45.9530115" lon="12.5353655"><ele>25.0</ele><time>2026-04-22T10:41:36.979Z</time></trkpt><trkpt lat="45.9530025" lon="12.5352495"><ele>25.000000000000004</ele><time>2026-04-22T10:41:39.978Z</time></trkpt><trkpt lat="45.9529994" lon="12.5351311"><ele>25.0</ele><time>2026-04-22T10:41:42.979Z</time></trkpt><trkpt lat="45.9529911" lon="12.5350403"><ele>25.142857142857146</ele><time>2026-04-22T10:41:44.978Z</time></trkpt><trkpt lat="45.9529777" lon="12.5349452"><ele>25.285714285714285</ele><time>2026-04-22T10:41:46.979Z</time></trkpt><trkpt lat="45.952962" lon="12.5348487"><ele>25.42857142857143</ele><time>2026-04-22T10:41:48.979Z</time></trkpt><trkpt lat="45.9529482" lon="12.5347544"><ele>25.571428571428573</ele><time>2026-04-22T10:41:50.979Z</time></trkpt><trkpt lat="45.9529333" lon="12.5346655"><ele>25.714285714285715</ele><time>2026-04-22T10:41:52.98Z</time></trkpt><trkpt lat="45.9529134" lon="12.5345413"><ele>25.857142857142858</ele><time>2026-04-22T10:41:55.981Z</time></trkpt><trkpt lat="45.9528921" lon="12.5344232"><ele>26.0</ele><time>2026-04-22T10:41:58.979Z</time></trkpt><trkpt lat="45.9528789" lon="12.5343068"><ele>25.999999999999996</ele><time>2026-04-22T10:42:01.98Z</time></trkpt><trkpt lat="45.9528624" lon="12.5341879"><ele>26.0</ele><time>2026-04-22T10:42:04.979Z</time></trkpt><trkpt lat="45.9528446" lon="12.5340637"><ele>26.0</ele><time>2026-04-22T10:42:07.98Z</time></trkpt><trkpt lat="45.952822" lon="12.5339334"><ele>26.0</ele><time>2026-04-22T10:42:10.979Z</time></trkpt><trkpt lat="45.9527987" lon="12.533808"><ele>25.999999999999996</ele><time>2026-04-22T10:42:13.98Z</time></trkpt><trkpt lat="45.9527756" lon="12.5336873"><ele>26.0</ele><time>2026-04-22T10:42:16.982Z</time></trkpt><trkpt lat="45.9527452" lon="12.533565"><ele>25.999999999999996</ele><time>2026-04-22T10:42:19.98Z</time></trkpt><trkpt lat="45.952727" lon="12.5334387"><ele>26.0</ele><time>2026-04-22T10:42:22.979Z</time></trkpt><trkpt lat="45.9527149" lon="12.5333152"><ele>26.0</ele><time>2026-04-22T10:42:25.979Z</time></trkpt><trkpt lat="45.9527064" lon="12.5331914"><ele>26.0</ele><time>2026-04-22T10:42:28.978Z</time></trkpt><trkpt lat="45.9526923" lon="12.5330778"><ele>25.999999999999996</ele><time>2026-04-22T10:42:31.981Z</time></trkpt><trkpt lat="45.9526744" lon="12.5329604"><ele>26.0</ele><time>2026-04-22T10:42:34.98Z</time></trkpt><trkpt lat="45.9526684" lon="12.532837"><ele>25.999999999999996</ele><time>2026-04-22T10:42:37.98Z</time></trkpt><trkpt lat="45.9526581" lon="12.53272"><ele>26.0</ele><time>2026-04-22T10:42:40.979Z</time></trkpt><trkpt lat="45.9526506" lon="12.532604"><ele>26.0</ele><time>2026-04-22T10:42:43.986Z</time></trkpt><trkpt lat="45.9526431" lon="12.532494"><ele>26.0</ele><time>2026-04-22T10:42:46.979Z</time></trkpt><trkpt lat="45.9526249" lon="12.532378"><ele>25.999999999999996</ele><time>2026-04-22T10:42:49.982Z</time></trkpt><trkpt lat="45.9526003" lon="12.5322507"><ele>26.0</ele><time>2026-04-22T10:42:52.979Z</time></trkpt><trkpt lat="45.9525849" lon="12.5321188"><ele>25.666666666666664</ele><time>2026-04-22T10:42:55.98Z</time></trkpt><trkpt lat="45.9525656" lon="12.5319959"><ele>25.333333333333332</ele><time>2026-04-22T10:42:58.979Z</time></trkpt><trkpt lat="45.9525431" lon="12.5318756"><ele>25.0</ele><time>2026-04-22T10:43:01.98Z</time></trkpt><trkpt lat="45.9525325" lon="12.5317516"><ele>24.666666666666664</ele><time>2026-04-22T10:43:04.979Z</time></trkpt><trkpt lat="45.9525163" lon="12.5316266"><ele>24.333333333333332</ele><time>2026-04-22T10:43:07.979Z</time></trkpt><trkpt lat="45.9524937" lon="12.53151"><ele>24.0</ele><time>2026-04-22T10:43:10.979Z</time></trkpt><trkpt lat="45.9524688" lon="12.5313949"><ele>24.0</ele><time>2026-04-22T10:43:13.98Z</time></trkpt><trkpt lat="45.9524475" lon="12.531278"><ele>24.0</ele><time>2026-04-22T10:43:16.981Z</time></trkpt><trkpt lat="45.9524258" lon="12.5311625"><ele>24.0</ele><time>2026-04-22T10:43:19.98Z</time></trkpt><trkpt lat="45.9524049" lon="12.5310496"><ele>24.0</ele><time>2026-04-22T10:43:22.979Z</time></trkpt><trkpt lat="45.952384" lon="12.5309391"><ele>24.0</ele><time>2026-04-22T10:43:25.979Z</time></trkpt><trkpt lat="45.9523609" lon="12.5308202"><ele>24.0</ele><time>2026-04-22T10:43:28.982Z</time></trkpt><trkpt lat="45.9523467" lon="12.5307272"><ele>24.0</ele><time>2026-04-22T10:43:30.98Z</time></trkpt><trkpt lat="45.9523338" lon="12.5306347"><ele>24.0</ele><time>2026-04-22T10:43:32.979Z</time></trkpt><trkpt lat="45.9523235" lon="12.5305113"><ele>24.0</ele><time>2026-04-22T10:43:35.98Z</time></trkpt><trkpt lat="45.9523137" lon="12.5303975"><ele>24.0</ele><time>2026-04-22T10:43:38.978Z</time></trkpt><trkpt lat="45.9523102" lon="12.5302834"><ele>24.0</ele><time>2026-04-22T10:43:41.98Z</time></trkpt><trkpt lat="45.9523027" lon="12.5301699"><ele>24.0</ele><time>2026-04-22T10:43:44.978Z</time></trkpt><trkpt lat="45.9522786" lon="12.5300597"><ele>23.999999999999996</ele><time>2026-04-22T10:43:47.98Z</time></trkpt><trkpt lat="45.9522584" lon="12.5299538"><ele>24.0</ele><time>2026-04-22T10:43:50.979Z</time></trkpt><trkpt lat="45.9522413" lon="12.5298593"><ele>24.0</ele><time>2026-04-22T10:43:53.978Z</time></trkpt><trkpt lat="45.9522236" lon="12.5297703"><ele>24.0</ele><time>2026-04-22T10:43:56.98Z</time></trkpt><trkpt lat="45.9522187" lon="12.5296792"><ele>24.0</ele><time>2026-04-22T10:43:59.981Z</time></trkpt><trkpt lat="45.9522053" lon="12.5295897"><ele>23.999999999999996</ele><time>2026-04-22T10:44:02.979Z</time></trkpt><trkpt lat="45.9521934" lon="12.5294886"><ele>24.0</ele><time>2026-04-22T10:44:05.981Z</time></trkpt><trkpt lat="45.9521879" lon="12.5293823"><ele>24.0</ele><time>2026-04-22T10:44:08.979Z</time></trkpt><trkpt lat="45.9521874" lon="12.5292685"><ele>24.0</ele><time>2026-04-22T10:44:11.98Z</time></trkpt><trkpt lat="45.952181" lon="12.5291469"><ele>24.0</ele><time>2026-04-22T10:44:14.979Z</time></trkpt><trkpt lat="45.9521679" lon="12.5290354"><ele>24.0</ele><time>2026-04-22T10:44:17.978Z</time></trkpt><trkpt lat="45.9521618" lon="12.5289325"><ele>24.0</ele><time>2026-04-22T10:44:20.978Z</time></trkpt><trkpt lat="45.9521541" lon="12.528836"><ele>24.0</ele><time>2026-04-22T10:44:23.98Z</time></trkpt><trkpt lat="45.9521375" lon="12.5287376"><ele>23.833333333333332</ele><time>2026-04-22T10:44:26.979Z</time></trkpt><trkpt lat="45.95212" lon="12.5286252"><ele>23.666666666666668</ele><time>2026-04-22T10:44:29.981Z</time></trkpt><trkpt lat="45.952102" lon="12.5285081"><ele>23.5</ele><time>2026-04-22T10:44:32.98Z</time></trkpt><trkpt lat="45.9520924" lon="12.5283779"><ele>23.333333333333336</ele><time>2026-04-22T10:44:35.979Z</time></trkpt><trkpt lat="45.9521099" lon="12.5282637"><ele>23.166666666666668</ele><time>2026-04-22T10:44:38.978Z</time></trkpt><trkpt lat="45.9521065" lon="12.5281677"><ele>23.0</ele><time>2026-04-22T10:44:41.978Z</time></trkpt><trkpt lat="45.9520874" lon="12.528075"><ele>23.0</ele><time>2026-04-22T10:44:44.979Z</time></trkpt><trkpt lat="45.9520672" lon="12.5279888"><ele>23.0</ele><time>2026-04-22T10:44:47.978Z</time></trkpt><trkpt lat="45.9520566" lon="12.527899"><ele>23.0</ele><time>2026-04-22T10:44:50.978Z</time></trkpt><trkpt lat="45.9520305" lon="12.5277992"><ele>23.0</ele><time>2026-04-22T10:44:54.979Z</time></trkpt><trkpt lat="45.9519855" lon="12.5277217"><ele>23.0</ele><time>2026-04-22T10:44:59.978Z</time></trkpt><trkpt lat="45.9519555" lon="12.52762"><ele>23.0</ele><time>2026-04-22T10:45:05.98Z</time></trkpt><trkpt lat="45.951942" lon="12.5275161"><ele>23.0</ele><time>2026-04-22T10:45:08.978Z</time></trkpt><trkpt lat="45.9519429" lon="12.5274016"><ele>23.166666666666668</ele><time>2026-04-22T10:45:11.978Z</time></trkpt><trkpt lat="45.9519351" lon="12.527288"><ele>23.333333333333336</ele><time>2026-04-22T10:45:14.978Z</time></trkpt><trkpt lat="45.9519264" lon="12.5271865"><ele>23.5</ele><time>2026-04-22T10:45:17.978Z</time></trkpt><trkpt lat="45.9519078" lon="12.5270832"><ele>23.666666666666668</ele><time>2026-04-22T10:45:20.977Z</time></trkpt><trkpt lat="45.9518859" lon="12.5269703"><ele>23.833333333333332</ele><time>2026-04-22T10:45:23.981Z</time></trkpt><trkpt lat="45.9518686" lon="12.5268639"><ele>24.0</ele><time>2026-04-22T10:45:26.978Z</time></trkpt><trkpt lat="45.9518711" lon="12.5267603"><ele>24.0</ele><time>2026-04-22T10:45:29.977Z</time></trkpt><trkpt lat="45.9518606" lon="12.5266437"><ele>24.0</ele><time>2026-04-22T10:45:32.98Z</time></trkpt><trkpt lat="45.9518446" lon="12.5265167"><ele>24.0</ele><time>2026-04-22T10:45:35.978Z</time></trkpt><trkpt lat="45.9518287" lon="12.5263971"><ele>24.0</ele><time>2026-04-22T10:45:38.979Z</time></trkpt><trkpt lat="45.9518095" lon="12.5262893"><ele>24.0</ele><time>2026-04-22T10:45:41.979Z</time></trkpt><trkpt lat="45.9517714" lon="12.5261865"><ele>24.0</ele><time>2026-04-22T10:45:44.978Z</time></trkpt><trkpt lat="45.9517483" lon="12.5260685"><ele>23.833333333333332</ele><time>2026-04-22T10:45:47.977Z</time></trkpt><trkpt lat="45.9517311" lon="12.5259577"><ele>23.666666666666668</ele><time>2026-04-22T10:45:50.978Z</time></trkpt><trkpt lat="45.9517183" lon="12.5258588"><ele>23.5</ele><time>2026-04-22T10:45:53.978Z</time></trkpt><trkpt lat="45.9517092" lon="12.5257665"><ele>23.333333333333336</ele><time>2026-04-22T10:45:56.977Z</time></trkpt><trkpt lat="45.9517031" lon="12.5256633"><ele>23.166666666666668</ele><time>2026-04-22T10:45:59.977Z</time></trkpt><trkpt lat="45.9516928" lon="12.5255545"><ele>23.0</ele><time>2026-04-22T10:46:02.978Z</time></trkpt><trkpt lat="45.9516735" lon="12.5254257"><ele>23.142857142857142</ele><time>2026-04-22T10:46:05.978Z</time></trkpt><trkpt lat="45.9516556" lon="12.5253357"><ele>23.285714285714285</ele><time>2026-04-22T10:46:07.977Z</time></trkpt><trkpt lat="45.9516389" lon="12.525247"><ele>23.428571428571427</ele><time>2026-04-22T10:46:09.977Z</time></trkpt><trkpt lat="45.9516203" lon="12.5251557"><ele>23.57142857142857</ele><time>2026-04-22T10:46:11.978Z</time></trkpt><trkpt lat="45.951605" lon="12.5250668"><ele>23.714285714285715</ele><time>2026-04-22T10:46:13.978Z</time></trkpt><trkpt lat="45.9515836" lon="12.5249533"><ele>23.857142857142854</ele><time>2026-04-22T10:46:16.977Z</time></trkpt><trkpt lat="45.9515583" lon="12.524835"><ele>24.0</ele><time>2026-04-22T10:46:19.98Z</time></trkpt><trkpt lat="45.9515498" lon="12.5247051"><ele>24.0</ele><time>2026-04-22T10:46:22.978Z</time></trkpt><trkpt lat="45.95155" lon="12.5245955"><ele>24.0</ele><time>2026-04-22T10:46:25.978Z</time></trkpt><trkpt lat="45.9515486" lon="12.5244945"><ele>24.0</ele><time>2026-04-22T10:46:28.978Z</time></trkpt><trkpt lat="45.9515452" lon="12.5243978"><ele>24.0</ele><time>2026-04-22T10:46:31.978Z</time></trkpt><trkpt lat="45.9515257" lon="12.5242947"><ele>24.0</ele><time>2026-04-22T10:46:34.978Z</time></trkpt><trkpt lat="45.9514968" lon="12.5241778"><ele>24.0</ele><time>2026-04-22T10:46:37.982Z</time></trkpt><trkpt lat="45.9514799" lon="12.5240669"><ele>23.833333333333332</ele><time>2026-04-22T10:46:40.978Z</time></trkpt><trkpt lat="45.9514667" lon="12.5239483"><ele>23.666666666666668</ele><time>2026-04-22T10:46:43.978Z</time></trkpt><trkpt lat="45.9514594" lon="12.5238265"><ele>23.5</ele><time>2026-04-22T10:46:46.979Z</time></trkpt><trkpt lat="45.9514481" lon="12.5237128"><ele>23.333333333333336</ele><time>2026-04-22T10:46:49.983Z</time></trkpt><trkpt lat="45.951443" lon="12.5236014"><ele>23.166666666666668</ele><time>2026-04-22T10:46:52.978Z</time></trkpt><trkpt lat="45.9514286" lon="12.523494"><ele>23.0</ele><time>2026-04-22T10:46:55.979Z</time></trkpt><trkpt lat="45.9513951" lon="12.5233831"><ele>23.333333333333336</ele><time>2026-04-22T10:46:58.979Z</time></trkpt><trkpt lat="45.9513667" lon="12.523284"><ele>23.666666666666668</ele><time>2026-04-22T10:47:01.978Z</time></trkpt><trkpt lat="45.9513542" lon="12.5231818"><ele>24.0</ele><time>2026-04-22T10:47:04.979Z</time></trkpt><trkpt lat="45.951357" lon="12.5230642"><ele>24.333333333333336</ele><time>2026-04-22T10:47:07.978Z</time></trkpt><trkpt lat="45.9513401" lon="12.522947"><ele>24.666666666666668</ele><time>2026-04-22T10:47:10.978Z</time></trkpt><trkpt lat="45.9513229" lon="12.5228271"><ele>25.0</ele><time>2026-04-22T10:47:13.978Z</time></trkpt><trkpt lat="45.9513028" lon="12.5227005"><ele>25.000000000000004</ele><time>2026-04-22T10:47:16.979Z</time></trkpt><trkpt lat="45.9512709" lon="12.5225793"><ele>25.0</ele><time>2026-04-22T10:47:19.978Z</time></trkpt><trkpt lat="45.9512504" lon="12.5224711"><ele>25.0</ele><time>2026-04-22T10:47:22.978Z</time></trkpt><trkpt lat="45.9512402" lon="12.5223704"><ele>25.0</ele><time>2026-04-22T10:47:25.978Z</time></trkpt><trkpt lat="45.9512321" lon="12.5222542"><ele>25.000000000000004</ele><time>2026-04-22T10:47:28.98Z</time></trkpt><trkpt lat="45.9512242" lon="12.5221264"><ele>25.0</ele><time>2026-04-22T10:47:31.979Z</time></trkpt><trkpt lat="45.9512196" lon="12.5220328"><ele>25.000000000000004</ele><time>2026-04-22T10:47:33.978Z</time></trkpt><trkpt lat="45.9512074" lon="12.5219431"><ele>25.0</ele><time>2026-04-22T10:47:35.978Z</time></trkpt><trkpt lat="45.9511755" lon="12.5218149"><ele>25.0</ele><time>2026-04-22T10:47:38.979Z</time></trkpt><trkpt lat="45.9511478" lon="12.521692"><ele>25.0</ele><time>2026-04-22T10:47:41.978Z</time></trkpt><trkpt lat="45.9511308" lon="12.5215692"><ele>25.000000000000004</ele><time>2026-04-22T10:47:44.978Z</time></trkpt><trkpt lat="45.9511202" lon="12.521457"><ele>25.0</ele><time>2026-04-22T10:47:47.979Z</time></trkpt><trkpt lat="45.9511118" lon="12.5213424"><ele>25.000000000000004</ele><time>2026-04-22T10:47:50.978Z</time></trkpt><trkpt lat="45.9510888" lon="12.5212547"><ele>25.0</ele><time>2026-04-22T10:47:52.978Z</time></trkpt><trkpt lat="45.9510687" lon="12.5211576"><ele>25.0</ele><time>2026-04-22T10:47:54.98Z</time></trkpt><trkpt lat="45.9510522" lon="12.521061"><ele>25.0</ele><time>2026-04-22T10:47:56.978Z</time></trkpt><trkpt lat="45.9510363" lon="12.5209342"><ele>25.000000000000004</ele><time>2026-04-22T10:47:59.98Z</time></trkpt><trkpt lat="45.9510293" lon="12.5208174"><ele>25.0</ele><time>2026-04-22T10:48:02.98Z</time></trkpt><trkpt lat="45.9510452" lon="12.5207027"><ele>24.833333333333336</ele><time>2026-04-22T10:48:05.98Z</time></trkpt><trkpt lat="45.9510414" lon="12.5205781"><ele>24.666666666666668</ele><time>2026-04-22T10:48:08.978Z</time></trkpt><trkpt lat="45.9510321" lon="12.520463"><ele>24.5</ele><time>2026-04-22T10:48:11.979Z</time></trkpt><trkpt lat="45.9510195" lon="12.5203672"><ele>24.333333333333336</ele><time>2026-04-22T10:48:14.979Z</time></trkpt><trkpt lat="45.9509967" lon="12.5202631"><ele>24.166666666666668</ele><time>2026-04-22T10:48:17.979Z</time></trkpt><trkpt lat="45.9509943" lon="12.5201311"><ele>24.0</ele><time>2026-04-22T10:48:20.978Z</time></trkpt><trkpt lat="45.9509902" lon="12.5200402"><ele>24.0</ele><time>2026-04-22T10:48:22.979Z</time></trkpt><trkpt lat="45.9509741" lon="12.5199072"><ele>24.0</ele><time>2026-04-22T10:48:25.978Z</time></trkpt><trkpt lat="45.9509581" lon="12.5198134"><ele>24.0</ele><time>2026-04-22T10:48:27.979Z</time></trkpt><trkpt lat="45.9509449" lon="12.5197234"><ele>24.0</ele><time>2026-04-22T10:48:29.978Z</time></trkpt><trkpt lat="45.9509237" lon="12.5196084"><ele>24.0</ele><time>2026-04-22T10:48:32.98Z</time></trkpt><trkpt lat="45.9509008" lon="12.5194993"><ele>24.0</ele><time>2026-04-22T10:48:35.979Z</time></trkpt><trkpt lat="45.9508861" lon="12.5193935"><ele>24.0</ele><time>2026-04-22T10:48:38.978Z</time></trkpt><trkpt lat="45.9508815" lon="12.5192785"><ele>24.0</ele><time>2026-04-22T10:48:41.978Z</time></trkpt><trkpt lat="45.9508608" lon="12.5191701"><ele>24.0</ele><time>2026-04-22T10:48:44.976Z</time></trkpt><trkpt lat="45.9508239" lon="12.5190579"><ele>24.0</ele><time>2026-04-22T10:48:47.978Z</time></trkpt><trkpt lat="45.9507946" lon="12.5189318"><ele>24.0</ele><time>2026-04-22T10:48:50.978Z</time></trkpt><trkpt lat="45.9507619" lon="12.5188085"><ele>24.0</ele><time>2026-04-22T10:48:53.977Z</time></trkpt><trkpt lat="45.9507408" lon="12.518705"><ele>24.0</ele><time>2026-04-22T10:48:56.978Z</time></trkpt><trkpt lat="45.9507141" lon="12.5186221"><ele>24.0</ele><time>2026-04-22T10:48:59.98Z</time></trkpt><trkpt lat="45.9506891" lon="12.5185233"><ele>24.0</ele><time>2026-04-22T10:49:02.979Z</time></trkpt><trkpt lat="45.9506769" lon="12.5184051"><ele>24.0</ele><time>2026-04-22T10:49:05.979Z</time></trkpt><trkpt lat="45.9506457" lon="12.5182888"><ele>24.0</ele><time>2026-04-22T10:49:08.978Z</time></trkpt><trkpt lat="45.9505775" lon="12.5182006"><ele>24.0</ele><time>2026-04-22T10:49:11.98Z</time></trkpt><trkpt lat="45.9505196" lon="12.5181194"><ele>24.0</ele><time>2026-04-22T10:49:14.978Z</time></trkpt><trkpt lat="45.9504722" lon="12.5180287"><ele>24.0</ele><time>2026-04-22T10:49:17.977Z</time></trkpt><trkpt lat="45.950423" lon="12.5179489"><ele>24.0</ele><time>2026-04-22T10:49:20.978Z</time></trkpt><trkpt lat="45.9503505" lon="12.5179034"><ele>24.0</ele><time>2026-04-22T10:49:23.978Z</time></trkpt><trkpt lat="45.9502959" lon="12.5178363"><ele>24.0</ele><time>2026-04-22T10:49:26.977Z</time></trkpt><trkpt lat="45.9502854" lon="12.5177277"><ele>24.0</ele><time>2026-04-22T10:49:29.978Z</time></trkpt><trkpt lat="45.9502913" lon="12.5176147"><ele>24.166666666666668</ele><time>2026-04-22T10:49:32.978Z</time></trkpt><trkpt lat="45.9503139" lon="12.5175127"><ele>24.333333333333336</ele><time>2026-04-22T10:49:35.978Z</time></trkpt><trkpt lat="45.950345" lon="12.5174142"><ele>24.5</ele><time>2026-04-22T10:49:38.977Z</time></trkpt><trkpt lat="45.9503691" lon="12.5173127"><ele>24.666666666666668</ele><time>2026-04-22T10:49:41.979Z</time></trkpt><trkpt lat="45.9504047" lon="12.5172089"><ele>24.833333333333336</ele><time>2026-04-22T10:49:44.979Z</time></trkpt><trkpt lat="45.9504461" lon="12.5171044"><ele>25.0</ele><time>2026-04-22T10:49:47.978Z</time></trkpt><trkpt lat="45.9504704" lon="12.5169897"><ele>24.666666666666668</ele><time>2026-04-22T10:49:50.978Z</time></trkpt><trkpt lat="45.9504778" lon="12.5168679"><ele>24.333333333333336</ele><time>2026-04-22T10:49:53.978Z</time></trkpt><trkpt lat="45.9504875" lon="12.5167435"><ele>24.0</ele><time>2026-04-22T10:49:56.977Z</time></trkpt><trkpt lat="45.9504817" lon="12.5166184"><ele>23.666666666666668</ele><time>2026-04-22T10:49:59.978Z</time></trkpt><trkpt lat="45.9504663" lon="12.5165015"><ele>23.333333333333336</ele><time>2026-04-22T10:50:02.979Z</time></trkpt><trkpt lat="45.9504501" lon="12.5163821"><ele>23.0</ele><time>2026-04-22T10:50:05.978Z</time></trkpt><trkpt lat="45.9504186" lon="12.516258"><ele>23.0</ele><time>2026-04-22T10:50:08.978Z</time></trkpt><trkpt lat="45.9504004" lon="12.5161333"><ele>23.0</ele><time>2026-04-22T10:50:11.98Z</time></trkpt><trkpt lat="45.9503746" lon="12.5160123"><ele>23.0</ele><time>2026-04-22T10:50:14.982Z</time></trkpt><trkpt lat="45.9503548" lon="12.5159023"><ele>23.0</ele><time>2026-04-22T10:50:17.977Z</time></trkpt><trkpt lat="45.9503519" lon="12.5157961"><ele>23.0</ele><time>2026-04-22T10:50:20.979Z</time></trkpt><trkpt lat="45.9503452" lon="12.5156976"><ele>23.0</ele><time>2026-04-22T10:50:23.978Z</time></trkpt><trkpt lat="45.9503358" lon="12.5156058"><ele>23.0</ele><time>2026-04-22T10:50:26.977Z</time></trkpt><trkpt lat="45.9503257" lon="12.5155086"><ele>23.0</ele><time>2026-04-22T10:50:29.979Z</time></trkpt><trkpt lat="45.9503077" lon="12.5154041"><ele>23.0</ele><time>2026-04-22T10:50:32.979Z</time></trkpt><trkpt lat="45.950302" lon="12.5152874"><ele>23.0</ele><time>2026-04-22T10:50:35.98Z</time></trkpt><trkpt lat="45.9502937" lon="12.5151836"><ele>23.0</ele><time>2026-04-22T10:50:38.978Z</time></trkpt><trkpt lat="45.9502722" lon="12.5150856"><ele>23.0</ele><time>2026-04-22T10:50:41.985Z</time></trkpt><trkpt lat="45.9502565" lon="12.5149821"><ele>23.0</ele><time>2026-04-22T10:50:44.977Z</time></trkpt><trkpt lat="45.9502361" lon="12.5148775"><ele>23.0</ele><time>2026-04-22T10:50:47.978Z</time></trkpt><trkpt lat="45.9502159" lon="12.5147827"><ele>23.0</ele><time>2026-04-22T10:50:50.977Z</time></trkpt><trkpt lat="45.9501988" lon="12.5146721"><ele>23.0</ele><time>2026-04-22T10:50:53.979Z</time></trkpt><trkpt lat="45.9501731" lon="12.5145455"><ele>23.0</ele><time>2026-04-22T10:50:56.977Z</time></trkpt><trkpt lat="45.9501585" lon="12.5144574"><ele>23.0</ele><time>2026-04-22T10:50:58.979Z</time></trkpt><trkpt lat="45.9501464" lon="12.5143669"><ele>23.0</ele><time>2026-04-22T10:51:00.98Z</time></trkpt><trkpt lat="45.9501276" lon="12.5142419"><ele>23.0</ele><time>2026-04-22T10:51:03.982Z</time></trkpt><trkpt lat="45.9501047" lon="12.5141233"><ele>23.0</ele><time>2026-04-22T10:51:06.978Z</time></trkpt><trkpt lat="45.95009" lon="12.5140152"><ele>23.0</ele><time>2026-04-22T10:51:09.978Z</time></trkpt><trkpt lat="45.9500749" lon="12.5138985"><ele>23.0</ele><time>2026-04-22T10:51:12.978Z</time></trkpt><trkpt lat="45.9500663" lon="12.5137749"><ele>23.0</ele><time>2026-04-22T10:51:15.978Z</time></trkpt><trkpt lat="45.9500582" lon="12.513641"><ele>23.0</ele><time>2026-04-22T10:51:18.977Z</time></trkpt><trkpt lat="45.9500524" lon="12.513548"><ele>23.166666666666668</ele><time>2026-04-22T10:51:20.98Z</time></trkpt><trkpt lat="45.9500316" lon="12.5134209"><ele>23.333333333333336</ele><time>2026-04-22T10:51:23.979Z</time></trkpt><trkpt lat="45.9500086" lon="12.5132939"><ele>23.5</ele><time>2026-04-22T10:51:26.978Z</time></trkpt><trkpt lat="45.9499953" lon="12.5131675"><ele>23.666666666666668</ele><time>2026-04-22T10:51:29.98Z</time></trkpt><trkpt lat="45.9499736" lon="12.5130604"><ele>23.833333333333332</ele><time>2026-04-22T10:51:32.978Z</time></trkpt><trkpt lat="45.9499559" lon="12.5129488"><ele>24.0</ele><time>2026-04-22T10:51:35.979Z</time></trkpt><trkpt lat="45.9499322" lon="12.5128385"><ele>24.0</ele><time>2026-04-22T10:51:38.978Z</time></trkpt><trkpt lat="45.9499124" lon="12.5127331"><ele>24.0</ele><time>2026-04-22T10:51:41.98Z</time></trkpt><trkpt lat="45.9499223" lon="12.5126093"><ele>24.0</ele><time>2026-04-22T10:51:44.982Z</time></trkpt><trkpt lat="45.9499305" lon="12.5124834"><ele>24.0</ele><time>2026-04-22T10:51:47.979Z</time></trkpt><trkpt lat="45.9499231" lon="12.5123772"><ele>24.0</ele><time>2026-04-22T10:51:50.979Z</time></trkpt><trkpt lat="45.949914" lon="12.5122839"><ele>24.0</ele><time>2026-04-22T10:51:53.978Z</time></trkpt><trkpt lat="45.9498964" lon="12.5121638"><ele>23.833333333333332</ele><time>2026-04-22T10:51:57.98Z</time></trkpt><trkpt lat="45.9498788" lon="12.5120597"><ele>23.666666666666668</ele><time>2026-04-22T10:52:00.979Z</time></trkpt><trkpt lat="45.949862" lon="12.5119383"><ele>23.5</ele><time>2026-04-22T10:52:03.985Z</time></trkpt><trkpt lat="45.9498433" lon="12.511809"><ele>23.333333333333336</ele><time>2026-04-22T10:52:06.982Z</time></trkpt><trkpt lat="45.9498252" lon="12.5116867"><ele>23.166666666666668</ele><time>2026-04-22T10:52:09.979Z</time></trkpt><trkpt lat="45.9498185" lon="12.5115758"><ele>23.0</ele><time>2026-04-22T10:52:12.98Z</time></trkpt><trkpt lat="45.9498018" lon="12.5114683"><ele>23.0</ele><time>2026-04-22T10:52:15.98Z</time></trkpt><trkpt lat="45.9497874" lon="12.5113641"><ele>23.0</ele><time>2026-04-22T10:52:18.979Z</time></trkpt><trkpt lat="45.9497725" lon="12.5112678"><ele>23.0</ele><time>2026-04-22T10:52:21.979Z</time></trkpt><trkpt lat="45.9497639" lon="12.5111653"><ele>23.0</ele><time>2026-04-22T10:52:24.98Z</time></trkpt><trkpt lat="45.9497492" lon="12.5110629"><ele>23.0</ele><time>2026-04-22T10:52:27.979Z</time></trkpt><trkpt lat="45.9497263" lon="12.5109659"><ele>23.0</ele><time>2026-04-22T10:52:30.978Z</time></trkpt><trkpt lat="45.9497153" lon="12.5108322"><ele>23.0</ele><time>2026-04-22T10:52:33.977Z</time></trkpt><trkpt lat="45.9496994" lon="12.5107369"><ele>23.0</ele><time>2026-04-22T10:52:35.977Z</time></trkpt><trkpt lat="45.9496748" lon="12.5106418"><ele>23.0</ele><time>2026-04-22T10:52:37.976Z</time></trkpt><trkpt lat="45.9496483" lon="12.5105498"><ele>23.0</ele><time>2026-04-22T10:52:39.981Z</time></trkpt><trkpt lat="45.9496294" lon="12.5104511"><ele>23.0</ele><time>2026-04-22T10:52:41.977Z</time></trkpt><trkpt lat="45.9496094" lon="12.510354"><ele>23.0</ele><time>2026-04-22T10:52:43.977Z</time></trkpt><trkpt lat="45.9495895" lon="12.5102583"><ele>23.0</ele><time>2026-04-22T10:52:45.977Z</time></trkpt><trkpt lat="45.9495699" lon="12.5101708"><ele>23.0</ele><time>2026-04-22T10:52:47.977Z</time></trkpt><trkpt lat="45.9495482" lon="12.5100582"><ele>23.0</ele><time>2026-04-22T10:52:50.976Z</time></trkpt><trkpt lat="45.9495257" lon="12.5099519"><ele>23.0</ele><time>2026-04-22T10:52:53.977Z</time></trkpt><trkpt lat="45.9495006" lon="12.5098488"><ele>23.0</ele><time>2026-04-22T10:52:56.977Z</time></trkpt><trkpt lat="45.9494798" lon="12.5097376"><ele>23.0</ele><time>2026-04-22T10:52:59.977Z</time></trkpt><trkpt lat="45.9494618" lon="12.5096154"><ele>23.0</ele><time>2026-04-22T10:53:02.976Z</time></trkpt><trkpt lat="45.9494463" lon="12.5094973"><ele>23.333333333333336</ele><time>2026-04-22T10:53:05.978Z</time></trkpt><trkpt lat="45.9494341" lon="12.5093736"><ele>23.666666666666668</ele><time>2026-04-22T10:53:08.977Z</time></trkpt><trkpt lat="45.9494322" lon="12.5092482"><ele>24.0</ele><time>2026-04-22T10:53:11.977Z</time></trkpt><trkpt lat="45.9494393" lon="12.509135"><ele>24.333333333333336</ele><time>2026-04-22T10:53:14.976Z</time></trkpt><trkpt lat="45.9494368" lon="12.5090268"><ele>24.666666666666668</ele><time>2026-04-22T10:53:17.978Z</time></trkpt><trkpt lat="45.9494312" lon="12.5089076"><ele>25.0</ele><time>2026-04-22T10:53:20.976Z</time></trkpt><trkpt lat="45.9494182" lon="12.5087808"><ele>25.000000000000004</ele><time>2026-04-22T10:53:23.977Z</time></trkpt><trkpt lat="45.9494071" lon="12.5086623"><ele>25.0</ele><time>2026-04-22T10:53:26.976Z</time></trkpt><trkpt lat="45.949381" lon="12.5085575"><ele>25.0</ele><time>2026-04-22T10:53:29.977Z</time></trkpt><trkpt lat="45.9493548" lon="12.5084464"><ele>25.0</ele><time>2026-04-22T10:53:32.976Z</time></trkpt><trkpt lat="45.9493182" lon="12.5083279"><ele>25.000000000000004</ele><time>2026-04-22T10:53:35.977Z</time></trkpt><trkpt lat="45.9492853" lon="12.5082118"><ele>25.0</ele><time>2026-04-22T10:53:38.977Z</time></trkpt><trkpt lat="45.9492705" lon="12.5080918"><ele>25.000000000000004</ele><time>2026-04-22T10:53:41.977Z</time></trkpt><trkpt lat="45.9492466" lon="12.5079633"><ele>25.0</ele><time>2026-04-22T10:53:44.977Z</time></trkpt><trkpt lat="45.9492291" lon="12.5078399"><ele>25.0</ele><time>2026-04-22T10:53:47.977Z</time></trkpt><trkpt lat="45.9492233" lon="12.5077172"><ele>25.0</ele><time>2026-04-22T10:53:50.977Z</time></trkpt><trkpt lat="45.9492016" lon="12.5075868"><ele>25.000000000000004</ele><time>2026-04-22T10:53:53.977Z</time></trkpt><trkpt lat="45.9491854" lon="12.5074667"><ele>25.0</ele><time>2026-04-22T10:53:56.978Z</time></trkpt><trkpt lat="45.9491743" lon="12.5073497"><ele>24.833333333333336</ele><time>2026-04-22T10:53:59.977Z</time></trkpt><trkpt lat="45.949177" lon="12.5072263"><ele>24.666666666666668</ele><time>2026-04-22T10:54:02.977Z</time></trkpt><trkpt lat="45.9491741" lon="12.507103"><ele>24.5</ele><time>2026-04-22T10:54:05.976Z</time></trkpt><trkpt lat="45.9491674" lon="12.5069878"><ele>24.333333333333336</ele><time>2026-04-22T10:54:08.976Z</time></trkpt><trkpt lat="45.949152" lon="12.5068767"><ele>24.166666666666668</ele><time>2026-04-22T10:54:11.977Z</time></trkpt><trkpt lat="45.9491446" lon="12.5067521"><ele>24.0</ele><time>2026-04-22T10:54:14.976Z</time></trkpt><trkpt lat="45.9491341" lon="12.5066619"><ele>24.0</ele><time>2026-04-22T10:54:16.977Z</time></trkpt><trkpt lat="45.9491148" lon="12.5065705"><ele>24.0</ele><time>2026-04-22T10:54:18.978Z</time></trkpt><trkpt lat="45.9490869" lon="12.5064842"><ele>24.0</ele><time>2026-04-22T10:54:20.976Z</time></trkpt><trkpt lat="45.9490559" lon="12.5063622"><ele>24.0</ele><time>2026-04-22T10:54:23.978Z</time></trkpt><trkpt lat="45.9490367" lon="12.5062361"><ele>24.0</ele><time>2026-04-22T10:54:26.978Z</time></trkpt><trkpt lat="45.9490328" lon="12.506125"><ele>24.0</ele><time>2026-04-22T10:54:29.978Z</time></trkpt><trkpt lat="45.9490215" lon="12.5060296"><ele>23.833333333333332</ele><time>2026-04-22T10:54:32.977Z</time></trkpt><trkpt lat="45.9490113" lon="12.5059362"><ele>23.666666666666668</ele><time>2026-04-22T10:54:35.978Z</time></trkpt><trkpt lat="45.9489972" lon="12.5058268"><ele>23.5</ele><time>2026-04-22T10:54:38.977Z</time></trkpt><trkpt lat="45.9489719" lon="12.5057291"><ele>23.333333333333336</ele><time>2026-04-22T10:54:41.977Z</time></trkpt><trkpt lat="45.9489349" lon="12.5056395"><ele>23.166666666666668</ele><time>2026-04-22T10:54:44.977Z</time></trkpt><trkpt lat="45.9488994" lon="12.5055373"><ele>23.0</ele><time>2026-04-22T10:54:47.978Z</time></trkpt><trkpt lat="45.9488708" lon="12.5054224"><ele>23.142857142857142</ele><time>2026-04-22T10:54:50.977Z</time></trkpt><trkpt lat="45.9488417" lon="12.5053083"><ele>23.285714285714285</ele><time>2026-04-22T10:54:53.977Z</time></trkpt><trkpt lat="45.9488158" lon="12.5051996"><ele>23.428571428571427</ele><time>2026-04-22T10:54:56.977Z</time></trkpt><trkpt lat="45.948784" lon="12.5050988"><ele>23.57142857142857</ele><time>2026-04-22T10:54:59.977Z</time></trkpt><trkpt lat="45.9487614" lon="12.5050087"><ele>23.714285714285715</ele><time>2026-04-22T10:55:02.977Z</time></trkpt><trkpt lat="45.9487355" lon="12.5049244"><ele>23.857142857142854</ele><time>2026-04-22T10:55:05.978Z</time></trkpt><trkpt lat="45.9487166" lon="12.5048376"><ele>24.0</ele><time>2026-04-22T10:55:08.977Z</time></trkpt><trkpt lat="45.9487088" lon="12.5047256"><ele>24.0</ele><time>2026-04-22T10:55:12.977Z</time></trkpt><trkpt lat="45.948706" lon="12.5046315"><ele>24.0</ele><time>2026-04-22T10:55:15.977Z</time></trkpt><trkpt lat="45.9487213" lon="12.5045219"><ele>24.0</ele><time>2026-04-22T10:55:19.977Z</time></trkpt><trkpt lat="45.9487065" lon="12.5044045"><ele>24.0</ele><time>2026-04-22T10:55:23.978Z</time></trkpt><trkpt lat="45.9486816" lon="12.504311"><ele>24.0</ele><time>2026-04-22T10:55:26.982Z</time></trkpt><trkpt lat="45.9486672" lon="12.5041949"><ele>24.0</ele><time>2026-04-22T10:55:30.977Z</time></trkpt><trkpt lat="45.9486609" lon="12.5040811"><ele>24.0</ele><time>2026-04-22T10:55:33.981Z</time></trkpt><trkpt lat="45.9486636" lon="12.5039661"><ele>24.0</ele><time>2026-04-22T10:55:36.98Z</time></trkpt><trkpt lat="45.9486709" lon="12.5038492"><ele>24.0</ele><time>2026-04-22T10:55:39.982Z</time></trkpt><trkpt lat="45.9486956" lon="12.5037444"><ele>24.0</ele><time>2026-04-22T10:55:42.978Z</time></trkpt><trkpt lat="45.9487359" lon="12.5036638"><ele>24.0</ele><time>2026-04-22T10:55:45.978Z</time></trkpt><trkpt lat="45.948793" lon="12.5036053"><ele>24.0</ele><time>2026-04-22T10:55:48.977Z</time></trkpt><trkpt lat="45.9488726" lon="12.5035613"><ele>23.833333333333332</ele><time>2026-04-22T10:55:51.978Z</time></trkpt><trkpt lat="45.9489533" lon="12.5035178"><ele>23.666666666666668</ele><time>2026-04-22T10:55:54.978Z</time></trkpt><trkpt lat="45.9490321" lon="12.5034794"><ele>23.5</ele><time>2026-04-22T10:55:57.978Z</time></trkpt><trkpt lat="45.9490993" lon="12.5034501"><ele>23.333333333333336</ele><time>2026-04-22T10:56:00.977Z</time></trkpt><trkpt lat="45.9491824" lon="12.5034107"><ele>23.166666666666668</ele><time>2026-04-22T10:56:04.982Z</time></trkpt><trkpt lat="45.949254" lon="12.5033535"><ele>23.0</ele><time>2026-04-22T10:56:07.978Z</time></trkpt><trkpt lat="45.9493108" lon="12.5033075"><ele>22.666666666666668</ele><time>2026-04-22T10:56:09.978Z</time></trkpt><trkpt lat="45.9493716" lon="12.5032673"><ele>22.333333333333336</ele><time>2026-04-22T10:56:11.978Z</time></trkpt><trkpt lat="45.9494631" lon="12.5032415"><ele>22.0</ele><time>2026-04-22T10:56:14.977Z</time></trkpt><trkpt lat="45.9495275" lon="12.5032366"><ele>21.666666666666668</ele><time>2026-04-22T10:56:16.978Z</time></trkpt><trkpt lat="45.9495909" lon="12.5032292"><ele>21.333333333333332</ele><time>2026-04-22T10:56:18.978Z</time></trkpt><trkpt lat="45.949677" lon="12.5032326"><ele>21.0</ele><time>2026-04-22T10:56:21.978Z</time></trkpt><trkpt lat="45.9497535" lon="12.5032454"><ele>21.0</ele><time>2026-04-22T10:56:24.98Z</time></trkpt><trkpt lat="45.9498171" lon="12.5032518"><ele>21.0</ele><time>2026-04-22T10:56:27.977Z</time></trkpt><trkpt lat="45.9498849" lon="12.5032485"><ele>21.0</ele><time>2026-04-22T10:56:30.978Z</time></trkpt><trkpt lat="45.9499658" lon="12.5032366"><ele>21.0</ele><time>2026-04-22T10:56:33.978Z</time></trkpt><trkpt lat="45.9500397" lon="12.5032056"><ele>21.0</ele><time>2026-04-22T10:56:36.977Z</time></trkpt><trkpt lat="45.9501148" lon="12.5031738"><ele>21.0</ele><time>2026-04-22T10:56:39.98Z</time></trkpt><trkpt lat="45.950191" lon="12.5031326"><ele>21.0</ele><time>2026-04-22T10:56:42.977Z</time></trkpt><trkpt lat="45.950267" lon="12.5030937"><ele>21.0</ele><time>2026-04-22T10:56:45.978Z</time></trkpt><trkpt lat="45.9503457" lon="12.5030649"><ele>21.0</ele><time>2026-04-22T10:56:48.977Z</time></trkpt><trkpt lat="45.9504274" lon="12.5030402"><ele>21.0</ele><time>2026-04-22T10:56:51.983Z</time></trkpt><trkpt lat="45.9505044" lon="12.5030278"><ele>21.0</ele><time>2026-04-22T10:56:54.977Z</time></trkpt><trkpt lat="45.9505753" lon="12.5030532"><ele>21.0</ele><time>2026-04-22T10:56:57.977Z</time></trkpt><trkpt lat="45.9506272" lon="12.5031218"><ele>21.0</ele><time>2026-04-22T10:57:00.977Z</time></trkpt><trkpt lat="45.9506515" lon="12.5032187"><ele>21.0</ele><time>2026-04-22T10:57:03.976Z</time></trkpt><trkpt lat="45.9506672" lon="12.50332"><ele>21.0</ele><time>2026-04-22T10:57:06.977Z</time></trkpt><trkpt lat="45.9506719" lon="12.5034337"><ele>21.0</ele><time>2026-04-22T10:57:09.977Z</time></trkpt><trkpt lat="45.9506662" lon="12.5035591"><ele>21.0</ele><time>2026-04-22T10:57:12.976Z</time></trkpt><trkpt lat="45.9506634" lon="12.5036841"><ele>21.0</ele><time>2026-04-22T10:57:15.976Z</time></trkpt><trkpt lat="45.9506493" lon="12.5038021"><ele>21.0</ele><time>2026-04-22T10:57:18.977Z</time></trkpt><trkpt lat="45.9506353" lon="12.5039089"><ele>21.0</ele><time>2026-04-22T10:57:21.977Z</time></trkpt><trkpt lat="45.9506231" lon="12.504004"><ele>21.0</ele><time>2026-04-22T10:57:24.979Z</time></trkpt><trkpt lat="45.9506222" lon="12.504105"><ele>21.0</ele><time>2026-04-22T10:57:27.976Z</time></trkpt><trkpt lat="45.9506215" lon="12.5042166"><ele>21.0</ele><time>2026-04-22T10:57:30.978Z</time></trkpt><trkpt lat="45.9506158" lon="12.5043256"><ele>21.0</ele><time>2026-04-22T10:57:33.983Z</time></trkpt><trkpt lat="45.9506099" lon="12.5044452"><ele>21.0</ele><time>2026-04-22T10:57:36.978Z</time></trkpt><trkpt lat="45.9506144" lon="12.5045648"><ele>21.0</ele><time>2026-04-22T10:57:39.976Z</time></trkpt><trkpt lat="45.9506105" lon="12.5046797"><ele>21.0</ele><time>2026-04-22T10:57:42.977Z</time></trkpt><trkpt lat="45.9506124" lon="12.504788"><ele>21.0</ele><time>2026-04-22T10:57:45.977Z</time></trkpt><trkpt lat="45.9506276" lon="12.5048937"><ele>21.0</ele><time>2026-04-22T10:57:48.982Z</time></trkpt><trkpt lat="45.950616" lon="12.5050067"><ele>21.0</ele><time>2026-04-22T10:57:52.977Z</time></trkpt><trkpt lat="45.9505817" lon="12.5050955"><ele>21.142857142857142</ele><time>2026-04-22T10:57:55.978Z</time></trkpt><trkpt lat="45.9505744" lon="12.5051954"><ele>21.285714285714285</ele><time>2026-04-22T10:57:58.976Z</time></trkpt><trkpt lat="45.9506226" lon="12.5052591"><ele>21.42857142857143</ele><time>2026-04-22T10:58:03.977Z</time></trkpt><trkpt lat="45.950686" lon="12.5052203"><ele>21.57142857142857</ele><time>2026-04-22T10:58:07.977Z</time></trkpt><trkpt lat="45.9507493" lon="12.5052041"><ele>21.714285714285715</ele><time>2026-04-22T10:58:10.978Z</time></trkpt><trkpt lat="45.9508247" lon="12.5051947"><ele>21.857142857142858</ele><time>2026-04-22T10:58:13.978Z</time></trkpt><trkpt lat="45.9509015" lon="12.5051817"><ele>22.0</ele><time>2026-04-22T10:58:16.977Z</time></trkpt><trkpt lat="45.9509824" lon="12.5051522"><ele>22.0</ele><time>2026-04-22T10:58:19.977Z</time></trkpt><trkpt lat="45.9510453" lon="12.5051368"><ele>22.0</ele><time>2026-04-22T10:58:21.977Z</time></trkpt><trkpt lat="45.9511122" lon="12.5051147"><ele>22.0</ele><time>2026-04-22T10:58:23.977Z</time></trkpt><trkpt lat="45.9511796" lon="12.5050848"><ele>22.0</ele><time>2026-04-22T10:58:25.979Z</time></trkpt><trkpt lat="45.9512489" lon="12.5050655"><ele>22.0</ele><time>2026-04-22T10:58:27.978Z</time></trkpt><trkpt lat="45.951317" lon="12.5050555"><ele>22.0</ele><time>2026-04-22T10:58:29.98Z</time></trkpt><trkpt lat="45.9513867" lon="12.5050404"><ele>22.0</ele><time>2026-04-22T10:58:31.978Z</time></trkpt><trkpt lat="45.9514613" lon="12.5049958"><ele>22.0</ele><time>2026-04-22T10:58:33.98Z</time></trkpt><trkpt lat="45.9515413" lon="12.5049627"><ele>22.0</ele><time>2026-04-22T10:58:36.976Z</time></trkpt><trkpt lat="45.9516144" lon="12.5049523"><ele>22.0</ele><time>2026-04-22T10:58:39.98Z</time></trkpt><trkpt lat="45.9516969" lon="12.5049402"><ele>22.0</ele><time>2026-04-22T10:58:42.977Z</time></trkpt><trkpt lat="45.9518204" lon="12.5049331"><ele>22.0</ele><time>2026-04-22T10:58:46.977Z</time></trkpt><trkpt lat="45.9519117" lon="12.5049158"><ele>22.400000000000002</ele><time>2026-04-22T10:58:49.978Z</time></trkpt><trkpt lat="45.9520573" lon="12.5049133"><ele>22.8</ele><time>2026-04-22T10:58:54.977Z</time></trkpt><trkpt lat="45.9521489" lon="12.5048999"><ele>23.2</ele><time>2026-04-22T10:58:57.977Z</time></trkpt><trkpt lat="45.9522398" lon="12.5048878"><ele>23.6</ele><time>2026-04-22T10:59:00.977Z</time></trkpt><trkpt lat="45.9523241" lon="12.5048755"><ele>24.0</ele><time>2026-04-22T10:59:03.977Z</time></trkpt><trkpt lat="45.9523868" lon="12.5048151"><ele>24.0</ele><time>2026-04-22T10:59:05.977Z</time></trkpt><trkpt lat="45.952464" lon="12.504761"><ele>24.0</ele><time>2026-04-22T10:59:08.977Z</time></trkpt><trkpt lat="45.9525325" lon="12.5047406"><ele>24.0</ele><time>2026-04-22T10:59:11.978Z</time></trkpt><trkpt lat="45.9526148" lon="12.5047233"><ele>24.0</ele><time>2026-04-22T10:59:15.978Z</time></trkpt><trkpt lat="45.9526888" lon="12.5047136"><ele>24.0</ele><time>2026-04-22T10:59:18.979Z</time></trkpt><trkpt lat="45.9527704" lon="12.5047253"><ele>24.0</ele><time>2026-04-22T10:59:21.98Z</time></trkpt><trkpt lat="45.9528418" lon="12.5047364"><ele>23.5</ele><time>2026-04-22T10:59:23.979Z</time></trkpt><trkpt lat="45.9529194" lon="12.5047227"><ele>23.0</ele><time>2026-04-22T10:59:26.977Z</time></trkpt><trkpt lat="45.9529863" lon="12.5047144"><ele>22.5</ele><time>2026-04-22T10:59:30.978Z</time></trkpt><trkpt lat="45.9530615" lon="12.5046545"><ele>22.0</ele><time>2026-04-22T10:59:35.978Z</time></trkpt><trkpt lat="45.9531338" lon="12.5046024"><ele>21.5</ele><time>2026-04-22T10:59:38.978Z</time></trkpt><trkpt lat="45.9532126" lon="12.5045993"><ele>21.0</ele><time>2026-04-22T10:59:40.977Z</time></trkpt><trkpt lat="45.9532771" lon="12.5045859"><ele>21.0</ele><time>2026-04-22T10:59:42.981Z</time></trkpt><trkpt lat="45.953358" lon="12.5045572"><ele>21.0</ele><time>2026-04-22T10:59:45.977Z</time></trkpt><trkpt lat="45.9534478" lon="12.5045257"><ele>21.0</ele><time>2026-04-22T10:59:48.978Z</time></trkpt><trkpt lat="45.9535156" lon="12.5044933"><ele>21.0</ele><time>2026-04-22T10:59:50.978Z</time></trkpt><trkpt lat="45.9535837" lon="12.5044543"><ele>21.0</ele><time>2026-04-22T10:59:52.978Z</time></trkpt><trkpt lat="45.9536499" lon="12.5044302"><ele>21.0</ele><time>2026-04-22T10:59:54.977Z</time></trkpt><trkpt lat="45.9537123" lon="12.5044155"><ele>21.285714285714285</ele><time>2026-04-22T10:59:56.978Z</time></trkpt><trkpt lat="45.953799" lon="12.5043749"><ele>21.57142857142857</ele><time>2026-04-22T10:59:59.977Z</time></trkpt><trkpt lat="45.953871" lon="12.5043136"><ele>21.857142857142858</ele><time>2026-04-22T11:00:02.977Z</time></trkpt><trkpt lat="45.9539268" lon="12.5042371"><ele>22.142857142857142</ele><time>2026-04-22T11:00:05.978Z</time></trkpt><trkpt lat="45.9539708" lon="12.5041647"><ele>22.428571428571427</ele><time>2026-04-22T11:00:08.979Z</time></trkpt><trkpt lat="45.9540115" lon="12.5040926"><ele>22.714285714285715</ele><time>2026-04-22T11:00:11.978Z</time></trkpt><trkpt lat="45.9540514" lon="12.5040209"><ele>23.0</ele><time>2026-04-22T11:00:14.978Z</time></trkpt><trkpt lat="45.9540924" lon="12.5039286"><ele>23.0</ele><time>2026-04-22T11:00:19.98Z</time></trkpt><trkpt lat="45.9541393" lon="12.5038493"><ele>23.0</ele><time>2026-04-22T11:00:23.977Z</time></trkpt><trkpt lat="45.9541872" lon="12.5037514"><ele>23.0</ele><time>2026-04-22T11:00:27.977Z</time></trkpt><trkpt lat="45.9542366" lon="12.5036831"><ele>23.0</ele><time>2026-04-22T11:00:30.977Z</time></trkpt><trkpt lat="45.9542932" lon="12.5036151"><ele>23.0</ele><time>2026-04-22T11:00:33.979Z</time></trkpt><trkpt lat="45.9543268" lon="12.5035291"><ele>23.0</ele><time>2026-04-22T11:00:36.976Z</time></trkpt><trkpt lat="45.9543104" lon="12.5034354"><ele>23.0</ele><time>2026-04-22T11:00:39.982Z</time></trkpt><trkpt lat="45.9542553" lon="12.5033128"><ele>24.0</ele><time>2026-04-22T11:00:42.977Z</time></trkpt><trkpt lat="45.9542014" lon="12.5032095"><ele>24.0</ele><time>2026-04-22T11:00:44.977Z</time></trkpt><trkpt lat="45.9541599" lon="12.5031216"><ele>24.0</ele><time>2026-04-22T11:00:46.978Z</time></trkpt><trkpt lat="45.9541351" lon="12.5030314"><ele>24.0</ele><time>2026-04-22T11:00:48.977Z</time></trkpt><trkpt lat="45.9541351" lon="12.5030314"><ele>24.0</ele><time>2026-04-22T11:00:48.977Z</time></trkpt></trkseg></trk></gpx>